<?xml version="1.0" encoding="UTF-8" standalone="no" ?>
<gpx xmlns="http://www.topografix.com/GPX/1/1" xmlns:xsi="http://www.w3.org/2001/XMLSchema-instance" xsi:schemaLocation="http://www.topografix.com/GPX/1/1 http://www.topografix.com/GPX/1/1/gpx.xsd" version="1.1" creator="VisuGPX - https://www.visugpx.com">
  <metadata>
    <name>Airole, Breil-sur-Roya</name>
    <desc><![CDATA[Airole, Breil-sur-Roya. Une organisation de [url=http://site.benb.fr/action/view/Menton_(automne_2014)]Bassée en Balade[/url].]]></desc>
  </metadata>
  <trk>
    <name><![CDATA[NOV-01-14 15:37:12]]></name>
    <trkseg>
      <trkpt lat="43.87125" lon="7.55286">
        <ele>152.03</ele>
        <time>2014-11-01T08:21:03Z</time>
      </trkpt>
      <trkpt lat="43.87155" lon="7.55301">
        <ele>145.3</ele>
        <time>2014-11-01T08:23:22Z</time>
      </trkpt>
      <trkpt lat="43.87163" lon="7.5532">
        <ele>143.85</ele>
        <time>2014-11-01T08:23:40Z</time>
      </trkpt>
      <trkpt lat="43.87165" lon="7.55323">
        <ele>144.82</ele>
        <time>2014-11-01T08:23:47Z</time>
      </trkpt>
      <trkpt lat="43.87173" lon="7.5533">
        <ele>146.26</ele>
        <time>2014-11-01T08:24:03Z</time>
      </trkpt>
      <trkpt lat="43.87175" lon="7.5533">
        <ele>146.26</ele>
        <time>2014-11-01T08:24:06Z</time>
      </trkpt>
      <trkpt lat="43.8718" lon="7.55331">
        <ele>146.26</ele>
        <time>2014-11-01T08:24:21Z</time>
      </trkpt>
      <trkpt lat="43.87187" lon="7.5533">
        <ele>147.7</ele>
        <time>2014-11-01T08:24:39Z</time>
      </trkpt>
      <trkpt lat="43.87187" lon="7.55327">
        <ele>149.62</ele>
        <time>2014-11-01T08:24:57Z</time>
      </trkpt>
      <trkpt lat="43.87186" lon="7.55326">
        <ele>150.1</ele>
        <time>2014-11-01T08:24:58Z</time>
      </trkpt>
      <trkpt lat="43.87189" lon="7.55305">
        <ele>149.62</ele>
        <time>2014-11-01T08:25:07Z</time>
      </trkpt>
      <trkpt lat="43.87189" lon="7.55302">
        <ele>149.62</ele>
        <time>2014-11-01T08:25:09Z</time>
      </trkpt>
      <trkpt lat="43.87185" lon="7.55277">
        <ele>152.99</ele>
        <time>2014-11-01T08:25:27Z</time>
      </trkpt>
      <trkpt lat="43.87185" lon="7.55273">
        <ele>152.51</ele>
        <time>2014-11-01T08:25:30Z</time>
      </trkpt>
      <trkpt lat="43.87168" lon="7.55246">
        <ele>147.7</ele>
        <time>2014-11-01T08:25:54Z</time>
      </trkpt>
      <trkpt lat="43.87165" lon="7.55242">
        <ele>148.18</ele>
        <time>2014-11-01T08:26:00Z</time>
      </trkpt>
      <trkpt lat="43.8716" lon="7.55235">
        <ele>148.18</ele>
        <time>2014-11-01T08:26:03Z</time>
      </trkpt>
      <trkpt lat="43.87148" lon="7.55227">
        <ele>147.22</ele>
        <time>2014-11-01T08:26:19Z</time>
      </trkpt>
      <trkpt lat="43.87145" lon="7.55224">
        <ele>147.22</ele>
        <time>2014-11-01T08:26:21Z</time>
      </trkpt>
      <trkpt lat="43.87125" lon="7.55206">
        <ele>148.18</ele>
        <time>2014-11-01T08:26:36Z</time>
      </trkpt>
      <trkpt lat="43.87118" lon="7.55196">
        <ele>148.66</ele>
        <time>2014-11-01T08:26:44Z</time>
      </trkpt>
      <trkpt lat="43.87103" lon="7.55177">
        <ele>150.58</ele>
        <time>2014-11-01T08:27:00Z</time>
      </trkpt>
      <trkpt lat="43.87093" lon="7.55162">
        <ele>150.1</ele>
        <time>2014-11-01T08:27:14Z</time>
      </trkpt>
      <trkpt lat="43.87088" lon="7.55157">
        <ele>150.58</ele>
        <time>2014-11-01T08:27:19Z</time>
      </trkpt>
      <trkpt lat="43.87086" lon="7.55153">
        <ele>149.62</ele>
        <time>2014-11-01T08:27:22Z</time>
      </trkpt>
      <trkpt lat="43.87072" lon="7.55133">
        <ele>147.7</ele>
        <time>2014-11-01T08:27:39Z</time>
      </trkpt>
      <trkpt lat="43.87069" lon="7.5513">
        <ele>147.22</ele>
        <time>2014-11-01T08:27:43Z</time>
      </trkpt>
      <trkpt lat="43.87052" lon="7.55122">
        <ele>150.58</ele>
        <time>2014-11-01T08:27:59Z</time>
      </trkpt>
      <trkpt lat="43.87032" lon="7.55121">
        <ele>152.99</ele>
        <time>2014-11-01T08:28:16Z</time>
      </trkpt>
      <trkpt lat="43.87014" lon="7.55127">
        <ele>154.91</ele>
        <time>2014-11-01T08:28:32Z</time>
      </trkpt>
      <trkpt lat="43.87002" lon="7.55135">
        <ele>156.35</ele>
        <time>2014-11-01T08:28:45Z</time>
      </trkpt>
      <trkpt lat="43.86989" lon="7.55143">
        <ele>154.91</ele>
        <time>2014-11-01T08:29:00Z</time>
      </trkpt>
      <trkpt lat="43.86979" lon="7.55146">
        <ele>153.95</ele>
        <time>2014-11-01T08:29:12Z</time>
      </trkpt>
      <trkpt lat="43.86973" lon="7.55145">
        <ele>152.51</ele>
        <time>2014-11-01T08:29:17Z</time>
      </trkpt>
      <trkpt lat="43.86969" lon="7.55143">
        <ele>153.95</ele>
        <time>2014-11-01T08:29:35Z</time>
      </trkpt>
      <trkpt lat="43.86971" lon="7.55143">
        <ele>152.99</ele>
        <time>2014-11-01T08:29:51Z</time>
      </trkpt>
      <trkpt lat="43.86972" lon="7.55144">
        <ele>152.51</ele>
        <time>2014-11-01T08:30:07Z</time>
      </trkpt>
      <trkpt lat="43.86972" lon="7.55144">
        <ele>152.51</ele>
        <time>2014-11-01T08:30:55Z</time>
      </trkpt>
      <trkpt lat="43.86971" lon="7.55142">
        <ele>152.03</ele>
        <time>2014-11-01T08:32:05Z</time>
      </trkpt>
      <trkpt lat="43.8697" lon="7.55146">
        <ele>154.91</ele>
        <time>2014-11-01T08:33:05Z</time>
      </trkpt>
      <trkpt lat="43.8697" lon="7.55137">
        <ele>156.83</ele>
        <time>2014-11-01T08:33:25Z</time>
      </trkpt>
      <trkpt lat="43.86974" lon="7.55123">
        <ele>152.03</ele>
        <time>2014-11-01T08:33:37Z</time>
      </trkpt>
      <trkpt lat="43.86981" lon="7.5509">
        <ele>145.78</ele>
        <time>2014-11-01T08:33:58Z</time>
      </trkpt>
      <trkpt lat="43.86984" lon="7.55084">
        <ele>145.3</ele>
        <time>2014-11-01T08:34:02Z</time>
      </trkpt>
      <trkpt lat="43.86992" lon="7.55072">
        <ele>145.78</ele>
        <time>2014-11-01T08:34:13Z</time>
      </trkpt>
      <trkpt lat="43.86998" lon="7.55061">
        <ele>144.82</ele>
        <time>2014-11-01T08:34:22Z</time>
      </trkpt>
      <trkpt lat="43.87014" lon="7.55042">
        <ele>141.93</ele>
        <time>2014-11-01T08:34:40Z</time>
      </trkpt>
      <trkpt lat="43.87016" lon="7.55038">
        <ele>141.93</ele>
        <time>2014-11-01T08:34:43Z</time>
      </trkpt>
      <trkpt lat="43.87024" lon="7.55021">
        <ele>140.01</ele>
        <time>2014-11-01T08:34:55Z</time>
      </trkpt>
      <trkpt lat="43.87029" lon="7.55009">
        <ele>139.53</ele>
        <time>2014-11-01T08:35:05Z</time>
      </trkpt>
      <trkpt lat="43.87035" lon="7.55003">
        <ele>141.45</ele>
        <time>2014-11-01T08:35:12Z</time>
      </trkpt>
      <trkpt lat="43.87048" lon="7.54988">
        <ele>146.26</ele>
        <time>2014-11-01T08:35:27Z</time>
      </trkpt>
      <trkpt lat="43.87049" lon="7.54988">
        <ele>146.26</ele>
        <time>2014-11-01T08:35:28Z</time>
      </trkpt>
      <trkpt lat="43.87063" lon="7.54983">
        <ele>146.74</ele>
        <time>2014-11-01T08:35:43Z</time>
      </trkpt>
      <trkpt lat="43.87072" lon="7.54976">
        <ele>146.74</ele>
        <time>2014-11-01T08:35:53Z</time>
      </trkpt>
      <trkpt lat="43.87096" lon="7.54967">
        <ele>147.7</ele>
        <time>2014-11-01T08:36:12Z</time>
      </trkpt>
      <trkpt lat="43.87107" lon="7.54963">
        <ele>147.7</ele>
        <time>2014-11-01T08:36:22Z</time>
      </trkpt>
      <trkpt lat="43.87129" lon="7.54957">
        <ele>147.7</ele>
        <time>2014-11-01T08:36:38Z</time>
      </trkpt>
      <trkpt lat="43.87131" lon="7.54955">
        <ele>147.22</ele>
        <time>2014-11-01T08:36:41Z</time>
      </trkpt>
      <trkpt lat="43.87148" lon="7.54943">
        <ele>149.14</ele>
        <time>2014-11-01T08:36:56Z</time>
      </trkpt>
      <trkpt lat="43.87159" lon="7.54937">
        <ele>148.66</ele>
        <time>2014-11-01T08:37:04Z</time>
      </trkpt>
      <trkpt lat="43.87179" lon="7.54925">
        <ele>148.18</ele>
        <time>2014-11-01T08:37:20Z</time>
      </trkpt>
      <trkpt lat="43.8719" lon="7.54921">
        <ele>147.7</ele>
        <time>2014-11-01T08:37:29Z</time>
      </trkpt>
      <trkpt lat="43.87198" lon="7.54916">
        <ele>147.7</ele>
        <time>2014-11-01T08:37:36Z</time>
      </trkpt>
      <trkpt lat="43.87204" lon="7.54915">
        <ele>147.22</ele>
        <time>2014-11-01T08:37:40Z</time>
      </trkpt>
      <trkpt lat="43.87225" lon="7.54905">
        <ele>148.18</ele>
        <time>2014-11-01T08:37:58Z</time>
      </trkpt>
      <trkpt lat="43.87245" lon="7.54893">
        <ele>142.89</ele>
        <time>2014-11-01T08:38:15Z</time>
      </trkpt>
      <trkpt lat="43.8725" lon="7.54886">
        <ele>140.49</ele>
        <time>2014-11-01T08:38:25Z</time>
      </trkpt>
      <trkpt lat="43.87253" lon="7.54881">
        <ele>140.01</ele>
        <time>2014-11-01T08:38:31Z</time>
      </trkpt>
      <trkpt lat="43.87256" lon="7.54878">
        <ele>140.49</ele>
        <time>2014-11-01T08:38:34Z</time>
      </trkpt>
      <trkpt lat="43.87272" lon="7.54866">
        <ele>145.3</ele>
        <time>2014-11-01T08:38:52Z</time>
      </trkpt>
      <trkpt lat="43.87279" lon="7.54864">
        <ele>146.26</ele>
        <time>2014-11-01T08:38:58Z</time>
      </trkpt>
      <trkpt lat="43.87281" lon="7.54863">
        <ele>146.26</ele>
        <time>2014-11-01T08:39:00Z</time>
      </trkpt>
      <trkpt lat="43.87287" lon="7.54842">
        <ele>145.78</ele>
        <time>2014-11-01T08:39:17Z</time>
      </trkpt>
      <trkpt lat="43.87295" lon="7.54825">
        <ele>148.66</ele>
        <time>2014-11-01T08:39:32Z</time>
      </trkpt>
      <trkpt lat="43.87305" lon="7.54804">
        <ele>152.99</ele>
        <time>2014-11-01T08:39:49Z</time>
      </trkpt>
      <trkpt lat="43.87311" lon="7.54791">
        <ele>156.35</ele>
        <time>2014-11-01T08:40:01Z</time>
      </trkpt>
      <trkpt lat="43.87313" lon="7.54785">
        <ele>156.83</ele>
        <time>2014-11-01T08:40:06Z</time>
      </trkpt>
      <trkpt lat="43.87324" lon="7.54765">
        <ele>159.24</ele>
        <time>2014-11-01T08:40:23Z</time>
      </trkpt>
      <trkpt lat="43.87326" lon="7.5476">
        <ele>160.2</ele>
        <time>2014-11-01T08:40:27Z</time>
      </trkpt>
      <trkpt lat="43.87336" lon="7.54737">
        <ele>162.6</ele>
        <time>2014-11-01T08:40:46Z</time>
      </trkpt>
      <trkpt lat="43.87343" lon="7.54715">
        <ele>167.41</ele>
        <time>2014-11-01T08:41:02Z</time>
      </trkpt>
      <trkpt lat="43.8735" lon="7.54697">
        <ele>171.25</ele>
        <time>2014-11-01T08:41:16Z</time>
      </trkpt>
      <trkpt lat="43.8736" lon="7.54679">
        <ele>173.17</ele>
        <time>2014-11-01T08:41:32Z</time>
      </trkpt>
      <trkpt lat="43.87371" lon="7.54662">
        <ele>176.06</ele>
        <time>2014-11-01T08:41:49Z</time>
      </trkpt>
      <trkpt lat="43.87375" lon="7.54651">
        <ele>177.02</ele>
        <time>2014-11-01T08:41:57Z</time>
      </trkpt>
      <trkpt lat="43.8738" lon="7.5464">
        <ele>177.5</ele>
        <time>2014-11-01T08:42:07Z</time>
      </trkpt>
      <trkpt lat="43.87383" lon="7.54632">
        <ele>177.98</ele>
        <time>2014-11-01T08:42:13Z</time>
      </trkpt>
      <trkpt lat="43.87395" lon="7.54614">
        <ele>177.98</ele>
        <time>2014-11-01T08:42:30Z</time>
      </trkpt>
      <trkpt lat="43.87405" lon="7.54596">
        <ele>179.9</ele>
        <time>2014-11-01T08:42:46Z</time>
      </trkpt>
      <trkpt lat="43.87406" lon="7.54592">
        <ele>179.42</ele>
        <time>2014-11-01T08:42:49Z</time>
      </trkpt>
      <trkpt lat="43.87411" lon="7.54566">
        <ele>181.83</ele>
        <time>2014-11-01T08:43:08Z</time>
      </trkpt>
      <trkpt lat="43.87412" lon="7.54561">
        <ele>182.79</ele>
        <time>2014-11-01T08:43:12Z</time>
      </trkpt>
      <trkpt lat="43.87419" lon="7.54545">
        <ele>187.11</ele>
        <time>2014-11-01T08:43:28Z</time>
      </trkpt>
      <trkpt lat="43.87424" lon="7.5453">
        <ele>192.88</ele>
        <time>2014-11-01T08:43:42Z</time>
      </trkpt>
      <trkpt lat="43.87428" lon="7.54513">
        <ele>194.8</ele>
        <time>2014-11-01T08:43:58Z</time>
      </trkpt>
      <trkpt lat="43.87429" lon="7.54508">
        <ele>195.77</ele>
        <time>2014-11-01T08:44:15Z</time>
      </trkpt>
      <trkpt lat="43.8743" lon="7.54501">
        <ele>197.21</ele>
        <time>2014-11-01T08:45:00Z</time>
      </trkpt>
      <trkpt lat="43.87431" lon="7.54499">
        <ele>197.69</ele>
        <time>2014-11-01T08:45:02Z</time>
      </trkpt>
      <trkpt lat="43.87431" lon="7.54496">
        <ele>198.17</ele>
        <time>2014-11-01T08:45:04Z</time>
      </trkpt>
      <trkpt lat="43.87431" lon="7.54493">
        <ele>198.65</ele>
        <time>2014-11-01T08:45:06Z</time>
      </trkpt>
      <trkpt lat="43.87431" lon="7.54491">
        <ele>199.13</ele>
        <time>2014-11-01T08:45:08Z</time>
      </trkpt>
      <trkpt lat="43.87437" lon="7.54486">
        <ele>201.05</ele>
        <time>2014-11-01T08:45:23Z</time>
      </trkpt>
      <trkpt lat="43.87437" lon="7.54486">
        <ele>201.53</ele>
        <time>2014-11-01T08:46:58Z</time>
      </trkpt>
      <trkpt lat="43.87439" lon="7.54487">
        <ele>202.98</ele>
        <time>2014-11-01T08:47:28Z</time>
      </trkpt>
      <trkpt lat="43.8745" lon="7.54493">
        <ele>203.46</ele>
        <time>2014-11-01T08:47:43Z</time>
      </trkpt>
      <trkpt lat="43.87456" lon="7.54497">
        <ele>202.98</ele>
        <time>2014-11-01T08:47:48Z</time>
      </trkpt>
      <trkpt lat="43.87468" lon="7.54503">
        <ele>202.49</ele>
        <time>2014-11-01T08:47:57Z</time>
      </trkpt>
      <trkpt lat="43.87493" lon="7.54508">
        <ele>203.94</ele>
        <time>2014-11-01T08:48:10Z</time>
      </trkpt>
      <trkpt lat="43.87498" lon="7.54507">
        <ele>203.94</ele>
        <time>2014-11-01T08:48:16Z</time>
      </trkpt>
      <trkpt lat="43.87511" lon="7.54517">
        <ele>202.98</ele>
        <time>2014-11-01T08:48:31Z</time>
      </trkpt>
      <trkpt lat="43.87523" lon="7.54525">
        <ele>202.98</ele>
        <time>2014-11-01T08:48:41Z</time>
      </trkpt>
      <trkpt lat="43.87533" lon="7.54534">
        <ele>203.46</ele>
        <time>2014-11-01T08:48:54Z</time>
      </trkpt>
      <trkpt lat="43.87544" lon="7.54534">
        <ele>203.46</ele>
        <time>2014-11-01T08:49:03Z</time>
      </trkpt>
      <trkpt lat="43.87549" lon="7.54535">
        <ele>203.46</ele>
        <time>2014-11-01T08:49:07Z</time>
      </trkpt>
      <trkpt lat="43.8756" lon="7.54537">
        <ele>202.01</ele>
        <time>2014-11-01T08:49:19Z</time>
      </trkpt>
      <trkpt lat="43.87571" lon="7.54545">
        <ele>201.05</ele>
        <time>2014-11-01T08:49:34Z</time>
      </trkpt>
      <trkpt lat="43.87573" lon="7.54556">
        <ele>200.09</ele>
        <time>2014-11-01T08:49:48Z</time>
      </trkpt>
      <trkpt lat="43.8758" lon="7.54581">
        <ele>196.73</ele>
        <time>2014-11-01T08:50:04Z</time>
      </trkpt>
      <trkpt lat="43.8758" lon="7.54582">
        <ele>196.73</ele>
        <time>2014-11-01T08:50:05Z</time>
      </trkpt>
      <trkpt lat="43.8759" lon="7.54587">
        <ele>195.28</ele>
        <time>2014-11-01T08:50:21Z</time>
      </trkpt>
      <trkpt lat="43.87603" lon="7.54591">
        <ele>196.25</ele>
        <time>2014-11-01T08:50:34Z</time>
      </trkpt>
      <trkpt lat="43.87619" lon="7.54586">
        <ele>196.73</ele>
        <time>2014-11-01T08:50:47Z</time>
      </trkpt>
      <trkpt lat="43.87634" lon="7.54581">
        <ele>193.84</ele>
        <time>2014-11-01T08:51:00Z</time>
      </trkpt>
      <trkpt lat="43.8764" lon="7.5457">
        <ele>188.56</ele>
        <time>2014-11-01T08:51:12Z</time>
      </trkpt>
      <trkpt lat="43.87652" lon="7.54558">
        <ele>184.71</ele>
        <time>2014-11-01T08:51:28Z</time>
      </trkpt>
      <trkpt lat="43.87662" lon="7.54559">
        <ele>185.67</ele>
        <time>2014-11-01T08:51:39Z</time>
      </trkpt>
      <trkpt lat="43.87675" lon="7.54548">
        <ele>186.15</ele>
        <time>2014-11-01T08:51:59Z</time>
      </trkpt>
      <trkpt lat="43.87676" lon="7.54539">
        <ele>187.11</ele>
        <time>2014-11-01T08:52:14Z</time>
      </trkpt>
      <trkpt lat="43.87668" lon="7.54535">
        <ele>187.59</ele>
        <time>2014-11-01T08:52:30Z</time>
      </trkpt>
      <trkpt lat="43.87664" lon="7.54534">
        <ele>187.59</ele>
        <time>2014-11-01T08:52:36Z</time>
      </trkpt>
      <trkpt lat="43.87657" lon="7.54538">
        <ele>187.59</ele>
        <time>2014-11-01T08:52:50Z</time>
      </trkpt>
      <trkpt lat="43.87647" lon="7.54535">
        <ele>188.08</ele>
        <time>2014-11-01T08:53:04Z</time>
      </trkpt>
      <trkpt lat="43.87644" lon="7.54523">
        <ele>189.52</ele>
        <time>2014-11-01T08:53:17Z</time>
      </trkpt>
      <trkpt lat="43.87642" lon="7.54512">
        <ele>190</ele>
        <time>2014-11-01T08:53:25Z</time>
      </trkpt>
      <trkpt lat="43.87636" lon="7.54486">
        <ele>190</ele>
        <time>2014-11-01T08:53:42Z</time>
      </trkpt>
      <trkpt lat="43.87635" lon="7.54476">
        <ele>190</ele>
        <time>2014-11-01T08:53:50Z</time>
      </trkpt>
      <trkpt lat="43.87634" lon="7.54474">
        <ele>190</ele>
        <time>2014-11-01T08:53:52Z</time>
      </trkpt>
      <trkpt lat="43.87624" lon="7.54461">
        <ele>190</ele>
        <time>2014-11-01T08:54:07Z</time>
      </trkpt>
      <trkpt lat="43.87619" lon="7.54449">
        <ele>190.96</ele>
        <time>2014-11-01T08:54:15Z</time>
      </trkpt>
      <trkpt lat="43.87617" lon="7.54427">
        <ele>190.96</ele>
        <time>2014-11-01T08:54:29Z</time>
      </trkpt>
      <trkpt lat="43.87615" lon="7.54415">
        <ele>190</ele>
        <time>2014-11-01T08:54:39Z</time>
      </trkpt>
      <trkpt lat="43.87613" lon="7.54413">
        <ele>189.52</ele>
        <time>2014-11-01T08:54:42Z</time>
      </trkpt>
      <trkpt lat="43.8761" lon="7.5441">
        <ele>190</ele>
        <time>2014-11-01T08:54:45Z</time>
      </trkpt>
      <trkpt lat="43.87603" lon="7.54402">
        <ele>190</ele>
        <time>2014-11-01T08:54:52Z</time>
      </trkpt>
      <trkpt lat="43.87596" lon="7.544">
        <ele>189.52</ele>
        <time>2014-11-01T08:55:11Z</time>
      </trkpt>
      <trkpt lat="43.87588" lon="7.54397">
        <ele>190</ele>
        <time>2014-11-01T08:55:21Z</time>
      </trkpt>
      <trkpt lat="43.87575" lon="7.54385">
        <ele>191.44</ele>
        <time>2014-11-01T08:55:37Z</time>
      </trkpt>
      <trkpt lat="43.87572" lon="7.54385">
        <ele>192.4</ele>
        <time>2014-11-01T08:55:40Z</time>
      </trkpt>
      <trkpt lat="43.87561" lon="7.54387">
        <ele>193.36</ele>
        <time>2014-11-01T08:55:55Z</time>
      </trkpt>
      <trkpt lat="43.87553" lon="7.54382">
        <ele>195.28</ele>
        <time>2014-11-01T08:56:11Z</time>
      </trkpt>
      <trkpt lat="43.87547" lon="7.54374">
        <ele>196.73</ele>
        <time>2014-11-01T08:56:26Z</time>
      </trkpt>
      <trkpt lat="43.87547" lon="7.54373">
        <ele>196.73</ele>
        <time>2014-11-01T08:56:27Z</time>
      </trkpt>
      <trkpt lat="43.87543" lon="7.54362">
        <ele>198.17</ele>
        <time>2014-11-01T08:56:37Z</time>
      </trkpt>
      <trkpt lat="43.87543" lon="7.54345">
        <ele>200.57</ele>
        <time>2014-11-01T08:56:51Z</time>
      </trkpt>
      <trkpt lat="43.87549" lon="7.54321">
        <ele>205.86</ele>
        <time>2014-11-01T08:57:09Z</time>
      </trkpt>
      <trkpt lat="43.87552" lon="7.5431">
        <ele>207.3</ele>
        <time>2014-11-01T08:57:18Z</time>
      </trkpt>
      <trkpt lat="43.87559" lon="7.54297">
        <ele>210.19</ele>
        <time>2014-11-01T08:57:32Z</time>
      </trkpt>
      <trkpt lat="43.87568" lon="7.54283">
        <ele>213.07</ele>
        <time>2014-11-01T08:57:49Z</time>
      </trkpt>
      <trkpt lat="43.87571" lon="7.5428">
        <ele>213.55</ele>
        <time>2014-11-01T08:57:53Z</time>
      </trkpt>
      <trkpt lat="43.87579" lon="7.54266">
        <ele>215.95</ele>
        <time>2014-11-01T08:58:09Z</time>
      </trkpt>
      <trkpt lat="43.87589" lon="7.54252">
        <ele>218.36</ele>
        <time>2014-11-01T08:58:25Z</time>
      </trkpt>
      <trkpt lat="43.87591" lon="7.54245">
        <ele>218.84</ele>
        <time>2014-11-01T08:58:31Z</time>
      </trkpt>
      <trkpt lat="43.876" lon="7.54235">
        <ele>218.36</ele>
        <time>2014-11-01T08:58:45Z</time>
      </trkpt>
      <trkpt lat="43.87605" lon="7.54224">
        <ele>219.8</ele>
        <time>2014-11-01T08:58:56Z</time>
      </trkpt>
      <trkpt lat="43.87607" lon="7.54221">
        <ele>219.8</ele>
        <time>2014-11-01T08:58:59Z</time>
      </trkpt>
      <trkpt lat="43.87615" lon="7.54215">
        <ele>221.24</ele>
        <time>2014-11-01T08:59:10Z</time>
      </trkpt>
      <trkpt lat="43.8762" lon="7.54214">
        <ele>222.2</ele>
        <time>2014-11-01T08:59:18Z</time>
      </trkpt>
      <trkpt lat="43.87628" lon="7.5422">
        <ele>221.24</ele>
        <time>2014-11-01T08:59:35Z</time>
      </trkpt>
      <trkpt lat="43.87631" lon="7.54223">
        <ele>221.72</ele>
        <time>2014-11-01T08:59:39Z</time>
      </trkpt>
      <trkpt lat="43.87645" lon="7.54233">
        <ele>219.8</ele>
        <time>2014-11-01T08:59:56Z</time>
      </trkpt>
      <trkpt lat="43.87648" lon="7.54234">
        <ele>221.24</ele>
        <time>2014-11-01T09:00:15Z</time>
      </trkpt>
      <trkpt lat="43.87652" lon="7.54236">
        <ele>222.68</ele>
        <time>2014-11-01T09:00:41Z</time>
      </trkpt>
      <trkpt lat="43.87668" lon="7.54237">
        <ele>223.16</ele>
        <time>2014-11-01T09:00:55Z</time>
      </trkpt>
      <trkpt lat="43.87688" lon="7.5424">
        <ele>225.09</ele>
        <time>2014-11-01T09:01:11Z</time>
      </trkpt>
      <trkpt lat="43.877" lon="7.54238">
        <ele>225.57</ele>
        <time>2014-11-01T09:01:24Z</time>
      </trkpt>
      <trkpt lat="43.87713" lon="7.54248">
        <ele>227.97</ele>
        <time>2014-11-01T09:01:40Z</time>
      </trkpt>
      <trkpt lat="43.8772" lon="7.5425">
        <ele>230.85</ele>
        <time>2014-11-01T09:01:47Z</time>
      </trkpt>
      <trkpt lat="43.87733" lon="7.54254">
        <ele>233.74</ele>
        <time>2014-11-01T09:02:00Z</time>
      </trkpt>
      <trkpt lat="43.87745" lon="7.54261">
        <ele>233.26</ele>
        <time>2014-11-01T09:02:15Z</time>
      </trkpt>
      <trkpt lat="43.87751" lon="7.54271">
        <ele>233.26</ele>
        <time>2014-11-01T09:02:24Z</time>
      </trkpt>
      <trkpt lat="43.87753" lon="7.54272">
        <ele>233.26</ele>
        <time>2014-11-01T09:02:26Z</time>
      </trkpt>
      <trkpt lat="43.87757" lon="7.5427">
        <ele>233.74</ele>
        <time>2014-11-01T09:02:31Z</time>
      </trkpt>
      <trkpt lat="43.87771" lon="7.54278">
        <ele>235.66</ele>
        <time>2014-11-01T09:02:47Z</time>
      </trkpt>
      <trkpt lat="43.87781" lon="7.54282">
        <ele>235.66</ele>
        <time>2014-11-01T09:02:58Z</time>
      </trkpt>
      <trkpt lat="43.87796" lon="7.54289">
        <ele>236.14</ele>
        <time>2014-11-01T09:03:16Z</time>
      </trkpt>
      <trkpt lat="43.87805" lon="7.54291">
        <ele>235.18</ele>
        <time>2014-11-01T09:03:27Z</time>
      </trkpt>
      <trkpt lat="43.8782" lon="7.54293">
        <ele>233.74</ele>
        <time>2014-11-01T09:03:43Z</time>
      </trkpt>
      <trkpt lat="43.87827" lon="7.5429">
        <ele>233.26</ele>
        <time>2014-11-01T09:03:53Z</time>
      </trkpt>
      <trkpt lat="43.87837" lon="7.54288">
        <ele>232.3</ele>
        <time>2014-11-01T09:04:09Z</time>
      </trkpt>
      <trkpt lat="43.87844" lon="7.54287">
        <ele>232.3</ele>
        <time>2014-11-01T09:04:19Z</time>
      </trkpt>
      <trkpt lat="43.87858" lon="7.54285">
        <ele>232.78</ele>
        <time>2014-11-01T09:04:35Z</time>
      </trkpt>
      <trkpt lat="43.87869" lon="7.54284">
        <ele>232.78</ele>
        <time>2014-11-01T09:04:47Z</time>
      </trkpt>
      <trkpt lat="43.87886" lon="7.54286">
        <ele>229.41</ele>
        <time>2014-11-01T09:05:04Z</time>
      </trkpt>
      <trkpt lat="43.87889" lon="7.54288">
        <ele>229.89</ele>
        <time>2014-11-01T09:05:09Z</time>
      </trkpt>
      <trkpt lat="43.87895" lon="7.54289">
        <ele>230.37</ele>
        <time>2014-11-01T09:05:15Z</time>
      </trkpt>
      <trkpt lat="43.87907" lon="7.54291">
        <ele>231.81</ele>
        <time>2014-11-01T09:05:26Z</time>
      </trkpt>
      <trkpt lat="43.8792" lon="7.5429">
        <ele>230.85</ele>
        <time>2014-11-01T09:05:42Z</time>
      </trkpt>
      <trkpt lat="43.87921" lon="7.5429">
        <ele>230.37</ele>
        <time>2014-11-01T09:05:43Z</time>
      </trkpt>
      <trkpt lat="43.87936" lon="7.54298">
        <ele>230.85</ele>
        <time>2014-11-01T09:05:59Z</time>
      </trkpt>
      <trkpt lat="43.87943" lon="7.54299">
        <ele>229.89</ele>
        <time>2014-11-01T09:06:08Z</time>
      </trkpt>
      <trkpt lat="43.87956" lon="7.54298">
        <ele>227.01</ele>
        <time>2014-11-01T09:06:22Z</time>
      </trkpt>
      <trkpt lat="43.87965" lon="7.54298">
        <ele>226.05</ele>
        <time>2014-11-01T09:06:30Z</time>
      </trkpt>
      <trkpt lat="43.87974" lon="7.54297">
        <ele>224.61</ele>
        <time>2014-11-01T09:06:47Z</time>
      </trkpt>
      <trkpt lat="43.87988" lon="7.54298">
        <ele>224.12</ele>
        <time>2014-11-01T09:07:04Z</time>
      </trkpt>
      <trkpt lat="43.87992" lon="7.54299">
        <ele>224.12</ele>
        <time>2014-11-01T09:07:09Z</time>
      </trkpt>
      <trkpt lat="43.88008" lon="7.54303">
        <ele>225.57</ele>
        <time>2014-11-01T09:07:23Z</time>
      </trkpt>
      <trkpt lat="43.88019" lon="7.54306">
        <ele>227.01</ele>
        <time>2014-11-01T09:07:32Z</time>
      </trkpt>
      <trkpt lat="43.88035" lon="7.54311">
        <ele>225.57</ele>
        <time>2014-11-01T09:07:47Z</time>
      </trkpt>
      <trkpt lat="43.88036" lon="7.54311">
        <ele>225.57</ele>
        <time>2014-11-01T09:07:48Z</time>
      </trkpt>
      <trkpt lat="43.88038" lon="7.54312">
        <ele>225.57</ele>
        <time>2014-11-01T09:07:50Z</time>
      </trkpt>
      <trkpt lat="43.88051" lon="7.54329">
        <ele>225.09</ele>
        <time>2014-11-01T09:08:05Z</time>
      </trkpt>
      <trkpt lat="43.88057" lon="7.54334">
        <ele>224.61</ele>
        <time>2014-11-01T09:08:13Z</time>
      </trkpt>
      <trkpt lat="43.8806" lon="7.54336">
        <ele>224.61</ele>
        <time>2014-11-01T09:08:16Z</time>
      </trkpt>
      <trkpt lat="43.8807" lon="7.54334">
        <ele>225.57</ele>
        <time>2014-11-01T09:08:27Z</time>
      </trkpt>
      <trkpt lat="43.88075" lon="7.54321">
        <ele>222.68</ele>
        <time>2014-11-01T09:08:42Z</time>
      </trkpt>
      <trkpt lat="43.88087" lon="7.54307">
        <ele>220.76</ele>
        <time>2014-11-01T09:09:00Z</time>
      </trkpt>
      <trkpt lat="43.881" lon="7.543">
        <ele>220.28</ele>
        <time>2014-11-01T09:09:14Z</time>
      </trkpt>
      <trkpt lat="43.88116" lon="7.54303">
        <ele>220.76</ele>
        <time>2014-11-01T09:09:30Z</time>
      </trkpt>
      <trkpt lat="43.88126" lon="7.54301">
        <ele>220.76</ele>
        <time>2014-11-01T09:09:44Z</time>
      </trkpt>
      <trkpt lat="43.8813" lon="7.54301">
        <ele>220.28</ele>
        <time>2014-11-01T09:09:47Z</time>
      </trkpt>
      <trkpt lat="43.88148" lon="7.54309">
        <ele>222.2</ele>
        <time>2014-11-01T09:10:02Z</time>
      </trkpt>
      <trkpt lat="43.88155" lon="7.5431">
        <ele>222.68</ele>
        <time>2014-11-01T09:10:08Z</time>
      </trkpt>
      <trkpt lat="43.8816" lon="7.54307">
        <ele>223.16</ele>
        <time>2014-11-01T09:10:13Z</time>
      </trkpt>
      <trkpt lat="43.88163" lon="7.54288">
        <ele>220.28</ele>
        <time>2014-11-01T09:10:29Z</time>
      </trkpt>
      <trkpt lat="43.88165" lon="7.5428">
        <ele>219.32</ele>
        <time>2014-11-01T09:10:36Z</time>
      </trkpt>
      <trkpt lat="43.88162" lon="7.54266">
        <ele>218.84</ele>
        <time>2014-11-01T09:10:49Z</time>
      </trkpt>
      <trkpt lat="43.88155" lon="7.54242">
        <ele>217.4</ele>
        <time>2014-11-01T09:11:06Z</time>
      </trkpt>
      <trkpt lat="43.88154" lon="7.54237">
        <ele>216.43</ele>
        <time>2014-11-01T09:11:09Z</time>
      </trkpt>
      <trkpt lat="43.88157" lon="7.5422">
        <ele>214.51</ele>
        <time>2014-11-01T09:11:19Z</time>
      </trkpt>
      <trkpt lat="43.88162" lon="7.54213">
        <ele>214.99</ele>
        <time>2014-11-01T09:11:25Z</time>
      </trkpt>
      <trkpt lat="43.88166" lon="7.54204">
        <ele>214.99</ele>
        <time>2014-11-01T09:11:32Z</time>
      </trkpt>
      <trkpt lat="43.88171" lon="7.54199">
        <ele>215.95</ele>
        <time>2014-11-01T09:11:37Z</time>
      </trkpt>
      <trkpt lat="43.88178" lon="7.5419">
        <ele>216.43</ele>
        <time>2014-11-01T09:11:46Z</time>
      </trkpt>
      <trkpt lat="43.8818" lon="7.54179">
        <ele>216.91</ele>
        <time>2014-11-01T09:12:02Z</time>
      </trkpt>
      <trkpt lat="43.8818" lon="7.5418">
        <ele>216.91</ele>
        <time>2014-11-01T09:12:38Z</time>
      </trkpt>
      <trkpt lat="43.8818" lon="7.5418">
        <ele>216.91</ele>
        <time>2014-11-01T09:14:05Z</time>
      </trkpt>
      <trkpt lat="43.88182" lon="7.54178">
        <ele>217.4</ele>
        <time>2014-11-01T09:14:45Z</time>
      </trkpt>
      <trkpt lat="43.88186" lon="7.54163">
        <ele>220.28</ele>
        <time>2014-11-01T09:15:00Z</time>
      </trkpt>
      <trkpt lat="43.88187" lon="7.54155">
        <ele>222.2</ele>
        <time>2014-11-01T09:15:08Z</time>
      </trkpt>
      <trkpt lat="43.8819" lon="7.54136">
        <ele>222.2</ele>
        <time>2014-11-01T09:15:24Z</time>
      </trkpt>
      <trkpt lat="43.88193" lon="7.54122">
        <ele>221.72</ele>
        <time>2014-11-01T09:15:37Z</time>
      </trkpt>
      <trkpt lat="43.88195" lon="7.54117">
        <ele>221.72</ele>
        <time>2014-11-01T09:15:42Z</time>
      </trkpt>
      <trkpt lat="43.882" lon="7.54113">
        <ele>222.2</ele>
        <time>2014-11-01T09:15:49Z</time>
      </trkpt>
      <trkpt lat="43.88205" lon="7.54115">
        <ele>223.16</ele>
        <time>2014-11-01T09:15:54Z</time>
      </trkpt>
      <trkpt lat="43.8822" lon="7.54123">
        <ele>220.28</ele>
        <time>2014-11-01T09:16:10Z</time>
      </trkpt>
      <trkpt lat="43.88234" lon="7.54129">
        <ele>220.28</ele>
        <time>2014-11-01T09:16:23Z</time>
      </trkpt>
      <trkpt lat="43.88245" lon="7.54138">
        <ele>218.36</ele>
        <time>2014-11-01T09:16:37Z</time>
      </trkpt>
      <trkpt lat="43.88248" lon="7.54138">
        <ele>218.84</ele>
        <time>2014-11-01T09:16:39Z</time>
      </trkpt>
      <trkpt lat="43.8826" lon="7.54142">
        <ele>221.24</ele>
        <time>2014-11-01T09:16:50Z</time>
      </trkpt>
      <trkpt lat="43.88267" lon="7.54143">
        <ele>219.8</ele>
        <time>2014-11-01T09:16:58Z</time>
      </trkpt>
      <trkpt lat="43.88269" lon="7.54146">
        <ele>219.32</ele>
        <time>2014-11-01T09:17:16Z</time>
      </trkpt>
      <trkpt lat="43.88279" lon="7.54151">
        <ele>213.55</ele>
        <time>2014-11-01T09:17:40Z</time>
      </trkpt>
      <trkpt lat="43.88279" lon="7.54151">
        <ele>213.07</ele>
        <time>2014-11-01T09:17:41Z</time>
      </trkpt>
      <trkpt lat="43.88291" lon="7.54157">
        <ele>210.19</ele>
        <time>2014-11-01T09:17:55Z</time>
      </trkpt>
      <trkpt lat="43.88299" lon="7.54155">
        <ele>211.15</ele>
        <time>2014-11-01T09:18:02Z</time>
      </trkpt>
      <trkpt lat="43.88306" lon="7.54157">
        <ele>212.59</ele>
        <time>2014-11-01T09:18:08Z</time>
      </trkpt>
      <trkpt lat="43.88322" lon="7.54156">
        <ele>212.59</ele>
        <time>2014-11-01T09:18:23Z</time>
      </trkpt>
      <trkpt lat="43.88332" lon="7.54142">
        <ele>211.63</ele>
        <time>2014-11-01T09:18:37Z</time>
      </trkpt>
      <trkpt lat="43.88336" lon="7.54137">
        <ele>208.26</ele>
        <time>2014-11-01T09:18:46Z</time>
      </trkpt>
      <trkpt lat="43.88341" lon="7.54129">
        <ele>205.86</ele>
        <time>2014-11-01T09:18:55Z</time>
      </trkpt>
      <trkpt lat="43.8835" lon="7.54124">
        <ele>202.49</ele>
        <time>2014-11-01T09:19:09Z</time>
      </trkpt>
      <trkpt lat="43.88356" lon="7.54123">
        <ele>201.53</ele>
        <time>2014-11-01T09:19:16Z</time>
      </trkpt>
      <trkpt lat="43.88363" lon="7.54123">
        <ele>199.13</ele>
        <time>2014-11-01T09:19:24Z</time>
      </trkpt>
      <trkpt lat="43.88372" lon="7.54129">
        <ele>198.17</ele>
        <time>2014-11-01T09:19:37Z</time>
      </trkpt>
      <trkpt lat="43.88373" lon="7.54131">
        <ele>198.17</ele>
        <time>2014-11-01T09:19:39Z</time>
      </trkpt>
      <trkpt lat="43.88384" lon="7.54133">
        <ele>198.17</ele>
        <time>2014-11-01T09:19:50Z</time>
      </trkpt>
      <trkpt lat="43.88387" lon="7.54121">
        <ele>194.8</ele>
        <time>2014-11-01T09:20:05Z</time>
      </trkpt>
      <trkpt lat="43.88395" lon="7.54103">
        <ele>190.96</ele>
        <time>2014-11-01T09:20:21Z</time>
      </trkpt>
      <trkpt lat="43.88406" lon="7.54081">
        <ele>190.96</ele>
        <time>2014-11-01T09:20:39Z</time>
      </trkpt>
      <trkpt lat="43.88417" lon="7.54064">
        <ele>190</ele>
        <time>2014-11-01T09:20:54Z</time>
      </trkpt>
      <trkpt lat="43.88425" lon="7.54059">
        <ele>190.96</ele>
        <time>2014-11-01T09:21:03Z</time>
      </trkpt>
      <trkpt lat="43.8844" lon="7.54064">
        <ele>190.48</ele>
        <time>2014-11-01T09:21:18Z</time>
      </trkpt>
      <trkpt lat="43.88451" lon="7.54071">
        <ele>190.48</ele>
        <time>2014-11-01T09:21:29Z</time>
      </trkpt>
      <trkpt lat="43.88456" lon="7.5407">
        <ele>188.56</ele>
        <time>2014-11-01T09:21:43Z</time>
      </trkpt>
      <trkpt lat="43.88447" lon="7.54058">
        <ele>187.59</ele>
        <time>2014-11-01T09:21:59Z</time>
      </trkpt>
      <trkpt lat="43.88446" lon="7.54048">
        <ele>185.19</ele>
        <time>2014-11-01T09:22:14Z</time>
      </trkpt>
      <trkpt lat="43.88451" lon="7.54041">
        <ele>182.31</ele>
        <time>2014-11-01T09:22:24Z</time>
      </trkpt>
      <trkpt lat="43.88454" lon="7.54038">
        <ele>179.9</ele>
        <time>2014-11-01T09:22:30Z</time>
      </trkpt>
      <trkpt lat="43.88462" lon="7.54045">
        <ele>179.9</ele>
        <time>2014-11-01T09:22:46Z</time>
      </trkpt>
      <trkpt lat="43.88463" lon="7.54045">
        <ele>179.42</ele>
        <time>2014-11-01T09:22:48Z</time>
      </trkpt>
      <trkpt lat="43.88473" lon="7.54049">
        <ele>177.02</ele>
        <time>2014-11-01T09:23:02Z</time>
      </trkpt>
      <trkpt lat="43.88474" lon="7.5405">
        <ele>177.02</ele>
        <time>2014-11-01T09:23:03Z</time>
      </trkpt>
      <trkpt lat="43.8848" lon="7.54057">
        <ele>176.54</ele>
        <time>2014-11-01T09:23:10Z</time>
      </trkpt>
      <trkpt lat="43.88483" lon="7.54058">
        <ele>176.54</ele>
        <time>2014-11-01T09:23:13Z</time>
      </trkpt>
      <trkpt lat="43.88491" lon="7.54061">
        <ele>175.58</ele>
        <time>2014-11-01T09:23:22Z</time>
      </trkpt>
      <trkpt lat="43.88504" lon="7.54067">
        <ele>175.1</ele>
        <time>2014-11-01T09:23:33Z</time>
      </trkpt>
      <trkpt lat="43.88519" lon="7.54065">
        <ele>170.77</ele>
        <time>2014-11-01T09:23:50Z</time>
      </trkpt>
      <trkpt lat="43.88533" lon="7.54059">
        <ele>171.25</ele>
        <time>2014-11-01T09:24:04Z</time>
      </trkpt>
      <trkpt lat="43.88535" lon="7.54059">
        <ele>171.25</ele>
        <time>2014-11-01T09:24:06Z</time>
      </trkpt>
      <trkpt lat="43.88538" lon="7.54059">
        <ele>171.25</ele>
        <time>2014-11-01T09:24:10Z</time>
      </trkpt>
      <trkpt lat="43.88543" lon="7.54062">
        <ele>170.29</ele>
        <time>2014-11-01T09:24:17Z</time>
      </trkpt>
      <trkpt lat="43.88561" lon="7.54071">
        <ele>169.33</ele>
        <time>2014-11-01T09:24:34Z</time>
      </trkpt>
      <trkpt lat="43.88573" lon="7.54073">
        <ele>168.37</ele>
        <time>2014-11-01T09:24:48Z</time>
      </trkpt>
      <trkpt lat="43.88579" lon="7.54069">
        <ele>164.52</ele>
        <time>2014-11-01T09:25:03Z</time>
      </trkpt>
      <trkpt lat="43.88587" lon="7.54067">
        <ele>162.12</ele>
        <time>2014-11-01T09:25:18Z</time>
      </trkpt>
      <trkpt lat="43.88592" lon="7.5407">
        <ele>162.6</ele>
        <time>2014-11-01T09:25:31Z</time>
      </trkpt>
      <trkpt lat="43.88596" lon="7.54065">
        <ele>162.6</ele>
        <time>2014-11-01T09:25:48Z</time>
      </trkpt>
      <trkpt lat="43.88599" lon="7.54056">
        <ele>161.64</ele>
        <time>2014-11-01T09:26:02Z</time>
      </trkpt>
      <trkpt lat="43.88601" lon="7.54044">
        <ele>160.68</ele>
        <time>2014-11-01T09:26:21Z</time>
      </trkpt>
      <trkpt lat="43.88612" lon="7.54036">
        <ele>161.64</ele>
        <time>2014-11-01T09:26:33Z</time>
      </trkpt>
      <trkpt lat="43.88624" lon="7.54023">
        <ele>160.68</ele>
        <time>2014-11-01T09:26:50Z</time>
      </trkpt>
      <trkpt lat="43.88625" lon="7.54021">
        <ele>160.68</ele>
        <time>2014-11-01T09:27:19Z</time>
      </trkpt>
      <trkpt lat="43.88624" lon="7.54022">
        <ele>160.68</ele>
        <time>2014-11-01T09:27:38Z</time>
      </trkpt>
      <trkpt lat="43.88627" lon="7.54021">
        <ele>159.72</ele>
        <time>2014-11-01T09:27:57Z</time>
      </trkpt>
      <trkpt lat="43.88627" lon="7.54022">
        <ele>159.24</ele>
        <time>2014-11-01T09:28:33Z</time>
      </trkpt>
      <trkpt lat="43.88632" lon="7.54028">
        <ele>158.75</ele>
        <time>2014-11-01T09:29:08Z</time>
      </trkpt>
      <trkpt lat="43.88628" lon="7.54013">
        <ele>157.31</ele>
        <time>2014-11-01T09:29:23Z</time>
      </trkpt>
      <trkpt lat="43.88635" lon="7.54014">
        <ele>154.91</ele>
        <time>2014-11-01T09:29:38Z</time>
      </trkpt>
      <trkpt lat="43.88644" lon="7.54017">
        <ele>154.43</ele>
        <time>2014-11-01T09:29:56Z</time>
      </trkpt>
      <trkpt lat="43.88651" lon="7.54014">
        <ele>158.27</ele>
        <time>2014-11-01T09:30:11Z</time>
      </trkpt>
      <trkpt lat="43.88654" lon="7.54008">
        <ele>162.6</ele>
        <time>2014-11-01T09:30:29Z</time>
      </trkpt>
      <trkpt lat="43.8866" lon="7.54006">
        <ele>164.52</ele>
        <time>2014-11-01T09:30:45Z</time>
      </trkpt>
      <trkpt lat="43.88666" lon="7.54009">
        <ele>167.41</ele>
        <time>2014-11-01T09:30:59Z</time>
      </trkpt>
      <trkpt lat="43.88674" lon="7.54013">
        <ele>169.33</ele>
        <time>2014-11-01T09:31:15Z</time>
      </trkpt>
      <trkpt lat="43.8868" lon="7.5402">
        <ele>168.37</ele>
        <time>2014-11-01T09:31:31Z</time>
      </trkpt>
      <trkpt lat="43.88685" lon="7.54021">
        <ele>170.29</ele>
        <time>2014-11-01T09:31:47Z</time>
      </trkpt>
      <trkpt lat="43.88691" lon="7.54021">
        <ele>170.77</ele>
        <time>2014-11-01T09:32:02Z</time>
      </trkpt>
      <trkpt lat="43.88697" lon="7.54024">
        <ele>173.66</ele>
        <time>2014-11-01T09:32:18Z</time>
      </trkpt>
      <trkpt lat="43.88696" lon="7.54018">
        <ele>175.1</ele>
        <time>2014-11-01T09:32:33Z</time>
      </trkpt>
      <trkpt lat="43.88691" lon="7.54012">
        <ele>179.42</ele>
        <time>2014-11-01T09:32:47Z</time>
      </trkpt>
      <trkpt lat="43.88691" lon="7.54011">
        <ele>180.38</ele>
        <time>2014-11-01T09:32:48Z</time>
      </trkpt>
      <trkpt lat="43.88693" lon="7.53999">
        <ele>187.59</ele>
        <time>2014-11-01T09:33:05Z</time>
      </trkpt>
      <trkpt lat="43.88695" lon="7.53988">
        <ele>189.52</ele>
        <time>2014-11-01T09:33:19Z</time>
      </trkpt>
      <trkpt lat="43.88696" lon="7.53977">
        <ele>190.48</ele>
        <time>2014-11-01T09:33:34Z</time>
      </trkpt>
      <trkpt lat="43.887" lon="7.53968">
        <ele>193.36</ele>
        <time>2014-11-01T09:33:47Z</time>
      </trkpt>
      <trkpt lat="43.88703" lon="7.53958">
        <ele>196.73</ele>
        <time>2014-11-01T09:34:03Z</time>
      </trkpt>
      <trkpt lat="43.88705" lon="7.53943">
        <ele>198.17</ele>
        <time>2014-11-01T09:34:16Z</time>
      </trkpt>
      <trkpt lat="43.88707" lon="7.53932">
        <ele>200.57</ele>
        <time>2014-11-01T09:34:30Z</time>
      </trkpt>
      <trkpt lat="43.88707" lon="7.53916">
        <ele>201.53</ele>
        <time>2014-11-01T09:34:44Z</time>
      </trkpt>
      <trkpt lat="43.88708" lon="7.5391">
        <ele>202.98</ele>
        <time>2014-11-01T09:34:52Z</time>
      </trkpt>
      <trkpt lat="43.88706" lon="7.53901">
        <ele>204.9</ele>
        <time>2014-11-01T09:35:00Z</time>
      </trkpt>
      <trkpt lat="43.88709" lon="7.5388">
        <ele>204.42</ele>
        <time>2014-11-01T09:35:14Z</time>
      </trkpt>
      <trkpt lat="43.88711" lon="7.53869">
        <ele>203.46</ele>
        <time>2014-11-01T09:35:23Z</time>
      </trkpt>
      <trkpt lat="43.88718" lon="7.53851">
        <ele>204.9</ele>
        <time>2014-11-01T09:35:39Z</time>
      </trkpt>
      <trkpt lat="43.88718" lon="7.5385">
        <ele>205.38</ele>
        <time>2014-11-01T09:35:40Z</time>
      </trkpt>
      <trkpt lat="43.88723" lon="7.53841">
        <ele>209.22</ele>
        <time>2014-11-01T09:35:54Z</time>
      </trkpt>
      <trkpt lat="43.88729" lon="7.5383">
        <ele>211.15</ele>
        <time>2014-11-01T09:36:10Z</time>
      </trkpt>
      <trkpt lat="43.88734" lon="7.53822">
        <ele>212.11</ele>
        <time>2014-11-01T09:36:25Z</time>
      </trkpt>
      <trkpt lat="43.88736" lon="7.53822">
        <ele>212.59</ele>
        <time>2014-11-01T09:36:27Z</time>
      </trkpt>
      <trkpt lat="43.88742" lon="7.53819">
        <ele>214.99</ele>
        <time>2014-11-01T09:36:43Z</time>
      </trkpt>
      <trkpt lat="43.88744" lon="7.53803">
        <ele>215.47</ele>
        <time>2014-11-01T09:37:02Z</time>
      </trkpt>
      <trkpt lat="43.88751" lon="7.53792">
        <ele>215.95</ele>
        <time>2014-11-01T09:37:28Z</time>
      </trkpt>
      <trkpt lat="43.8876" lon="7.5379">
        <ele>215.47</ele>
        <time>2014-11-01T09:37:43Z</time>
      </trkpt>
      <trkpt lat="43.88765" lon="7.53786">
        <ele>214.99</ele>
        <time>2014-11-01T09:38:04Z</time>
      </trkpt>
      <trkpt lat="43.88766" lon="7.53783">
        <ele>214.99</ele>
        <time>2014-11-01T09:38:18Z</time>
      </trkpt>
      <trkpt lat="43.88768" lon="7.53786">
        <ele>215.47</ele>
        <time>2014-11-01T09:38:48Z</time>
      </trkpt>
      <trkpt lat="43.88765" lon="7.53783">
        <ele>214.51</ele>
        <time>2014-11-01T09:39:04Z</time>
      </trkpt>
      <trkpt lat="43.88766" lon="7.53782">
        <ele>214.51</ele>
        <time>2014-11-01T09:41:20Z</time>
      </trkpt>
      <trkpt lat="43.88766" lon="7.53782">
        <ele>214.51</ele>
        <time>2014-11-01T09:42:43Z</time>
      </trkpt>
      <trkpt lat="43.88766" lon="7.53782">
        <ele>214.51</ele>
        <time>2014-11-01T09:43:56Z</time>
      </trkpt>
      <trkpt lat="43.88767" lon="7.53782">
        <ele>214.99</ele>
        <time>2014-11-01T09:45:29Z</time>
      </trkpt>
      <trkpt lat="43.88767" lon="7.53784">
        <ele>217.88</ele>
        <time>2014-11-01T09:49:47Z</time>
      </trkpt>
      <trkpt lat="43.88766" lon="7.53779">
        <ele>219.32</ele>
        <time>2014-11-01T09:50:12Z</time>
      </trkpt>
      <trkpt lat="43.88761" lon="7.53764">
        <ele>219.32</ele>
        <time>2014-11-01T09:50:32Z</time>
      </trkpt>
      <trkpt lat="43.88758" lon="7.53759">
        <ele>220.28</ele>
        <time>2014-11-01T09:50:52Z</time>
      </trkpt>
      <trkpt lat="43.8876" lon="7.53755">
        <ele>218.36</ele>
        <time>2014-11-01T09:51:04Z</time>
      </trkpt>
      <trkpt lat="43.88769" lon="7.5375">
        <ele>215.95</ele>
        <time>2014-11-01T09:51:18Z</time>
      </trkpt>
      <trkpt lat="43.88774" lon="7.5375">
        <ele>213.55</ele>
        <time>2014-11-01T09:51:36Z</time>
      </trkpt>
      <trkpt lat="43.88776" lon="7.5375">
        <ele>209.22</ele>
        <time>2014-11-01T09:51:51Z</time>
      </trkpt>
      <trkpt lat="43.88782" lon="7.53748">
        <ele>205.38</ele>
        <time>2014-11-01T09:52:04Z</time>
      </trkpt>
      <trkpt lat="43.88782" lon="7.53747">
        <ele>203.94</ele>
        <time>2014-11-01T09:52:18Z</time>
      </trkpt>
      <trkpt lat="43.88784" lon="7.53743">
        <ele>203.46</ele>
        <time>2014-11-01T09:52:37Z</time>
      </trkpt>
      <trkpt lat="43.88784" lon="7.53738">
        <ele>201.53</ele>
        <time>2014-11-01T09:52:52Z</time>
      </trkpt>
      <trkpt lat="43.88776" lon="7.53738">
        <ele>198.65</ele>
        <time>2014-11-01T09:53:07Z</time>
      </trkpt>
      <trkpt lat="43.8878" lon="7.53729">
        <ele>195.77</ele>
        <time>2014-11-01T09:53:22Z</time>
      </trkpt>
      <trkpt lat="43.88782" lon="7.53727">
        <ele>194.8</ele>
        <time>2014-11-01T09:53:36Z</time>
      </trkpt>
      <trkpt lat="43.88787" lon="7.53716">
        <ele>195.28</ele>
        <time>2014-11-01T09:53:54Z</time>
      </trkpt>
      <trkpt lat="43.88791" lon="7.53716">
        <ele>192.88</ele>
        <time>2014-11-01T09:54:06Z</time>
      </trkpt>
      <trkpt lat="43.88788" lon="7.53712">
        <ele>189.04</ele>
        <time>2014-11-01T09:54:19Z</time>
      </trkpt>
      <trkpt lat="43.88791" lon="7.53707">
        <ele>188.08</ele>
        <time>2014-11-01T09:54:35Z</time>
      </trkpt>
      <trkpt lat="43.88795" lon="7.53699">
        <ele>185.67</ele>
        <time>2014-11-01T09:54:47Z</time>
      </trkpt>
      <trkpt lat="43.88806" lon="7.53692">
        <ele>184.71</ele>
        <time>2014-11-01T09:55:02Z</time>
      </trkpt>
      <trkpt lat="43.88811" lon="7.53692">
        <ele>185.19</ele>
        <time>2014-11-01T09:55:10Z</time>
      </trkpt>
      <trkpt lat="43.88812" lon="7.53691">
        <ele>185.19</ele>
        <time>2014-11-01T09:55:26Z</time>
      </trkpt>
      <trkpt lat="43.88817" lon="7.53683">
        <ele>185.19</ele>
        <time>2014-11-01T09:55:46Z</time>
      </trkpt>
      <trkpt lat="43.8882" lon="7.5369">
        <ele>184.23</ele>
        <time>2014-11-01T09:56:00Z</time>
      </trkpt>
      <trkpt lat="43.88824" lon="7.53697">
        <ele>185.67</ele>
        <time>2014-11-01T09:56:12Z</time>
      </trkpt>
      <trkpt lat="43.88824" lon="7.53688">
        <ele>187.11</ele>
        <time>2014-11-01T09:56:24Z</time>
      </trkpt>
      <trkpt lat="43.88825" lon="7.53691">
        <ele>186.15</ele>
        <time>2014-11-01T09:56:29Z</time>
      </trkpt>
      <trkpt lat="43.88825" lon="7.53694">
        <ele>185.19</ele>
        <time>2014-11-01T09:56:32Z</time>
      </trkpt>
      <trkpt lat="43.88826" lon="7.53683">
        <ele>183.27</ele>
        <time>2014-11-01T09:56:41Z</time>
      </trkpt>
      <trkpt lat="43.88831" lon="7.53672">
        <ele>182.31</ele>
        <time>2014-11-01T09:56:49Z</time>
      </trkpt>
      <trkpt lat="43.88836" lon="7.53666">
        <ele>181.83</ele>
        <time>2014-11-01T09:56:54Z</time>
      </trkpt>
      <trkpt lat="43.88844" lon="7.53661">
        <ele>180.87</ele>
        <time>2014-11-01T09:57:10Z</time>
      </trkpt>
      <trkpt lat="43.88846" lon="7.53663">
        <ele>180.38</ele>
        <time>2014-11-01T09:57:15Z</time>
      </trkpt>
      <trkpt lat="43.88858" lon="7.53661">
        <ele>180.38</ele>
        <time>2014-11-01T09:57:31Z</time>
      </trkpt>
      <trkpt lat="43.88858" lon="7.53656">
        <ele>180.38</ele>
        <time>2014-11-01T09:57:36Z</time>
      </trkpt>
      <trkpt lat="43.8886" lon="7.53641">
        <ele>181.83</ele>
        <time>2014-11-01T09:57:53Z</time>
      </trkpt>
      <trkpt lat="43.88861" lon="7.53637">
        <ele>180.87</ele>
        <time>2014-11-01T09:58:10Z</time>
      </trkpt>
      <trkpt lat="43.88861" lon="7.53636">
        <ele>180.38</ele>
        <time>2014-11-01T10:00:19Z</time>
      </trkpt>
      <trkpt lat="43.88872" lon="7.53624">
        <ele>180.38</ele>
        <time>2014-11-01T10:00:33Z</time>
      </trkpt>
      <trkpt lat="43.88881" lon="7.53613">
        <ele>180.38</ele>
        <time>2014-11-01T10:00:45Z</time>
      </trkpt>
      <trkpt lat="43.88894" lon="7.53603">
        <ele>181.35</ele>
        <time>2014-11-01T10:01:00Z</time>
      </trkpt>
      <trkpt lat="43.88906" lon="7.53603">
        <ele>181.83</ele>
        <time>2014-11-01T10:01:14Z</time>
      </trkpt>
      <trkpt lat="43.88911" lon="7.536">
        <ele>177.5</ele>
        <time>2014-11-01T10:01:27Z</time>
      </trkpt>
      <trkpt lat="43.88921" lon="7.53582">
        <ele>172.69</ele>
        <time>2014-11-01T10:01:44Z</time>
      </trkpt>
      <trkpt lat="43.88927" lon="7.53571">
        <ele>170.77</ele>
        <time>2014-11-01T10:01:59Z</time>
      </trkpt>
      <trkpt lat="43.88928" lon="7.5357">
        <ele>169.81</ele>
        <time>2014-11-01T10:02:02Z</time>
      </trkpt>
      <trkpt lat="43.88934" lon="7.5356">
        <ele>168.37</ele>
        <time>2014-11-01T10:02:17Z</time>
      </trkpt>
      <trkpt lat="43.88934" lon="7.53558">
        <ele>168.85</ele>
        <time>2014-11-01T10:02:31Z</time>
      </trkpt>
      <trkpt lat="43.88941" lon="7.53551">
        <ele>167.89</ele>
        <time>2014-11-01T10:02:46Z</time>
      </trkpt>
      <trkpt lat="43.88945" lon="7.53543">
        <ele>167.41</ele>
        <time>2014-11-01T10:02:56Z</time>
      </trkpt>
      <trkpt lat="43.88945" lon="7.53536">
        <ele>165.96</ele>
        <time>2014-11-01T10:03:00Z</time>
      </trkpt>
      <trkpt lat="43.88945" lon="7.53516">
        <ele>163.08</ele>
        <time>2014-11-01T10:03:15Z</time>
      </trkpt>
      <trkpt lat="43.88947" lon="7.5351">
        <ele>161.16</ele>
        <time>2014-11-01T10:03:27Z</time>
      </trkpt>
      <trkpt lat="43.88948" lon="7.53512">
        <ele>159.24</ele>
        <time>2014-11-01T10:03:44Z</time>
      </trkpt>
      <trkpt lat="43.88946" lon="7.53513">
        <ele>158.75</ele>
        <time>2014-11-01T10:03:57Z</time>
      </trkpt>
      <trkpt lat="43.88946" lon="7.53513">
        <ele>158.27</ele>
        <time>2014-11-01T10:05:18Z</time>
      </trkpt>
      <trkpt lat="43.88949" lon="7.53515">
        <ele>157.79</ele>
        <time>2014-11-01T10:05:27Z</time>
      </trkpt>
      <trkpt lat="43.88951" lon="7.53525">
        <ele>157.79</ele>
        <time>2014-11-01T10:05:43Z</time>
      </trkpt>
      <trkpt lat="43.88951" lon="7.53524">
        <ele>158.27</ele>
        <time>2014-11-01T10:07:11Z</time>
      </trkpt>
      <trkpt lat="43.88952" lon="7.53526">
        <ele>157.31</ele>
        <time>2014-11-01T10:07:23Z</time>
      </trkpt>
      <trkpt lat="43.88951" lon="7.5353">
        <ele>158.27</ele>
        <time>2014-11-01T10:07:26Z</time>
      </trkpt>
      <trkpt lat="43.8895" lon="7.53546">
        <ele>158.75</ele>
        <time>2014-11-01T10:07:42Z</time>
      </trkpt>
      <trkpt lat="43.88943" lon="7.53546">
        <ele>159.24</ele>
        <time>2014-11-01T10:07:57Z</time>
      </trkpt>
      <trkpt lat="43.88936" lon="7.53552">
        <ele>159.24</ele>
        <time>2014-11-01T10:08:10Z</time>
      </trkpt>
      <trkpt lat="43.88934" lon="7.53557">
        <ele>160.2</ele>
        <time>2014-11-01T10:08:26Z</time>
      </trkpt>
      <trkpt lat="43.88928" lon="7.53571">
        <ele>164.04</ele>
        <time>2014-11-01T10:08:42Z</time>
      </trkpt>
      <trkpt lat="43.88923" lon="7.5358">
        <ele>166.93</ele>
        <time>2014-11-01T10:08:57Z</time>
      </trkpt>
      <trkpt lat="43.88915" lon="7.53594">
        <ele>169.33</ele>
        <time>2014-11-01T10:09:12Z</time>
      </trkpt>
      <trkpt lat="43.88915" lon="7.53601">
        <ele>169.33</ele>
        <time>2014-11-01T10:09:25Z</time>
      </trkpt>
      <trkpt lat="43.88908" lon="7.53606">
        <ele>169.81</ele>
        <time>2014-11-01T10:09:40Z</time>
      </trkpt>
      <trkpt lat="43.88902" lon="7.53605">
        <ele>168.85</ele>
        <time>2014-11-01T10:09:46Z</time>
      </trkpt>
      <trkpt lat="43.8889" lon="7.53611">
        <ele>165</ele>
        <time>2014-11-01T10:10:02Z</time>
      </trkpt>
      <trkpt lat="43.88875" lon="7.53622">
        <ele>163.56</ele>
        <time>2014-11-01T10:10:17Z</time>
      </trkpt>
      <trkpt lat="43.88873" lon="7.53624">
        <ele>165</ele>
        <time>2014-11-01T10:10:21Z</time>
      </trkpt>
      <trkpt lat="43.88864" lon="7.53638">
        <ele>165</ele>
        <time>2014-11-01T10:10:37Z</time>
      </trkpt>
      <trkpt lat="43.8886" lon="7.53642">
        <ele>165</ele>
        <time>2014-11-01T10:10:41Z</time>
      </trkpt>
      <trkpt lat="43.88856" lon="7.53647">
        <ele>164.52</ele>
        <time>2014-11-01T10:10:45Z</time>
      </trkpt>
      <trkpt lat="43.88848" lon="7.53653">
        <ele>165.48</ele>
        <time>2014-11-01T10:10:52Z</time>
      </trkpt>
      <trkpt lat="43.88839" lon="7.53665">
        <ele>166.93</ele>
        <time>2014-11-01T10:11:05Z</time>
      </trkpt>
      <trkpt lat="43.88826" lon="7.53684">
        <ele>171.25</ele>
        <time>2014-11-01T10:11:22Z</time>
      </trkpt>
      <trkpt lat="43.88828" lon="7.53693">
        <ele>172.69</ele>
        <time>2014-11-01T10:11:29Z</time>
      </trkpt>
      <trkpt lat="43.8883" lon="7.53695">
        <ele>173.17</ele>
        <time>2014-11-01T10:11:31Z</time>
      </trkpt>
      <trkpt lat="43.88834" lon="7.53694">
        <ele>174.14</ele>
        <time>2014-11-01T10:11:35Z</time>
      </trkpt>
      <trkpt lat="43.8884" lon="7.53687">
        <ele>177.02</ele>
        <time>2014-11-01T10:11:42Z</time>
      </trkpt>
      <trkpt lat="43.8886" lon="7.53685">
        <ele>180.38</ele>
        <time>2014-11-01T10:11:58Z</time>
      </trkpt>
      <trkpt lat="43.88866" lon="7.53687">
        <ele>181.35</ele>
        <time>2014-11-01T10:12:02Z</time>
      </trkpt>
      <trkpt lat="43.88884" lon="7.53695">
        <ele>182.79</ele>
        <time>2014-11-01T10:12:17Z</time>
      </trkpt>
      <trkpt lat="43.88888" lon="7.53706">
        <ele>183.27</ele>
        <time>2014-11-01T10:12:24Z</time>
      </trkpt>
      <trkpt lat="43.88885" lon="7.53709">
        <ele>183.75</ele>
        <time>2014-11-01T10:12:27Z</time>
      </trkpt>
      <trkpt lat="43.8888" lon="7.53712">
        <ele>183.75</ele>
        <time>2014-11-01T10:12:32Z</time>
      </trkpt>
      <trkpt lat="43.8886" lon="7.53715">
        <ele>184.71</ele>
        <time>2014-11-01T10:12:47Z</time>
      </trkpt>
      <trkpt lat="43.88844" lon="7.5373">
        <ele>187.59</ele>
        <time>2014-11-01T10:13:02Z</time>
      </trkpt>
      <trkpt lat="43.88832" lon="7.53747">
        <ele>187.59</ele>
        <time>2014-11-01T10:13:16Z</time>
      </trkpt>
      <trkpt lat="43.88826" lon="7.5376">
        <ele>187.11</ele>
        <time>2014-11-01T10:13:24Z</time>
      </trkpt>
      <trkpt lat="43.88829" lon="7.53766">
        <ele>186.63</ele>
        <time>2014-11-01T10:13:32Z</time>
      </trkpt>
      <trkpt lat="43.88823" lon="7.53761">
        <ele>185.67</ele>
        <time>2014-11-01T10:13:38Z</time>
      </trkpt>
      <trkpt lat="43.88827" lon="7.53747">
        <ele>184.23</ele>
        <time>2014-11-01T10:13:46Z</time>
      </trkpt>
      <trkpt lat="43.88834" lon="7.53734">
        <ele>183.27</ele>
        <time>2014-11-01T10:13:54Z</time>
      </trkpt>
      <trkpt lat="43.88842" lon="7.53723">
        <ele>183.75</ele>
        <time>2014-11-01T10:14:02Z</time>
      </trkpt>
      <trkpt lat="43.88849" lon="7.53713">
        <ele>183.75</ele>
        <time>2014-11-01T10:14:09Z</time>
      </trkpt>
      <trkpt lat="43.88872" lon="7.53708">
        <ele>182.79</ele>
        <time>2014-11-01T10:14:25Z</time>
      </trkpt>
      <trkpt lat="43.88888" lon="7.53701">
        <ele>181.83</ele>
        <time>2014-11-01T10:14:39Z</time>
      </trkpt>
      <trkpt lat="43.88882" lon="7.53694">
        <ele>180.87</ele>
        <time>2014-11-01T10:14:44Z</time>
      </trkpt>
      <trkpt lat="43.88877" lon="7.53693">
        <ele>180.38</ele>
        <time>2014-11-01T10:14:48Z</time>
      </trkpt>
      <trkpt lat="43.88855" lon="7.5368">
        <ele>177.5</ele>
        <time>2014-11-01T10:15:04Z</time>
      </trkpt>
      <trkpt lat="43.88852" lon="7.53678">
        <ele>176.54</ele>
        <time>2014-11-01T10:15:07Z</time>
      </trkpt>
      <trkpt lat="43.8885" lon="7.53678">
        <ele>175.58</ele>
        <time>2014-11-01T10:15:09Z</time>
      </trkpt>
      <trkpt lat="43.88845" lon="7.53686">
        <ele>174.14</ele>
        <time>2014-11-01T10:15:24Z</time>
      </trkpt>
      <trkpt lat="43.88845" lon="7.53687">
        <ele>173.17</ele>
        <time>2014-11-01T10:15:49Z</time>
      </trkpt>
      <trkpt lat="43.88845" lon="7.53686">
        <ele>173.17</ele>
        <time>2014-11-01T10:17:47Z</time>
      </trkpt>
      <trkpt lat="43.88845" lon="7.53686">
        <ele>172.69</ele>
        <time>2014-11-01T10:17:54Z</time>
      </trkpt>
      <trkpt lat="43.8886" lon="7.53686">
        <ele>172.69</ele>
        <time>2014-11-01T10:18:07Z</time>
      </trkpt>
      <trkpt lat="43.88875" lon="7.53691">
        <ele>174.62</ele>
        <time>2014-11-01T10:18:20Z</time>
      </trkpt>
      <trkpt lat="43.88885" lon="7.53698">
        <ele>177.5</ele>
        <time>2014-11-01T10:18:29Z</time>
      </trkpt>
      <trkpt lat="43.88887" lon="7.53703">
        <ele>178.94</ele>
        <time>2014-11-01T10:18:33Z</time>
      </trkpt>
      <trkpt lat="43.88878" lon="7.53708">
        <ele>180.38</ele>
        <time>2014-11-01T10:18:42Z</time>
      </trkpt>
      <trkpt lat="43.88875" lon="7.53707">
        <ele>179.9</ele>
        <time>2014-11-01T10:18:46Z</time>
      </trkpt>
      <trkpt lat="43.88871" lon="7.53706">
        <ele>179.9</ele>
        <time>2014-11-01T10:18:50Z</time>
      </trkpt>
      <trkpt lat="43.88866" lon="7.53707">
        <ele>180.38</ele>
        <time>2014-11-01T10:18:54Z</time>
      </trkpt>
      <trkpt lat="43.88863" lon="7.53708">
        <ele>180.38</ele>
        <time>2014-11-01T10:18:56Z</time>
      </trkpt>
      <trkpt lat="43.88859" lon="7.53711">
        <ele>181.35</ele>
        <time>2014-11-01T10:19:00Z</time>
      </trkpt>
      <trkpt lat="43.8884" lon="7.5373">
        <ele>184.23</ele>
        <time>2014-11-01T10:19:17Z</time>
      </trkpt>
      <trkpt lat="43.88831" lon="7.53746">
        <ele>188.08</ele>
        <time>2014-11-01T10:19:29Z</time>
      </trkpt>
      <trkpt lat="43.88826" lon="7.53757">
        <ele>188.56</ele>
        <time>2014-11-01T10:19:36Z</time>
      </trkpt>
      <trkpt lat="43.88828" lon="7.53763">
        <ele>190</ele>
        <time>2014-11-01T10:19:42Z</time>
      </trkpt>
      <trkpt lat="43.88829" lon="7.53763">
        <ele>190</ele>
        <time>2014-11-01T10:19:43Z</time>
      </trkpt>
      <trkpt lat="43.88836" lon="7.53763">
        <ele>190.48</ele>
        <time>2014-11-01T10:19:49Z</time>
      </trkpt>
      <trkpt lat="43.88845" lon="7.53759">
        <ele>191.44</ele>
        <time>2014-11-01T10:19:56Z</time>
      </trkpt>
      <trkpt lat="43.88862" lon="7.53748">
        <ele>193.84</ele>
        <time>2014-11-01T10:20:11Z</time>
      </trkpt>
      <trkpt lat="43.88864" lon="7.53746">
        <ele>193.84</ele>
        <time>2014-11-01T10:20:13Z</time>
      </trkpt>
      <trkpt lat="43.88867" lon="7.53744">
        <ele>193.84</ele>
        <time>2014-11-01T10:20:16Z</time>
      </trkpt>
      <trkpt lat="43.88873" lon="7.5375">
        <ele>193.84</ele>
        <time>2014-11-01T10:20:22Z</time>
      </trkpt>
      <trkpt lat="43.88874" lon="7.53757">
        <ele>193.84</ele>
        <time>2014-11-01T10:20:26Z</time>
      </trkpt>
      <trkpt lat="43.88873" lon="7.53761">
        <ele>193.36</ele>
        <time>2014-11-01T10:20:29Z</time>
      </trkpt>
      <trkpt lat="43.88871" lon="7.53763">
        <ele>192.88</ele>
        <time>2014-11-01T10:20:31Z</time>
      </trkpt>
      <trkpt lat="43.88861" lon="7.53774">
        <ele>193.36</ele>
        <time>2014-11-01T10:20:45Z</time>
      </trkpt>
      <trkpt lat="43.88861" lon="7.53775">
        <ele>193.36</ele>
        <time>2014-11-01T10:20:59Z</time>
      </trkpt>
      <trkpt lat="43.88861" lon="7.53776">
        <ele>193.36</ele>
        <time>2014-11-01T10:21:18Z</time>
      </trkpt>
      <trkpt lat="43.88862" lon="7.53776">
        <ele>192.88</ele>
        <time>2014-11-01T10:22:46Z</time>
      </trkpt>
      <trkpt lat="43.88862" lon="7.53776">
        <ele>193.36</ele>
        <time>2014-11-01T10:26:40Z</time>
      </trkpt>
      <trkpt lat="43.88861" lon="7.53774">
        <ele>191.92</ele>
        <time>2014-11-01T10:26:58Z</time>
      </trkpt>
      <trkpt lat="43.88862" lon="7.53776">
        <ele>192.88</ele>
        <time>2014-11-01T10:27:25Z</time>
      </trkpt>
      <trkpt lat="43.88866" lon="7.53774">
        <ele>193.36</ele>
        <time>2014-11-01T10:27:38Z</time>
      </trkpt>
      <trkpt lat="43.88869" lon="7.53772">
        <ele>195.28</ele>
        <time>2014-11-01T10:27:52Z</time>
      </trkpt>
      <trkpt lat="43.8887" lon="7.53772">
        <ele>195.28</ele>
        <time>2014-11-01T10:28:12Z</time>
      </trkpt>
      <trkpt lat="43.88871" lon="7.53772">
        <ele>195.28</ele>
        <time>2014-11-01T10:28:15Z</time>
      </trkpt>
      <trkpt lat="43.88885" lon="7.53763">
        <ele>196.25</ele>
        <time>2014-11-01T10:28:29Z</time>
      </trkpt>
      <trkpt lat="43.88889" lon="7.53767">
        <ele>198.17</ele>
        <time>2014-11-01T10:28:37Z</time>
      </trkpt>
      <trkpt lat="43.88898" lon="7.53775">
        <ele>199.61</ele>
        <time>2014-11-01T10:28:53Z</time>
      </trkpt>
      <trkpt lat="43.88906" lon="7.53778">
        <ele>200.09</ele>
        <time>2014-11-01T10:29:21Z</time>
      </trkpt>
      <trkpt lat="43.88908" lon="7.53778">
        <ele>200.57</ele>
        <time>2014-11-01T10:29:24Z</time>
      </trkpt>
      <trkpt lat="43.88919" lon="7.53781">
        <ele>200.57</ele>
        <time>2014-11-01T10:29:32Z</time>
      </trkpt>
      <trkpt lat="43.8893" lon="7.53783">
        <ele>200.57</ele>
        <time>2014-11-01T10:29:41Z</time>
      </trkpt>
      <trkpt lat="43.88933" lon="7.53781">
        <ele>201.53</ele>
        <time>2014-11-01T10:29:44Z</time>
      </trkpt>
      <trkpt lat="43.88951" lon="7.53778">
        <ele>202.98</ele>
        <time>2014-11-01T10:29:59Z</time>
      </trkpt>
      <trkpt lat="43.88956" lon="7.53772">
        <ele>202.98</ele>
        <time>2014-11-01T10:30:04Z</time>
      </trkpt>
      <trkpt lat="43.88965" lon="7.53749">
        <ele>202.98</ele>
        <time>2014-11-01T10:30:20Z</time>
      </trkpt>
      <trkpt lat="43.88968" lon="7.53743">
        <ele>202.98</ele>
        <time>2014-11-01T10:30:27Z</time>
      </trkpt>
      <trkpt lat="43.88968" lon="7.53738">
        <ele>202.98</ele>
        <time>2014-11-01T10:30:31Z</time>
      </trkpt>
      <trkpt lat="43.88973" lon="7.53727">
        <ele>203.94</ele>
        <time>2014-11-01T10:30:42Z</time>
      </trkpt>
      <trkpt lat="43.88975" lon="7.53727">
        <ele>203.94</ele>
        <time>2014-11-01T10:30:44Z</time>
      </trkpt>
      <trkpt lat="43.88992" lon="7.53727">
        <ele>205.86</ele>
        <time>2014-11-01T10:30:59Z</time>
      </trkpt>
      <trkpt lat="43.88993" lon="7.53725">
        <ele>206.34</ele>
        <time>2014-11-01T10:31:01Z</time>
      </trkpt>
      <trkpt lat="43.88997" lon="7.53708">
        <ele>206.82</ele>
        <time>2014-11-01T10:31:15Z</time>
      </trkpt>
      <trkpt lat="43.88998" lon="7.53698">
        <ele>206.82</ele>
        <time>2014-11-01T10:31:29Z</time>
      </trkpt>
      <trkpt lat="43.88999" lon="7.5369">
        <ele>206.82</ele>
        <time>2014-11-01T10:31:42Z</time>
      </trkpt>
      <trkpt lat="43.88999" lon="7.53677">
        <ele>207.3</ele>
        <time>2014-11-01T10:31:57Z</time>
      </trkpt>
      <trkpt lat="43.88999" lon="7.53668">
        <ele>207.78</ele>
        <time>2014-11-01T10:32:10Z</time>
      </trkpt>
      <trkpt lat="43.88998" lon="7.53652">
        <ele>208.26</ele>
        <time>2014-11-01T10:32:27Z</time>
      </trkpt>
      <trkpt lat="43.88999" lon="7.53642">
        <ele>207.78</ele>
        <time>2014-11-01T10:32:41Z</time>
      </trkpt>
      <trkpt lat="43.89003" lon="7.53628">
        <ele>208.26</ele>
        <time>2014-11-01T10:32:56Z</time>
      </trkpt>
      <trkpt lat="43.89008" lon="7.53614">
        <ele>209.7</ele>
        <time>2014-11-01T10:33:11Z</time>
      </trkpt>
      <trkpt lat="43.89013" lon="7.53607">
        <ele>212.11</ele>
        <time>2014-11-01T10:33:19Z</time>
      </trkpt>
      <trkpt lat="43.89025" lon="7.53595">
        <ele>215.47</ele>
        <time>2014-11-01T10:33:34Z</time>
      </trkpt>
      <trkpt lat="43.8903" lon="7.53593">
        <ele>215.95</ele>
        <time>2014-11-01T10:33:40Z</time>
      </trkpt>
      <trkpt lat="43.89032" lon="7.53592">
        <ele>216.43</ele>
        <time>2014-11-01T10:33:43Z</time>
      </trkpt>
      <trkpt lat="43.89046" lon="7.5359">
        <ele>218.36</ele>
        <time>2014-11-01T10:33:58Z</time>
      </trkpt>
      <trkpt lat="43.89056" lon="7.53591">
        <ele>219.8</ele>
        <time>2014-11-01T10:34:12Z</time>
      </trkpt>
      <trkpt lat="43.89065" lon="7.53588">
        <ele>219.32</ele>
        <time>2014-11-01T10:34:26Z</time>
      </trkpt>
      <trkpt lat="43.89073" lon="7.53585">
        <ele>218.36</ele>
        <time>2014-11-01T10:34:41Z</time>
      </trkpt>
      <trkpt lat="43.89076" lon="7.53584">
        <ele>218.36</ele>
        <time>2014-11-01T10:34:47Z</time>
      </trkpt>
      <trkpt lat="43.89083" lon="7.53582">
        <ele>220.28</ele>
        <time>2014-11-01T10:34:58Z</time>
      </trkpt>
      <trkpt lat="43.89087" lon="7.53574">
        <ele>224.12</ele>
        <time>2014-11-01T10:35:12Z</time>
      </trkpt>
      <trkpt lat="43.89087" lon="7.53572">
        <ele>225.09</ele>
        <time>2014-11-01T10:35:18Z</time>
      </trkpt>
      <trkpt lat="43.89089" lon="7.53568">
        <ele>226.05</ele>
        <time>2014-11-01T10:35:21Z</time>
      </trkpt>
      <trkpt lat="43.89097" lon="7.53556">
        <ele>230.37</ele>
        <time>2014-11-01T10:35:35Z</time>
      </trkpt>
      <trkpt lat="43.89105" lon="7.53547">
        <ele>232.78</ele>
        <time>2014-11-01T10:35:49Z</time>
      </trkpt>
      <trkpt lat="43.89108" lon="7.53528">
        <ele>236.14</ele>
        <time>2014-11-01T10:36:04Z</time>
      </trkpt>
      <trkpt lat="43.89109" lon="7.53524">
        <ele>237.1</ele>
        <time>2014-11-01T10:36:07Z</time>
      </trkpt>
      <trkpt lat="43.89116" lon="7.53515">
        <ele>239.51</ele>
        <time>2014-11-01T10:36:19Z</time>
      </trkpt>
      <trkpt lat="43.89125" lon="7.53509">
        <ele>241.91</ele>
        <time>2014-11-01T10:36:34Z</time>
      </trkpt>
      <trkpt lat="43.89125" lon="7.53501">
        <ele>245.27</ele>
        <time>2014-11-01T10:36:48Z</time>
      </trkpt>
      <trkpt lat="43.89126" lon="7.53496">
        <ele>247.68</ele>
        <time>2014-11-01T10:37:10Z</time>
      </trkpt>
      <trkpt lat="43.89128" lon="7.53482">
        <ele>248.16</ele>
        <time>2014-11-01T10:37:28Z</time>
      </trkpt>
      <trkpt lat="43.89126" lon="7.53471">
        <ele>246.72</ele>
        <time>2014-11-01T10:37:43Z</time>
      </trkpt>
      <trkpt lat="43.89126" lon="7.53471">
        <ele>245.75</ele>
        <time>2014-11-01T10:38:05Z</time>
      </trkpt>
      <trkpt lat="43.89132" lon="7.53463">
        <ele>246.23</ele>
        <time>2014-11-01T10:38:23Z</time>
      </trkpt>
      <trkpt lat="43.89136" lon="7.53457">
        <ele>247.68</ele>
        <time>2014-11-01T10:38:47Z</time>
      </trkpt>
      <trkpt lat="43.8914" lon="7.5345">
        <ele>252</ele>
        <time>2014-11-01T10:39:02Z</time>
      </trkpt>
      <trkpt lat="43.89148" lon="7.53445">
        <ele>254.41</ele>
        <time>2014-11-01T10:39:14Z</time>
      </trkpt>
      <trkpt lat="43.89152" lon="7.53443">
        <ele>254.89</ele>
        <time>2014-11-01T10:39:18Z</time>
      </trkpt>
      <trkpt lat="43.89155" lon="7.5344">
        <ele>255.37</ele>
        <time>2014-11-01T10:39:22Z</time>
      </trkpt>
      <trkpt lat="43.89167" lon="7.53433">
        <ele>258.73</ele>
        <time>2014-11-01T10:39:36Z</time>
      </trkpt>
      <trkpt lat="43.89174" lon="7.53422">
        <ele>260.17</ele>
        <time>2014-11-01T10:39:51Z</time>
      </trkpt>
      <trkpt lat="43.8918" lon="7.53415">
        <ele>260.17</ele>
        <time>2014-11-01T10:40:06Z</time>
      </trkpt>
      <trkpt lat="43.89182" lon="7.53396">
        <ele>261.62</ele>
        <time>2014-11-01T10:40:22Z</time>
      </trkpt>
      <trkpt lat="43.89184" lon="7.53388">
        <ele>262.1</ele>
        <time>2014-11-01T10:40:27Z</time>
      </trkpt>
      <trkpt lat="43.89188" lon="7.53382">
        <ele>261.62</ele>
        <time>2014-11-01T10:40:32Z</time>
      </trkpt>
      <trkpt lat="43.89201" lon="7.53376">
        <ele>262.58</ele>
        <time>2014-11-01T10:40:47Z</time>
      </trkpt>
      <trkpt lat="43.89203" lon="7.53376">
        <ele>262.58</ele>
        <time>2014-11-01T10:40:49Z</time>
      </trkpt>
      <trkpt lat="43.89219" lon="7.53374">
        <ele>264.98</ele>
        <time>2014-11-01T10:41:06Z</time>
      </trkpt>
      <trkpt lat="43.89224" lon="7.53373">
        <ele>264.98</ele>
        <time>2014-11-01T10:41:11Z</time>
      </trkpt>
      <trkpt lat="43.89229" lon="7.53373">
        <ele>264.98</ele>
        <time>2014-11-01T10:41:17Z</time>
      </trkpt>
      <trkpt lat="43.89248" lon="7.53377">
        <ele>263.06</ele>
        <time>2014-11-01T10:41:36Z</time>
      </trkpt>
      <trkpt lat="43.89262" lon="7.53378">
        <ele>258.73</ele>
        <time>2014-11-01T10:41:51Z</time>
      </trkpt>
      <trkpt lat="43.89264" lon="7.53377">
        <ele>257.29</ele>
        <time>2014-11-01T10:41:54Z</time>
      </trkpt>
      <trkpt lat="43.89277" lon="7.53369">
        <ele>256.81</ele>
        <time>2014-11-01T10:42:11Z</time>
      </trkpt>
      <trkpt lat="43.8929" lon="7.53364">
        <ele>254.89</ele>
        <time>2014-11-01T10:42:25Z</time>
      </trkpt>
      <trkpt lat="43.89296" lon="7.53365">
        <ele>253.44</ele>
        <time>2014-11-01T10:42:30Z</time>
      </trkpt>
      <trkpt lat="43.89314" lon="7.53373">
        <ele>251.52</ele>
        <time>2014-11-01T10:42:46Z</time>
      </trkpt>
      <trkpt lat="43.89326" lon="7.53371">
        <ele>252.96</ele>
        <time>2014-11-01T10:43:00Z</time>
      </trkpt>
      <trkpt lat="43.89329" lon="7.53373">
        <ele>252</ele>
        <time>2014-11-01T10:43:03Z</time>
      </trkpt>
      <trkpt lat="43.89343" lon="7.53381">
        <ele>252</ele>
        <time>2014-11-01T10:43:18Z</time>
      </trkpt>
      <trkpt lat="43.89354" lon="7.53378">
        <ele>253.44</ele>
        <time>2014-11-01T10:43:29Z</time>
      </trkpt>
      <trkpt lat="43.89369" lon="7.53374">
        <ele>255.37</ele>
        <time>2014-11-01T10:43:45Z</time>
      </trkpt>
      <trkpt lat="43.89378" lon="7.53366">
        <ele>254.41</ele>
        <time>2014-11-01T10:43:55Z</time>
      </trkpt>
      <trkpt lat="43.89396" lon="7.53358">
        <ele>251.52</ele>
        <time>2014-11-01T10:44:11Z</time>
      </trkpt>
      <trkpt lat="43.89401" lon="7.5336">
        <ele>249.12</ele>
        <time>2014-11-01T10:44:15Z</time>
      </trkpt>
      <trkpt lat="43.89407" lon="7.53361">
        <ele>247.2</ele>
        <time>2014-11-01T10:44:20Z</time>
      </trkpt>
      <trkpt lat="43.89416" lon="7.53364">
        <ele>245.75</ele>
        <time>2014-11-01T10:44:29Z</time>
      </trkpt>
      <trkpt lat="43.89431" lon="7.53377">
        <ele>241.91</ele>
        <time>2014-11-01T10:44:46Z</time>
      </trkpt>
      <trkpt lat="43.89437" lon="7.53381">
        <ele>239.02</ele>
        <time>2014-11-01T10:44:55Z</time>
      </trkpt>
      <trkpt lat="43.89443" lon="7.53388">
        <ele>236.62</ele>
        <time>2014-11-01T10:45:00Z</time>
      </trkpt>
      <trkpt lat="43.89458" lon="7.53396">
        <ele>233.74</ele>
        <time>2014-11-01T10:45:16Z</time>
      </trkpt>
      <trkpt lat="43.89468" lon="7.53406">
        <ele>231.33</ele>
        <time>2014-11-01T10:45:30Z</time>
      </trkpt>
      <trkpt lat="43.89478" lon="7.53414">
        <ele>231.33</ele>
        <time>2014-11-01T10:45:43Z</time>
      </trkpt>
      <trkpt lat="43.8948" lon="7.53416">
        <ele>230.85</ele>
        <time>2014-11-01T10:45:45Z</time>
      </trkpt>
      <trkpt lat="43.89483" lon="7.53434">
        <ele>227.01</ele>
        <time>2014-11-01T10:45:59Z</time>
      </trkpt>
      <trkpt lat="43.89483" lon="7.53438">
        <ele>226.05</ele>
        <time>2014-11-01T10:46:03Z</time>
      </trkpt>
      <trkpt lat="43.89486" lon="7.53453">
        <ele>225.09</ele>
        <time>2014-11-01T10:46:14Z</time>
      </trkpt>
      <trkpt lat="43.89488" lon="7.53467">
        <ele>224.12</ele>
        <time>2014-11-01T10:46:28Z</time>
      </trkpt>
      <trkpt lat="43.89485" lon="7.53477">
        <ele>224.12</ele>
        <time>2014-11-01T10:46:40Z</time>
      </trkpt>
      <trkpt lat="43.89485" lon="7.53477">
        <ele>224.12</ele>
        <time>2014-11-01T10:46:44Z</time>
      </trkpt>
      <trkpt lat="43.89488" lon="7.5348">
        <ele>224.61</ele>
        <time>2014-11-01T10:46:58Z</time>
      </trkpt>
      <trkpt lat="43.89483" lon="7.53487">
        <ele>224.12</ele>
        <time>2014-11-01T10:47:11Z</time>
      </trkpt>
      <trkpt lat="43.89482" lon="7.5349">
        <ele>224.12</ele>
        <time>2014-11-01T10:47:14Z</time>
      </trkpt>
      <trkpt lat="43.89481" lon="7.53502">
        <ele>224.12</ele>
        <time>2014-11-01T10:47:26Z</time>
      </trkpt>
      <trkpt lat="43.89485" lon="7.5352">
        <ele>224.61</ele>
        <time>2014-11-01T10:47:41Z</time>
      </trkpt>
      <trkpt lat="43.89486" lon="7.53523">
        <ele>224.12</ele>
        <time>2014-11-01T10:47:55Z</time>
      </trkpt>
      <trkpt lat="43.89487" lon="7.53526">
        <ele>222.2</ele>
        <time>2014-11-01T10:47:59Z</time>
      </trkpt>
      <trkpt lat="43.89491" lon="7.53532">
        <ele>217.88</ele>
        <time>2014-11-01T10:48:26Z</time>
      </trkpt>
      <trkpt lat="43.89495" lon="7.5354">
        <ele>211.15</ele>
        <time>2014-11-01T10:48:41Z</time>
      </trkpt>
      <trkpt lat="43.89498" lon="7.53541">
        <ele>209.22</ele>
        <time>2014-11-01T10:49:07Z</time>
      </trkpt>
      <trkpt lat="43.89501" lon="7.53549">
        <ele>207.3</ele>
        <time>2014-11-01T10:49:24Z</time>
      </trkpt>
      <trkpt lat="43.89505" lon="7.53544">
        <ele>205.38</ele>
        <time>2014-11-01T10:49:38Z</time>
      </trkpt>
      <trkpt lat="43.89507" lon="7.53548">
        <ele>202.98</ele>
        <time>2014-11-01T10:49:53Z</time>
      </trkpt>
      <trkpt lat="43.89506" lon="7.53538">
        <ele>198.17</ele>
        <time>2014-11-01T10:50:07Z</time>
      </trkpt>
      <trkpt lat="43.89504" lon="7.53538">
        <ele>196.25</ele>
        <time>2014-11-01T10:50:25Z</time>
      </trkpt>
      <trkpt lat="43.89504" lon="7.53536">
        <ele>194.8</ele>
        <time>2014-11-01T10:51:52Z</time>
      </trkpt>
      <trkpt lat="43.89503" lon="7.53523">
        <ele>191.44</ele>
        <time>2014-11-01T10:52:06Z</time>
      </trkpt>
      <trkpt lat="43.8951" lon="7.53519">
        <ele>191.44</ele>
        <time>2014-11-01T10:52:24Z</time>
      </trkpt>
      <trkpt lat="43.8951" lon="7.53521">
        <ele>191.44</ele>
        <time>2014-11-01T10:52:46Z</time>
      </trkpt>
      <trkpt lat="43.8951" lon="7.53518">
        <ele>191.92</ele>
        <time>2014-11-01T10:53:12Z</time>
      </trkpt>
      <trkpt lat="43.8951" lon="7.53511">
        <ele>192.88</ele>
        <time>2014-11-01T10:53:26Z</time>
      </trkpt>
      <trkpt lat="43.89511" lon="7.53509">
        <ele>193.36</ele>
        <time>2014-11-01T10:53:56Z</time>
      </trkpt>
      <trkpt lat="43.89517" lon="7.53499">
        <ele>193.36</ele>
        <time>2014-11-01T10:54:12Z</time>
      </trkpt>
      <trkpt lat="43.89519" lon="7.53509">
        <ele>196.25</ele>
        <time>2014-11-01T10:54:25Z</time>
      </trkpt>
      <trkpt lat="43.89521" lon="7.53508">
        <ele>198.65</ele>
        <time>2014-11-01T10:54:39Z</time>
      </trkpt>
      <trkpt lat="43.89525" lon="7.53498">
        <ele>199.13</ele>
        <time>2014-11-01T10:54:52Z</time>
      </trkpt>
      <trkpt lat="43.89533" lon="7.53489">
        <ele>199.13</ele>
        <time>2014-11-01T10:55:06Z</time>
      </trkpt>
      <trkpt lat="43.89536" lon="7.53479">
        <ele>199.13</ele>
        <time>2014-11-01T10:55:21Z</time>
      </trkpt>
      <trkpt lat="43.89541" lon="7.53475">
        <ele>199.13</ele>
        <time>2014-11-01T10:55:37Z</time>
      </trkpt>
      <trkpt lat="43.89555" lon="7.5347">
        <ele>198.65</ele>
        <time>2014-11-01T10:55:52Z</time>
      </trkpt>
      <trkpt lat="43.89565" lon="7.53471">
        <ele>199.61</ele>
        <time>2014-11-01T10:56:07Z</time>
      </trkpt>
      <trkpt lat="43.89577" lon="7.53472">
        <ele>201.53</ele>
        <time>2014-11-01T10:56:24Z</time>
      </trkpt>
      <trkpt lat="43.89586" lon="7.53473">
        <ele>205.86</ele>
        <time>2014-11-01T10:56:40Z</time>
      </trkpt>
      <trkpt lat="43.89593" lon="7.53471">
        <ele>208.74</ele>
        <time>2014-11-01T10:56:54Z</time>
      </trkpt>
      <trkpt lat="43.8959" lon="7.53468">
        <ele>210.19</ele>
        <time>2014-11-01T10:57:04Z</time>
      </trkpt>
      <trkpt lat="43.89585" lon="7.53458">
        <ele>212.11</ele>
        <time>2014-11-01T10:57:19Z</time>
      </trkpt>
      <trkpt lat="43.89585" lon="7.53456">
        <ele>214.51</ele>
        <time>2014-11-01T10:57:32Z</time>
      </trkpt>
      <trkpt lat="43.8958" lon="7.53443">
        <ele>218.36</ele>
        <time>2014-11-01T10:57:42Z</time>
      </trkpt>
      <trkpt lat="43.89582" lon="7.53423">
        <ele>223.16</ele>
        <time>2014-11-01T10:58:00Z</time>
      </trkpt>
      <trkpt lat="43.89584" lon="7.53407">
        <ele>227.97</ele>
        <time>2014-11-01T10:58:15Z</time>
      </trkpt>
      <trkpt lat="43.8958" lon="7.53396">
        <ele>230.37</ele>
        <time>2014-11-01T10:58:28Z</time>
      </trkpt>
      <trkpt lat="43.89573" lon="7.53388">
        <ele>235.66</ele>
        <time>2014-11-01T10:58:40Z</time>
      </trkpt>
      <trkpt lat="43.89569" lon="7.53375">
        <ele>234.22</ele>
        <time>2014-11-01T10:58:58Z</time>
      </trkpt>
      <trkpt lat="43.89564" lon="7.53368">
        <ele>234.7</ele>
        <time>2014-11-01T10:59:12Z</time>
      </trkpt>
      <trkpt lat="43.89562" lon="7.53361">
        <ele>236.14</ele>
        <time>2014-11-01T10:59:25Z</time>
      </trkpt>
      <trkpt lat="43.89563" lon="7.53344">
        <ele>237.58</ele>
        <time>2014-11-01T10:59:41Z</time>
      </trkpt>
      <trkpt lat="43.89561" lon="7.53324">
        <ele>239.51</ele>
        <time>2014-11-01T10:59:58Z</time>
      </trkpt>
      <trkpt lat="43.8956" lon="7.53312">
        <ele>241.43</ele>
        <time>2014-11-01T11:00:14Z</time>
      </trkpt>
      <trkpt lat="43.89557" lon="7.533">
        <ele>244.79</ele>
        <time>2014-11-01T11:00:28Z</time>
      </trkpt>
      <trkpt lat="43.89556" lon="7.53285">
        <ele>249.6</ele>
        <time>2014-11-01T11:00:42Z</time>
      </trkpt>
      <trkpt lat="43.89556" lon="7.53273">
        <ele>250.56</ele>
        <time>2014-11-01T11:00:56Z</time>
      </trkpt>
      <trkpt lat="43.89556" lon="7.53262">
        <ele>251.04</ele>
        <time>2014-11-01T11:01:10Z</time>
      </trkpt>
      <trkpt lat="43.89559" lon="7.5325">
        <ele>251.52</ele>
        <time>2014-11-01T11:01:24Z</time>
      </trkpt>
      <trkpt lat="43.89566" lon="7.5324">
        <ele>251.52</ele>
        <time>2014-11-01T11:01:38Z</time>
      </trkpt>
      <trkpt lat="43.89571" lon="7.53235">
        <ele>250.56</ele>
        <time>2014-11-01T11:01:45Z</time>
      </trkpt>
      <trkpt lat="43.8958" lon="7.5322">
        <ele>252</ele>
        <time>2014-11-01T11:02:02Z</time>
      </trkpt>
      <trkpt lat="43.89589" lon="7.53213">
        <ele>253.44</ele>
        <time>2014-11-01T11:02:18Z</time>
      </trkpt>
      <trkpt lat="43.89605" lon="7.53214">
        <ele>252.48</ele>
        <time>2014-11-01T11:02:34Z</time>
      </trkpt>
      <trkpt lat="43.89607" lon="7.53214">
        <ele>252.48</ele>
        <time>2014-11-01T11:02:36Z</time>
      </trkpt>
      <trkpt lat="43.89621" lon="7.53218">
        <ele>252.96</ele>
        <time>2014-11-01T11:02:55Z</time>
      </trkpt>
      <trkpt lat="43.89631" lon="7.53205">
        <ele>253.93</ele>
        <time>2014-11-01T11:03:11Z</time>
      </trkpt>
      <trkpt lat="43.89635" lon="7.53193">
        <ele>253.93</ele>
        <time>2014-11-01T11:03:26Z</time>
      </trkpt>
      <trkpt lat="43.89635" lon="7.53187">
        <ele>254.41</ele>
        <time>2014-11-01T11:03:31Z</time>
      </trkpt>
      <trkpt lat="43.8963" lon="7.53169">
        <ele>254.41</ele>
        <time>2014-11-01T11:03:47Z</time>
      </trkpt>
      <trkpt lat="43.89627" lon="7.53152">
        <ele>254.89</ele>
        <time>2014-11-01T11:04:02Z</time>
      </trkpt>
      <trkpt lat="43.89635" lon="7.53136">
        <ele>254.89</ele>
        <time>2014-11-01T11:04:16Z</time>
      </trkpt>
      <trkpt lat="43.8964" lon="7.53126">
        <ele>256.33</ele>
        <time>2014-11-01T11:04:27Z</time>
      </trkpt>
      <trkpt lat="43.89646" lon="7.53114">
        <ele>256.81</ele>
        <time>2014-11-01T11:04:42Z</time>
      </trkpt>
      <trkpt lat="43.89642" lon="7.531">
        <ele>261.62</ele>
        <time>2014-11-01T11:04:59Z</time>
      </trkpt>
      <trkpt lat="43.89644" lon="7.5309">
        <ele>263.06</ele>
        <time>2014-11-01T11:05:15Z</time>
      </trkpt>
      <trkpt lat="43.89644" lon="7.53089">
        <ele>263.06</ele>
        <time>2014-11-01T11:05:32Z</time>
      </trkpt>
      <trkpt lat="43.89657" lon="7.53079">
        <ele>263.54</ele>
        <time>2014-11-01T11:05:46Z</time>
      </trkpt>
      <trkpt lat="43.89665" lon="7.5307">
        <ele>264.98</ele>
        <time>2014-11-01T11:06:00Z</time>
      </trkpt>
      <trkpt lat="43.8967" lon="7.53067">
        <ele>266.42</ele>
        <time>2014-11-01T11:06:14Z</time>
      </trkpt>
      <trkpt lat="43.89682" lon="7.53066">
        <ele>268.83</ele>
        <time>2014-11-01T11:06:30Z</time>
      </trkpt>
      <trkpt lat="43.89691" lon="7.53065">
        <ele>269.79</ele>
        <time>2014-11-01T11:06:45Z</time>
      </trkpt>
      <trkpt lat="43.89698" lon="7.5306">
        <ele>275.07</ele>
        <time>2014-11-01T11:06:59Z</time>
      </trkpt>
      <trkpt lat="43.89697" lon="7.53051">
        <ele>277.96</ele>
        <time>2014-11-01T11:07:11Z</time>
      </trkpt>
      <trkpt lat="43.89697" lon="7.5304">
        <ele>282.28</ele>
        <time>2014-11-01T11:07:28Z</time>
      </trkpt>
      <trkpt lat="43.89697" lon="7.53032">
        <ele>284.69</ele>
        <time>2014-11-01T11:07:43Z</time>
      </trkpt>
      <trkpt lat="43.89696" lon="7.53021">
        <ele>286.13</ele>
        <time>2014-11-01T11:08:00Z</time>
      </trkpt>
      <trkpt lat="43.89694" lon="7.5301">
        <ele>286.13</ele>
        <time>2014-11-01T11:08:15Z</time>
      </trkpt>
      <trkpt lat="43.89692" lon="7.53">
        <ele>286.61</ele>
        <time>2014-11-01T11:08:29Z</time>
      </trkpt>
      <trkpt lat="43.8969" lon="7.52988">
        <ele>290.46</ele>
        <time>2014-11-01T11:08:44Z</time>
      </trkpt>
      <trkpt lat="43.89694" lon="7.52978">
        <ele>289.49</ele>
        <time>2014-11-01T11:08:58Z</time>
      </trkpt>
      <trkpt lat="43.89706" lon="7.5299">
        <ele>289.01</ele>
        <time>2014-11-01T11:09:17Z</time>
      </trkpt>
      <trkpt lat="43.89712" lon="7.52997">
        <ele>291.9</ele>
        <time>2014-11-01T11:09:35Z</time>
      </trkpt>
      <trkpt lat="43.8971" lon="7.52988">
        <ele>292.86</ele>
        <time>2014-11-01T11:09:50Z</time>
      </trkpt>
      <trkpt lat="43.8971" lon="7.52975">
        <ele>292.38</ele>
        <time>2014-11-01T11:10:04Z</time>
      </trkpt>
      <trkpt lat="43.89709" lon="7.52968">
        <ele>292.38</ele>
        <time>2014-11-01T11:10:21Z</time>
      </trkpt>
      <trkpt lat="43.89717" lon="7.52961">
        <ele>294.78</ele>
        <time>2014-11-01T11:10:35Z</time>
      </trkpt>
      <trkpt lat="43.89721" lon="7.52973">
        <ele>296.7</ele>
        <time>2014-11-01T11:10:53Z</time>
      </trkpt>
      <trkpt lat="43.89728" lon="7.52982">
        <ele>301.51</ele>
        <time>2014-11-01T11:11:12Z</time>
      </trkpt>
      <trkpt lat="43.89728" lon="7.52978">
        <ele>303.43</ele>
        <time>2014-11-01T11:11:26Z</time>
      </trkpt>
      <trkpt lat="43.89735" lon="7.52967">
        <ele>302.95</ele>
        <time>2014-11-01T11:11:44Z</time>
      </trkpt>
      <trkpt lat="43.89742" lon="7.52957">
        <ele>304.39</ele>
        <time>2014-11-01T11:11:57Z</time>
      </trkpt>
      <trkpt lat="43.89747" lon="7.52951">
        <ele>306.8</ele>
        <time>2014-11-01T11:12:08Z</time>
      </trkpt>
      <trkpt lat="43.89757" lon="7.52941">
        <ele>309.2</ele>
        <time>2014-11-01T11:12:24Z</time>
      </trkpt>
      <trkpt lat="43.89765" lon="7.5293">
        <ele>312.57</ele>
        <time>2014-11-01T11:12:41Z</time>
      </trkpt>
      <trkpt lat="43.89775" lon="7.52922">
        <ele>312.57</ele>
        <time>2014-11-01T11:12:59Z</time>
      </trkpt>
      <trkpt lat="43.89783" lon="7.52914">
        <ele>313.53</ele>
        <time>2014-11-01T11:13:15Z</time>
      </trkpt>
      <trkpt lat="43.8979" lon="7.52905">
        <ele>314.49</ele>
        <time>2014-11-01T11:13:28Z</time>
      </trkpt>
      <trkpt lat="43.89804" lon="7.52904">
        <ele>317.37</ele>
        <time>2014-11-01T11:13:46Z</time>
      </trkpt>
      <trkpt lat="43.89811" lon="7.52907">
        <ele>317.85</ele>
        <time>2014-11-01T11:13:59Z</time>
      </trkpt>
      <trkpt lat="43.8982" lon="7.52912">
        <ele>320.74</ele>
        <time>2014-11-01T11:14:15Z</time>
      </trkpt>
      <trkpt lat="43.89827" lon="7.52917">
        <ele>323.14</ele>
        <time>2014-11-01T11:14:31Z</time>
      </trkpt>
      <trkpt lat="43.89836" lon="7.52919">
        <ele>326.02</ele>
        <time>2014-11-01T11:14:48Z</time>
      </trkpt>
      <trkpt lat="43.89843" lon="7.52914">
        <ele>330.83</ele>
        <time>2014-11-01T11:15:03Z</time>
      </trkpt>
      <trkpt lat="43.89849" lon="7.52914">
        <ele>330.83</ele>
        <time>2014-11-01T11:15:16Z</time>
      </trkpt>
      <trkpt lat="43.89855" lon="7.52913">
        <ele>332.27</ele>
        <time>2014-11-01T11:15:32Z</time>
      </trkpt>
      <trkpt lat="43.89866" lon="7.5291">
        <ele>334.68</ele>
        <time>2014-11-01T11:15:48Z</time>
      </trkpt>
      <trkpt lat="43.89876" lon="7.529">
        <ele>338.04</ele>
        <time>2014-11-01T11:16:03Z</time>
      </trkpt>
      <trkpt lat="43.89884" lon="7.52907">
        <ele>338.52</ele>
        <time>2014-11-01T11:16:22Z</time>
      </trkpt>
      <trkpt lat="43.8989" lon="7.5292">
        <ele>342.85</ele>
        <time>2014-11-01T11:16:39Z</time>
      </trkpt>
      <trkpt lat="43.89894" lon="7.52932">
        <ele>344.77</ele>
        <time>2014-11-01T11:16:54Z</time>
      </trkpt>
      <trkpt lat="43.89903" lon="7.52944">
        <ele>346.69</ele>
        <time>2014-11-01T11:17:11Z</time>
      </trkpt>
      <trkpt lat="43.8991" lon="7.52956">
        <ele>349.1</ele>
        <time>2014-11-01T11:17:29Z</time>
      </trkpt>
      <trkpt lat="43.89913" lon="7.52968">
        <ele>351.5</ele>
        <time>2014-11-01T11:17:47Z</time>
      </trkpt>
      <trkpt lat="43.8992" lon="7.52982">
        <ele>354.38</ele>
        <time>2014-11-01T11:18:05Z</time>
      </trkpt>
      <trkpt lat="43.89921" lon="7.53">
        <ele>355.34</ele>
        <time>2014-11-01T11:18:23Z</time>
      </trkpt>
      <trkpt lat="43.89926" lon="7.53015">
        <ele>357.27</ele>
        <time>2014-11-01T11:18:38Z</time>
      </trkpt>
      <trkpt lat="43.8993" lon="7.53029">
        <ele>357.27</ele>
        <time>2014-11-01T11:18:56Z</time>
      </trkpt>
      <trkpt lat="43.89939" lon="7.53038">
        <ele>359.67</ele>
        <time>2014-11-01T11:19:12Z</time>
      </trkpt>
      <trkpt lat="43.8995" lon="7.53047">
        <ele>363.04</ele>
        <time>2014-11-01T11:19:29Z</time>
      </trkpt>
      <trkpt lat="43.89955" lon="7.53055">
        <ele>363.52</ele>
        <time>2014-11-01T11:19:44Z</time>
      </trkpt>
      <trkpt lat="43.89956" lon="7.53059">
        <ele>364.96</ele>
        <time>2014-11-01T11:19:51Z</time>
      </trkpt>
      <trkpt lat="43.89967" lon="7.53059">
        <ele>368.32</ele>
        <time>2014-11-01T11:20:08Z</time>
      </trkpt>
      <trkpt lat="43.8997" lon="7.5306">
        <ele>368.8</ele>
        <time>2014-11-01T11:20:27Z</time>
      </trkpt>
      <trkpt lat="43.89989" lon="7.53064">
        <ele>371.69</ele>
        <time>2014-11-01T11:20:41Z</time>
      </trkpt>
      <trkpt lat="43.90002" lon="7.53069">
        <ele>373.13</ele>
        <time>2014-11-01T11:20:57Z</time>
      </trkpt>
      <trkpt lat="43.90016" lon="7.53086">
        <ele>373.61</ele>
        <time>2014-11-01T11:21:15Z</time>
      </trkpt>
      <trkpt lat="43.9002" lon="7.53096">
        <ele>374.57</ele>
        <time>2014-11-01T11:21:28Z</time>
      </trkpt>
      <trkpt lat="43.90017" lon="7.53101">
        <ele>378.42</ele>
        <time>2014-11-01T11:21:44Z</time>
      </trkpt>
      <trkpt lat="43.90026" lon="7.53108">
        <ele>383.22</ele>
        <time>2014-11-01T11:22:01Z</time>
      </trkpt>
      <trkpt lat="43.90027" lon="7.53116">
        <ele>387.55</ele>
        <time>2014-11-01T11:22:18Z</time>
      </trkpt>
      <trkpt lat="43.90033" lon="7.53123">
        <ele>390.43</ele>
        <time>2014-11-01T11:22:34Z</time>
      </trkpt>
      <trkpt lat="43.90046" lon="7.53139">
        <ele>392.84</ele>
        <time>2014-11-01T11:22:52Z</time>
      </trkpt>
      <trkpt lat="43.90059" lon="7.53151">
        <ele>395.24</ele>
        <time>2014-11-01T11:23:09Z</time>
      </trkpt>
      <trkpt lat="43.90066" lon="7.53157">
        <ele>398.12</ele>
        <time>2014-11-01T11:23:24Z</time>
      </trkpt>
      <trkpt lat="43.90073" lon="7.53162">
        <ele>401.01</ele>
        <time>2014-11-01T11:23:39Z</time>
      </trkpt>
      <trkpt lat="43.9008" lon="7.53167">
        <ele>403.41</ele>
        <time>2014-11-01T11:23:55Z</time>
      </trkpt>
      <trkpt lat="43.90089" lon="7.53179">
        <ele>401.97</ele>
        <time>2014-11-01T11:24:10Z</time>
      </trkpt>
      <trkpt lat="43.90098" lon="7.53185">
        <ele>401.01</ele>
        <time>2014-11-01T11:24:21Z</time>
      </trkpt>
      <trkpt lat="43.90109" lon="7.53187">
        <ele>400.53</ele>
        <time>2014-11-01T11:24:37Z</time>
      </trkpt>
      <trkpt lat="43.90118" lon="7.53189">
        <ele>401.97</ele>
        <time>2014-11-01T11:24:51Z</time>
      </trkpt>
      <trkpt lat="43.90126" lon="7.53193">
        <ele>404.37</ele>
        <time>2014-11-01T11:25:06Z</time>
      </trkpt>
      <trkpt lat="43.90134" lon="7.53202">
        <ele>404.85</ele>
        <time>2014-11-01T11:25:28Z</time>
      </trkpt>
      <trkpt lat="43.90136" lon="7.53209">
        <ele>405.81</ele>
        <time>2014-11-01T11:25:45Z</time>
      </trkpt>
      <trkpt lat="43.90136" lon="7.5321">
        <ele>406.29</ele>
        <time>2014-11-01T11:26:01Z</time>
      </trkpt>
      <trkpt lat="43.90133" lon="7.53209">
        <ele>405.81</ele>
        <time>2014-11-01T11:26:14Z</time>
      </trkpt>
      <trkpt lat="43.90133" lon="7.53209">
        <ele>405.33</ele>
        <time>2014-11-01T11:29:19Z</time>
      </trkpt>
      <trkpt lat="43.90134" lon="7.5321">
        <ele>405.81</ele>
        <time>2014-11-01T11:30:50Z</time>
      </trkpt>
      <trkpt lat="43.90138" lon="7.53207">
        <ele>407.74</ele>
        <time>2014-11-01T11:31:16Z</time>
      </trkpt>
      <trkpt lat="43.90138" lon="7.53207">
        <ele>407.74</ele>
        <time>2014-11-01T11:33:01Z</time>
      </trkpt>
      <trkpt lat="43.90139" lon="7.53206">
        <ele>407.26</ele>
        <time>2014-11-01T11:34:38Z</time>
      </trkpt>
      <trkpt lat="43.90137" lon="7.53207">
        <ele>410.14</ele>
        <time>2014-11-01T11:44:31Z</time>
      </trkpt>
      <trkpt lat="43.90136" lon="7.53208">
        <ele>410.14</ele>
        <time>2014-11-01T11:51:18Z</time>
      </trkpt>
      <trkpt lat="43.90136" lon="7.53207">
        <ele>409.66</ele>
        <time>2014-11-01T11:52:08Z</time>
      </trkpt>
      <trkpt lat="43.90135" lon="7.5321">
        <ele>409.18</ele>
        <time>2014-11-01T11:58:03Z</time>
      </trkpt>
      <trkpt lat="43.90134" lon="7.5321">
        <ele>408.7</ele>
        <time>2014-11-01T11:59:07Z</time>
      </trkpt>
      <trkpt lat="43.90133" lon="7.53209">
        <ele>408.22</ele>
        <time>2014-11-01T12:00:05Z</time>
      </trkpt>
      <trkpt lat="43.90137" lon="7.53216">
        <ele>408.7</ele>
        <time>2014-11-01T12:00:25Z</time>
      </trkpt>
      <trkpt lat="43.9014" lon="7.53223">
        <ele>409.66</ele>
        <time>2014-11-01T12:00:42Z</time>
      </trkpt>
      <trkpt lat="43.90149" lon="7.5323">
        <ele>412.54</ele>
        <time>2014-11-01T12:01:00Z</time>
      </trkpt>
      <trkpt lat="43.90157" lon="7.53225">
        <ele>413.5</ele>
        <time>2014-11-01T12:01:13Z</time>
      </trkpt>
      <trkpt lat="43.90162" lon="7.53223">
        <ele>412.54</ele>
        <time>2014-11-01T12:01:20Z</time>
      </trkpt>
      <trkpt lat="43.90168" lon="7.53207">
        <ele>408.7</ele>
        <time>2014-11-01T12:01:36Z</time>
      </trkpt>
      <trkpt lat="43.90175" lon="7.53194">
        <ele>407.74</ele>
        <time>2014-11-01T12:01:51Z</time>
      </trkpt>
      <trkpt lat="43.90182" lon="7.53188">
        <ele>408.7</ele>
        <time>2014-11-01T12:02:05Z</time>
      </trkpt>
      <trkpt lat="43.90191" lon="7.53183">
        <ele>410.14</ele>
        <time>2014-11-01T12:02:20Z</time>
      </trkpt>
      <trkpt lat="43.902" lon="7.53181">
        <ele>413.02</ele>
        <time>2014-11-01T12:02:35Z</time>
      </trkpt>
      <trkpt lat="43.90205" lon="7.53179">
        <ele>415.43</ele>
        <time>2014-11-01T12:02:42Z</time>
      </trkpt>
      <trkpt lat="43.90213" lon="7.53177">
        <ele>416.87</ele>
        <time>2014-11-01T12:02:58Z</time>
      </trkpt>
      <trkpt lat="43.90221" lon="7.5318">
        <ele>419.75</ele>
        <time>2014-11-01T12:03:13Z</time>
      </trkpt>
      <trkpt lat="43.90231" lon="7.53177">
        <ele>424.56</ele>
        <time>2014-11-01T12:03:28Z</time>
      </trkpt>
      <trkpt lat="43.9024" lon="7.53177">
        <ele>426</ele>
        <time>2014-11-01T12:03:42Z</time>
      </trkpt>
      <trkpt lat="43.90251" lon="7.53176">
        <ele>428.4</ele>
        <time>2014-11-01T12:03:58Z</time>
      </trkpt>
      <trkpt lat="43.9026" lon="7.53175">
        <ele>428.89</ele>
        <time>2014-11-01T12:04:15Z</time>
      </trkpt>
      <trkpt lat="43.90268" lon="7.53172">
        <ele>433.21</ele>
        <time>2014-11-01T12:04:29Z</time>
      </trkpt>
      <trkpt lat="43.90273" lon="7.5318">
        <ele>435.13</ele>
        <time>2014-11-01T12:04:45Z</time>
      </trkpt>
      <trkpt lat="43.90277" lon="7.53184">
        <ele>437.54</ele>
        <time>2014-11-01T12:05:01Z</time>
      </trkpt>
      <trkpt lat="43.90277" lon="7.53188">
        <ele>438.98</ele>
        <time>2014-11-01T12:05:16Z</time>
      </trkpt>
      <trkpt lat="43.90278" lon="7.53195">
        <ele>438.98</ele>
        <time>2014-11-01T12:05:31Z</time>
      </trkpt>
      <trkpt lat="43.90282" lon="7.53198">
        <ele>440.42</ele>
        <time>2014-11-01T12:05:49Z</time>
      </trkpt>
      <trkpt lat="43.90285" lon="7.53208">
        <ele>445.71</ele>
        <time>2014-11-01T12:06:05Z</time>
      </trkpt>
      <trkpt lat="43.9029" lon="7.53222">
        <ele>448.11</ele>
        <time>2014-11-01T12:06:21Z</time>
      </trkpt>
      <trkpt lat="43.90297" lon="7.53234">
        <ele>449.55</ele>
        <time>2014-11-01T12:06:37Z</time>
      </trkpt>
      <trkpt lat="43.90303" lon="7.53239">
        <ele>450.03</ele>
        <time>2014-11-01T12:06:51Z</time>
      </trkpt>
      <trkpt lat="43.90317" lon="7.53242">
        <ele>450.03</ele>
        <time>2014-11-01T12:07:07Z</time>
      </trkpt>
      <trkpt lat="43.90328" lon="7.53246">
        <ele>449.55</ele>
        <time>2014-11-01T12:07:22Z</time>
      </trkpt>
      <trkpt lat="43.9034" lon="7.53254">
        <ele>449.55</ele>
        <time>2014-11-01T12:07:37Z</time>
      </trkpt>
      <trkpt lat="43.90352" lon="7.53261">
        <ele>452.44</ele>
        <time>2014-11-01T12:07:53Z</time>
      </trkpt>
      <trkpt lat="43.90355" lon="7.53265">
        <ele>452.92</ele>
        <time>2014-11-01T12:07:57Z</time>
      </trkpt>
      <trkpt lat="43.9037" lon="7.53272">
        <ele>455.8</ele>
        <time>2014-11-01T12:08:14Z</time>
      </trkpt>
      <trkpt lat="43.90381" lon="7.53277">
        <ele>455.32</ele>
        <time>2014-11-01T12:08:33Z</time>
      </trkpt>
      <trkpt lat="43.90389" lon="7.53278">
        <ele>456.28</ele>
        <time>2014-11-01T12:08:43Z</time>
      </trkpt>
      <trkpt lat="43.90391" lon="7.53278">
        <ele>456.28</ele>
        <time>2014-11-01T12:08:46Z</time>
      </trkpt>
      <trkpt lat="43.90393" lon="7.53278">
        <ele>456.28</ele>
        <time>2014-11-01T12:08:48Z</time>
      </trkpt>
      <trkpt lat="43.90405" lon="7.53284">
        <ele>456.76</ele>
        <time>2014-11-01T12:09:02Z</time>
      </trkpt>
      <trkpt lat="43.90408" lon="7.53283">
        <ele>456.76</ele>
        <time>2014-11-01T12:09:06Z</time>
      </trkpt>
      <trkpt lat="43.90417" lon="7.5328">
        <ele>457.72</ele>
        <time>2014-11-01T12:09:15Z</time>
      </trkpt>
      <trkpt lat="43.90433" lon="7.53282">
        <ele>459.17</ele>
        <time>2014-11-01T12:09:33Z</time>
      </trkpt>
      <trkpt lat="43.90441" lon="7.53283">
        <ele>461.57</ele>
        <time>2014-11-01T12:09:41Z</time>
      </trkpt>
      <trkpt lat="43.90444" lon="7.53283">
        <ele>463.01</ele>
        <time>2014-11-01T12:09:44Z</time>
      </trkpt>
      <trkpt lat="43.90459" lon="7.53287">
        <ele>464.93</ele>
        <time>2014-11-01T12:10:00Z</time>
      </trkpt>
      <trkpt lat="43.90472" lon="7.53284">
        <ele>466.86</ele>
        <time>2014-11-01T12:10:15Z</time>
      </trkpt>
      <trkpt lat="43.90475" lon="7.53284">
        <ele>467.82</ele>
        <time>2014-11-01T12:10:19Z</time>
      </trkpt>
      <trkpt lat="43.9048" lon="7.53286">
        <ele>468.78</ele>
        <time>2014-11-01T12:10:24Z</time>
      </trkpt>
      <trkpt lat="43.90488" lon="7.53282">
        <ele>468.3</ele>
        <time>2014-11-01T12:10:33Z</time>
      </trkpt>
      <trkpt lat="43.90511" lon="7.53271">
        <ele>467.82</ele>
        <time>2014-11-01T12:10:54Z</time>
      </trkpt>
      <trkpt lat="43.90512" lon="7.53271">
        <ele>468.3</ele>
        <time>2014-11-01T12:10:56Z</time>
      </trkpt>
      <trkpt lat="43.9053" lon="7.53266">
        <ele>468.3</ele>
        <time>2014-11-01T12:11:13Z</time>
      </trkpt>
      <trkpt lat="43.90531" lon="7.53266">
        <ele>468.78</ele>
        <time>2014-11-01T12:11:14Z</time>
      </trkpt>
      <trkpt lat="43.90537" lon="7.53258">
        <ele>469.26</ele>
        <time>2014-11-01T12:11:21Z</time>
      </trkpt>
      <trkpt lat="43.90538" lon="7.53254">
        <ele>469.26</ele>
        <time>2014-11-01T12:11:24Z</time>
      </trkpt>
      <trkpt lat="43.90541" lon="7.53247">
        <ele>468.78</ele>
        <time>2014-11-01T12:11:30Z</time>
      </trkpt>
      <trkpt lat="43.90541" lon="7.53237">
        <ele>468.78</ele>
        <time>2014-11-01T12:11:37Z</time>
      </trkpt>
      <trkpt lat="43.90543" lon="7.53225">
        <ele>469.26</ele>
        <time>2014-11-01T12:11:46Z</time>
      </trkpt>
      <trkpt lat="43.90538" lon="7.53204">
        <ele>471.18</ele>
        <time>2014-11-01T12:12:00Z</time>
      </trkpt>
      <trkpt lat="43.90537" lon="7.53202">
        <ele>471.18</ele>
        <time>2014-11-01T12:12:02Z</time>
      </trkpt>
      <trkpt lat="43.90537" lon="7.53199">
        <ele>471.18</ele>
        <time>2014-11-01T12:12:04Z</time>
      </trkpt>
      <trkpt lat="43.90537" lon="7.53187">
        <ele>472.63</ele>
        <time>2014-11-01T12:12:12Z</time>
      </trkpt>
      <trkpt lat="43.90538" lon="7.53177">
        <ele>473.59</ele>
        <time>2014-11-01T12:12:18Z</time>
      </trkpt>
      <trkpt lat="43.90542" lon="7.53151">
        <ele>474.07</ele>
        <time>2014-11-01T12:12:36Z</time>
      </trkpt>
      <trkpt lat="43.90548" lon="7.53147">
        <ele>474.07</ele>
        <time>2014-11-01T12:12:45Z</time>
      </trkpt>
      <trkpt lat="43.90551" lon="7.53147">
        <ele>474.55</ele>
        <time>2014-11-01T12:12:48Z</time>
      </trkpt>
      <trkpt lat="43.90553" lon="7.53146">
        <ele>474.55</ele>
        <time>2014-11-01T12:12:50Z</time>
      </trkpt>
      <trkpt lat="43.9057" lon="7.53141">
        <ele>475.51</ele>
        <time>2014-11-01T12:13:07Z</time>
      </trkpt>
      <trkpt lat="43.90577" lon="7.5313">
        <ele>474.55</ele>
        <time>2014-11-01T12:13:16Z</time>
      </trkpt>
      <trkpt lat="43.90583" lon="7.53105">
        <ele>471.18</ele>
        <time>2014-11-01T12:13:34Z</time>
      </trkpt>
      <trkpt lat="43.90589" lon="7.53102">
        <ele>473.59</ele>
        <time>2014-11-01T12:13:51Z</time>
      </trkpt>
      <trkpt lat="43.90596" lon="7.5311">
        <ele>475.03</ele>
        <time>2014-11-01T12:14:01Z</time>
      </trkpt>
      <trkpt lat="43.9061" lon="7.53109">
        <ele>475.51</ele>
        <time>2014-11-01T12:14:18Z</time>
      </trkpt>
      <trkpt lat="43.90627" lon="7.53115">
        <ele>474.55</ele>
        <time>2014-11-01T12:14:33Z</time>
      </trkpt>
      <trkpt lat="43.90644" lon="7.53126">
        <ele>472.63</ele>
        <time>2014-11-01T12:14:51Z</time>
      </trkpt>
      <trkpt lat="43.90665" lon="7.53132">
        <ele>470.22</ele>
        <time>2014-11-01T12:15:10Z</time>
      </trkpt>
      <trkpt lat="43.90672" lon="7.53133">
        <ele>468.78</ele>
        <time>2014-11-01T12:15:27Z</time>
      </trkpt>
      <trkpt lat="43.90675" lon="7.53134">
        <ele>467.82</ele>
        <time>2014-11-01T12:15:54Z</time>
      </trkpt>
      <trkpt lat="43.90696" lon="7.53138">
        <ele>467.82</ele>
        <time>2014-11-01T12:16:13Z</time>
      </trkpt>
      <trkpt lat="43.907" lon="7.53138">
        <ele>468.3</ele>
        <time>2014-11-01T12:16:17Z</time>
      </trkpt>
      <trkpt lat="43.9071" lon="7.53136">
        <ele>467.82</ele>
        <time>2014-11-01T12:16:25Z</time>
      </trkpt>
      <trkpt lat="43.90716" lon="7.53138">
        <ele>466.86</ele>
        <time>2014-11-01T12:16:30Z</time>
      </trkpt>
      <trkpt lat="43.90721" lon="7.53137">
        <ele>465.9</ele>
        <time>2014-11-01T12:16:34Z</time>
      </trkpt>
      <trkpt lat="43.90738" lon="7.53132">
        <ele>464.45</ele>
        <time>2014-11-01T12:16:49Z</time>
      </trkpt>
      <trkpt lat="43.90751" lon="7.53119">
        <ele>464.93</ele>
        <time>2014-11-01T12:17:03Z</time>
      </trkpt>
      <trkpt lat="43.90753" lon="7.53119">
        <ele>463.97</ele>
        <time>2014-11-01T12:17:08Z</time>
      </trkpt>
      <trkpt lat="43.90759" lon="7.53119">
        <ele>464.45</ele>
        <time>2014-11-01T12:17:13Z</time>
      </trkpt>
      <trkpt lat="43.9078" lon="7.53111">
        <ele>462.53</ele>
        <time>2014-11-01T12:17:30Z</time>
      </trkpt>
      <trkpt lat="43.90787" lon="7.53111">
        <ele>462.05</ele>
        <time>2014-11-01T12:17:36Z</time>
      </trkpt>
      <trkpt lat="43.90808" lon="7.53105">
        <ele>459.17</ele>
        <time>2014-11-01T12:17:53Z</time>
      </trkpt>
      <trkpt lat="43.9081" lon="7.53105">
        <ele>459.17</ele>
        <time>2014-11-01T12:17:55Z</time>
      </trkpt>
      <trkpt lat="43.90813" lon="7.53103">
        <ele>458.21</ele>
        <time>2014-11-01T12:18:00Z</time>
      </trkpt>
      <trkpt lat="43.9082" lon="7.53101">
        <ele>457.72</ele>
        <time>2014-11-01T12:18:07Z</time>
      </trkpt>
      <trkpt lat="43.90829" lon="7.53096">
        <ele>456.76</ele>
        <time>2014-11-01T12:18:16Z</time>
      </trkpt>
      <trkpt lat="43.90838" lon="7.53085">
        <ele>454.84</ele>
        <time>2014-11-01T12:18:26Z</time>
      </trkpt>
      <trkpt lat="43.9085" lon="7.53079">
        <ele>451.96</ele>
        <time>2014-11-01T12:18:38Z</time>
      </trkpt>
      <trkpt lat="43.90853" lon="7.53077">
        <ele>451.48</ele>
        <time>2014-11-01T12:18:41Z</time>
      </trkpt>
      <trkpt lat="43.90872" lon="7.53069">
        <ele>451</ele>
        <time>2014-11-01T12:18:59Z</time>
      </trkpt>
      <trkpt lat="43.90877" lon="7.53062">
        <ele>449.55</ele>
        <time>2014-11-01T12:19:06Z</time>
      </trkpt>
      <trkpt lat="43.90879" lon="7.53058">
        <ele>449.07</ele>
        <time>2014-11-01T12:19:09Z</time>
      </trkpt>
      <trkpt lat="43.90882" lon="7.53043">
        <ele>447.15</ele>
        <time>2014-11-01T12:19:20Z</time>
      </trkpt>
      <trkpt lat="43.90887" lon="7.53036">
        <ele>446.67</ele>
        <time>2014-11-01T12:19:26Z</time>
      </trkpt>
      <trkpt lat="43.90889" lon="7.53034">
        <ele>446.19</ele>
        <time>2014-11-01T12:19:28Z</time>
      </trkpt>
      <trkpt lat="43.90895" lon="7.53025">
        <ele>446.19</ele>
        <time>2014-11-01T12:19:36Z</time>
      </trkpt>
      <trkpt lat="43.90906" lon="7.53014">
        <ele>445.23</ele>
        <time>2014-11-01T12:19:49Z</time>
      </trkpt>
      <trkpt lat="43.90914" lon="7.53001">
        <ele>446.19</ele>
        <time>2014-11-01T12:19:59Z</time>
      </trkpt>
      <trkpt lat="43.90916" lon="7.52997">
        <ele>446.67</ele>
        <time>2014-11-01T12:20:02Z</time>
      </trkpt>
      <trkpt lat="43.90917" lon="7.52998">
        <ele>446.19</ele>
        <time>2014-11-01T12:20:26Z</time>
      </trkpt>
      <trkpt lat="43.9092" lon="7.53001">
        <ele>445.71</ele>
        <time>2014-11-01T12:20:29Z</time>
      </trkpt>
      <trkpt lat="43.90937" lon="7.52993">
        <ele>443.79</ele>
        <time>2014-11-01T12:20:45Z</time>
      </trkpt>
      <trkpt lat="43.90949" lon="7.52979">
        <ele>441.86</ele>
        <time>2014-11-01T12:21:00Z</time>
      </trkpt>
      <trkpt lat="43.90951" lon="7.52976">
        <ele>441.86</ele>
        <time>2014-11-01T12:21:03Z</time>
      </trkpt>
      <trkpt lat="43.90953" lon="7.52974">
        <ele>441.86</ele>
        <time>2014-11-01T12:21:05Z</time>
      </trkpt>
      <trkpt lat="43.90955" lon="7.52959">
        <ele>442.34</ele>
        <time>2014-11-01T12:21:17Z</time>
      </trkpt>
      <trkpt lat="43.90955" lon="7.52939">
        <ele>442.82</ele>
        <time>2014-11-01T12:21:32Z</time>
      </trkpt>
      <trkpt lat="43.90959" lon="7.5292">
        <ele>445.71</ele>
        <time>2014-11-01T12:21:51Z</time>
      </trkpt>
      <trkpt lat="43.90964" lon="7.52911">
        <ele>446.67</ele>
        <time>2014-11-01T12:21:57Z</time>
      </trkpt>
      <trkpt lat="43.90978" lon="7.52887">
        <ele>445.23</ele>
        <time>2014-11-01T12:22:15Z</time>
      </trkpt>
      <trkpt lat="43.90982" lon="7.52878">
        <ele>444.75</ele>
        <time>2014-11-01T12:22:22Z</time>
      </trkpt>
      <trkpt lat="43.90987" lon="7.52873">
        <ele>445.23</ele>
        <time>2014-11-01T12:22:27Z</time>
      </trkpt>
      <trkpt lat="43.91" lon="7.52871">
        <ele>441.86</ele>
        <time>2014-11-01T12:22:38Z</time>
      </trkpt>
      <trkpt lat="43.91002" lon="7.52869">
        <ele>441.86</ele>
        <time>2014-11-01T12:22:40Z</time>
      </trkpt>
      <trkpt lat="43.91007" lon="7.52867">
        <ele>441.38</ele>
        <time>2014-11-01T12:22:44Z</time>
      </trkpt>
      <trkpt lat="43.91016" lon="7.52864">
        <ele>441.86</ele>
        <time>2014-11-01T12:22:54Z</time>
      </trkpt>
      <trkpt lat="43.91026" lon="7.52863">
        <ele>442.34</ele>
        <time>2014-11-01T12:23:02Z</time>
      </trkpt>
      <trkpt lat="43.9103" lon="7.52862">
        <ele>442.82</ele>
        <time>2014-11-01T12:23:06Z</time>
      </trkpt>
      <trkpt lat="43.91038" lon="7.52861">
        <ele>443.31</ele>
        <time>2014-11-01T12:23:12Z</time>
      </trkpt>
      <trkpt lat="43.91041" lon="7.5286">
        <ele>443.31</ele>
        <time>2014-11-01T12:23:15Z</time>
      </trkpt>
      <trkpt lat="43.91048" lon="7.52856">
        <ele>443.79</ele>
        <time>2014-11-01T12:23:22Z</time>
      </trkpt>
      <trkpt lat="43.91062" lon="7.52852">
        <ele>444.27</ele>
        <time>2014-11-01T12:23:38Z</time>
      </trkpt>
      <trkpt lat="43.91067" lon="7.5285">
        <ele>444.27</ele>
        <time>2014-11-01T12:23:42Z</time>
      </trkpt>
      <trkpt lat="43.91071" lon="7.52847">
        <ele>444.27</ele>
        <time>2014-11-01T12:23:46Z</time>
      </trkpt>
      <trkpt lat="43.91088" lon="7.5284">
        <ele>444.75</ele>
        <time>2014-11-01T12:24:01Z</time>
      </trkpt>
      <trkpt lat="43.91098" lon="7.52833">
        <ele>445.23</ele>
        <time>2014-11-01T12:24:12Z</time>
      </trkpt>
      <trkpt lat="43.91109" lon="7.52821">
        <ele>446.67</ele>
        <time>2014-11-01T12:24:24Z</time>
      </trkpt>
      <trkpt lat="43.91114" lon="7.52818">
        <ele>446.19</ele>
        <time>2014-11-01T12:24:29Z</time>
      </trkpt>
      <trkpt lat="43.91129" lon="7.52811">
        <ele>443.79</ele>
        <time>2014-11-01T12:24:44Z</time>
      </trkpt>
      <trkpt lat="43.91133" lon="7.52809">
        <ele>443.79</ele>
        <time>2014-11-01T12:24:48Z</time>
      </trkpt>
      <trkpt lat="43.91137" lon="7.52806">
        <ele>445.23</ele>
        <time>2014-11-01T12:24:53Z</time>
      </trkpt>
      <trkpt lat="43.91139" lon="7.52806">
        <ele>445.23</ele>
        <time>2014-11-01T12:24:55Z</time>
      </trkpt>
      <trkpt lat="43.91144" lon="7.52799">
        <ele>445.23</ele>
        <time>2014-11-01T12:25:01Z</time>
      </trkpt>
      <trkpt lat="43.91153" lon="7.52796">
        <ele>446.67</ele>
        <time>2014-11-01T12:25:13Z</time>
      </trkpt>
      <trkpt lat="43.91166" lon="7.52789">
        <ele>447.63</ele>
        <time>2014-11-01T12:25:27Z</time>
      </trkpt>
      <trkpt lat="43.91168" lon="7.52786">
        <ele>448.11</ele>
        <time>2014-11-01T12:25:31Z</time>
      </trkpt>
      <trkpt lat="43.9117" lon="7.52785">
        <ele>448.11</ele>
        <time>2014-11-01T12:25:33Z</time>
      </trkpt>
      <trkpt lat="43.91177" lon="7.52781">
        <ele>446.67</ele>
        <time>2014-11-01T12:25:42Z</time>
      </trkpt>
      <trkpt lat="43.91183" lon="7.52777">
        <ele>445.71</ele>
        <time>2014-11-01T12:25:48Z</time>
      </trkpt>
      <trkpt lat="43.91191" lon="7.52765">
        <ele>450.03</ele>
        <time>2014-11-01T12:26:01Z</time>
      </trkpt>
      <trkpt lat="43.91199" lon="7.52761">
        <ele>452.44</ele>
        <time>2014-11-01T12:26:08Z</time>
      </trkpt>
      <trkpt lat="43.91213" lon="7.52747">
        <ele>457.24</ele>
        <time>2014-11-01T12:26:25Z</time>
      </trkpt>
      <trkpt lat="43.91226" lon="7.52745">
        <ele>457.24</ele>
        <time>2014-11-01T12:26:39Z</time>
      </trkpt>
      <trkpt lat="43.91239" lon="7.52752">
        <ele>457.24</ele>
        <time>2014-11-01T12:26:53Z</time>
      </trkpt>
      <trkpt lat="43.91247" lon="7.5276">
        <ele>457.24</ele>
        <time>2014-11-01T12:27:01Z</time>
      </trkpt>
      <trkpt lat="43.91248" lon="7.52764">
        <ele>457.24</ele>
        <time>2014-11-01T12:27:03Z</time>
      </trkpt>
      <trkpt lat="43.91257" lon="7.52777">
        <ele>455.8</ele>
        <time>2014-11-01T12:27:16Z</time>
      </trkpt>
      <trkpt lat="43.91262" lon="7.5278">
        <ele>453.88</ele>
        <time>2014-11-01T12:27:21Z</time>
      </trkpt>
      <trkpt lat="43.91269" lon="7.52785">
        <ele>454.36</ele>
        <time>2014-11-01T12:27:27Z</time>
      </trkpt>
      <trkpt lat="43.91275" lon="7.52794">
        <ele>453.88</ele>
        <time>2014-11-01T12:27:38Z</time>
      </trkpt>
      <trkpt lat="43.91284" lon="7.52803">
        <ele>451.96</ele>
        <time>2014-11-01T12:27:53Z</time>
      </trkpt>
      <trkpt lat="43.91286" lon="7.52806">
        <ele>451</ele>
        <time>2014-11-01T12:27:58Z</time>
      </trkpt>
      <trkpt lat="43.9129" lon="7.52807">
        <ele>447.63</ele>
        <time>2014-11-01T12:28:03Z</time>
      </trkpt>
      <trkpt lat="43.91292" lon="7.52804">
        <ele>446.67</ele>
        <time>2014-11-01T12:28:05Z</time>
      </trkpt>
      <trkpt lat="43.91292" lon="7.528">
        <ele>446.67</ele>
        <time>2014-11-01T12:28:09Z</time>
      </trkpt>
      <trkpt lat="43.91293" lon="7.52791">
        <ele>448.11</ele>
        <time>2014-11-01T12:28:23Z</time>
      </trkpt>
      <trkpt lat="43.91288" lon="7.52777">
        <ele>448.59</ele>
        <time>2014-11-01T12:28:37Z</time>
      </trkpt>
      <trkpt lat="43.91292" lon="7.52769">
        <ele>450.03</ele>
        <time>2014-11-01T12:28:44Z</time>
      </trkpt>
      <trkpt lat="43.91298" lon="7.52765">
        <ele>451.48</ele>
        <time>2014-11-01T12:28:59Z</time>
      </trkpt>
      <trkpt lat="43.91306" lon="7.52759">
        <ele>451.48</ele>
        <time>2014-11-01T12:29:13Z</time>
      </trkpt>
      <trkpt lat="43.91304" lon="7.52747">
        <ele>452.92</ele>
        <time>2014-11-01T12:29:31Z</time>
      </trkpt>
      <trkpt lat="43.913" lon="7.52733">
        <ele>456.28</ele>
        <time>2014-11-01T12:29:43Z</time>
      </trkpt>
      <trkpt lat="43.91293" lon="7.52716">
        <ele>456.76</ele>
        <time>2014-11-01T12:30:00Z</time>
      </trkpt>
      <trkpt lat="43.91295" lon="7.52705">
        <ele>457.24</ele>
        <time>2014-11-01T12:30:09Z</time>
      </trkpt>
      <trkpt lat="43.91288" lon="7.52699">
        <ele>456.28</ele>
        <time>2014-11-01T12:30:23Z</time>
      </trkpt>
      <trkpt lat="43.91279" lon="7.52692">
        <ele>454.36</ele>
        <time>2014-11-01T12:30:36Z</time>
      </trkpt>
      <trkpt lat="43.91275" lon="7.52688">
        <ele>453.4</ele>
        <time>2014-11-01T12:30:41Z</time>
      </trkpt>
      <trkpt lat="43.91273" lon="7.52675">
        <ele>454.36</ele>
        <time>2014-11-01T12:30:51Z</time>
      </trkpt>
      <trkpt lat="43.91267" lon="7.52667">
        <ele>453.4</ele>
        <time>2014-11-01T12:31:01Z</time>
      </trkpt>
      <trkpt lat="43.91261" lon="7.52665">
        <ele>452.92</ele>
        <time>2014-11-01T12:31:06Z</time>
      </trkpt>
      <trkpt lat="43.91249" lon="7.52652">
        <ele>452.92</ele>
        <time>2014-11-01T12:31:22Z</time>
      </trkpt>
      <trkpt lat="43.91235" lon="7.52636">
        <ele>448.11</ele>
        <time>2014-11-01T12:31:38Z</time>
      </trkpt>
      <trkpt lat="43.91232" lon="7.5263">
        <ele>446.67</ele>
        <time>2014-11-01T12:31:42Z</time>
      </trkpt>
      <trkpt lat="43.91227" lon="7.52611">
        <ele>441.38</ele>
        <time>2014-11-01T12:31:57Z</time>
      </trkpt>
      <trkpt lat="43.91226" lon="7.52609">
        <ele>440.9</ele>
        <time>2014-11-01T12:31:59Z</time>
      </trkpt>
      <trkpt lat="43.91215" lon="7.52589">
        <ele>438.5</ele>
        <time>2014-11-01T12:32:15Z</time>
      </trkpt>
      <trkpt lat="43.91215" lon="7.52582">
        <ele>438.5</ele>
        <time>2014-11-01T12:32:20Z</time>
      </trkpt>
      <trkpt lat="43.91202" lon="7.52558">
        <ele>439.94</ele>
        <time>2014-11-01T12:32:38Z</time>
      </trkpt>
      <trkpt lat="43.91199" lon="7.52551">
        <ele>440.9</ele>
        <time>2014-11-01T12:32:45Z</time>
      </trkpt>
      <trkpt lat="43.9119" lon="7.52536">
        <ele>443.79</ele>
        <time>2014-11-01T12:33:01Z</time>
      </trkpt>
      <trkpt lat="43.91192" lon="7.52519">
        <ele>449.07</ele>
        <time>2014-11-01T12:33:19Z</time>
      </trkpt>
      <trkpt lat="43.91188" lon="7.52509">
        <ele>450.03</ele>
        <time>2014-11-01T12:33:34Z</time>
      </trkpt>
      <trkpt lat="43.91192" lon="7.52494">
        <ele>453.4</ele>
        <time>2014-11-01T12:33:52Z</time>
      </trkpt>
      <trkpt lat="43.91194" lon="7.52484">
        <ele>455.8</ele>
        <time>2014-11-01T12:34:07Z</time>
      </trkpt>
      <trkpt lat="43.91199" lon="7.52474">
        <ele>458.21</ele>
        <time>2014-11-01T12:34:23Z</time>
      </trkpt>
      <trkpt lat="43.912" lon="7.52468">
        <ele>457.72</ele>
        <time>2014-11-01T12:34:36Z</time>
      </trkpt>
      <trkpt lat="43.912" lon="7.52459">
        <ele>461.57</ele>
        <time>2014-11-01T12:34:50Z</time>
      </trkpt>
      <trkpt lat="43.91205" lon="7.52446">
        <ele>463.49</ele>
        <time>2014-11-01T12:35:04Z</time>
      </trkpt>
      <trkpt lat="43.9121" lon="7.52438">
        <ele>465.9</ele>
        <time>2014-11-01T12:35:15Z</time>
      </trkpt>
      <trkpt lat="43.91216" lon="7.52435">
        <ele>466.86</ele>
        <time>2014-11-01T12:35:23Z</time>
      </trkpt>
      <trkpt lat="43.91222" lon="7.52428">
        <ele>467.34</ele>
        <time>2014-11-01T12:35:37Z</time>
      </trkpt>
      <trkpt lat="43.91224" lon="7.52419">
        <ele>468.3</ele>
        <time>2014-11-01T12:35:52Z</time>
      </trkpt>
      <trkpt lat="43.91224" lon="7.52418">
        <ele>468.3</ele>
        <time>2014-11-01T12:35:53Z</time>
      </trkpt>
      <trkpt lat="43.91225" lon="7.52403">
        <ele>469.26</ele>
        <time>2014-11-01T12:36:08Z</time>
      </trkpt>
      <trkpt lat="43.91226" lon="7.52395">
        <ele>471.18</ele>
        <time>2014-11-01T12:36:21Z</time>
      </trkpt>
      <trkpt lat="43.91227" lon="7.52384">
        <ele>473.11</ele>
        <time>2014-11-01T12:36:36Z</time>
      </trkpt>
      <trkpt lat="43.91229" lon="7.52372">
        <ele>476.47</ele>
        <time>2014-11-01T12:36:53Z</time>
      </trkpt>
      <trkpt lat="43.91232" lon="7.52365">
        <ele>476.95</ele>
        <time>2014-11-01T12:37:07Z</time>
      </trkpt>
      <trkpt lat="43.91235" lon="7.52365">
        <ele>476.95</ele>
        <time>2014-11-01T12:37:24Z</time>
      </trkpt>
      <trkpt lat="43.91235" lon="7.52364">
        <ele>476.47</ele>
        <time>2014-11-01T12:37:41Z</time>
      </trkpt>
      <trkpt lat="43.91235" lon="7.52364">
        <ele>475.99</ele>
        <time>2014-11-01T12:38:16Z</time>
      </trkpt>
      <trkpt lat="43.91235" lon="7.52364">
        <ele>475.99</ele>
        <time>2014-11-01T12:39:18Z</time>
      </trkpt>
      <trkpt lat="43.91235" lon="7.52364">
        <ele>475.99</ele>
        <time>2014-11-01T12:40:49Z</time>
      </trkpt>
      <trkpt lat="43.91235" lon="7.52364">
        <ele>475.99</ele>
        <time>2014-11-01T12:41:26Z</time>
      </trkpt>
      <trkpt lat="43.91236" lon="7.52365">
        <ele>474.55</ele>
        <time>2014-11-01T12:41:39Z</time>
      </trkpt>
      <trkpt lat="43.91236" lon="7.52365">
        <ele>475.03</ele>
        <time>2014-11-01T12:42:11Z</time>
      </trkpt>
      <trkpt lat="43.91237" lon="7.52365">
        <ele>473.59</ele>
        <time>2014-11-01T12:42:28Z</time>
      </trkpt>
      <trkpt lat="43.9124" lon="7.52364">
        <ele>473.11</ele>
        <time>2014-11-01T12:42:42Z</time>
      </trkpt>
      <trkpt lat="43.91246" lon="7.52359">
        <ele>471.18</ele>
        <time>2014-11-01T12:42:58Z</time>
      </trkpt>
      <trkpt lat="43.91241" lon="7.52356">
        <ele>466.86</ele>
        <time>2014-11-01T12:43:13Z</time>
      </trkpt>
      <trkpt lat="43.91232" lon="7.52345">
        <ele>464.93</ele>
        <time>2014-11-01T12:43:29Z</time>
      </trkpt>
      <trkpt lat="43.91235" lon="7.5234">
        <ele>464.93</ele>
        <time>2014-11-01T12:43:41Z</time>
      </trkpt>
      <trkpt lat="43.91242" lon="7.5234">
        <ele>464.45</ele>
        <time>2014-11-01T12:43:56Z</time>
      </trkpt>
      <trkpt lat="43.91249" lon="7.5234">
        <ele>463.01</ele>
        <time>2014-11-01T12:44:07Z</time>
      </trkpt>
      <trkpt lat="43.91254" lon="7.5234">
        <ele>462.53</ele>
        <time>2014-11-01T12:44:13Z</time>
      </trkpt>
      <trkpt lat="43.91258" lon="7.5233">
        <ele>458.69</ele>
        <time>2014-11-01T12:44:28Z</time>
      </trkpt>
      <trkpt lat="43.91262" lon="7.52322">
        <ele>455.8</ele>
        <time>2014-11-01T12:44:42Z</time>
      </trkpt>
      <trkpt lat="43.91262" lon="7.5232">
        <ele>455.8</ele>
        <time>2014-11-01T12:44:44Z</time>
      </trkpt>
      <trkpt lat="43.91263" lon="7.52313">
        <ele>453.4</ele>
        <time>2014-11-01T12:44:51Z</time>
      </trkpt>
      <trkpt lat="43.91264" lon="7.52296">
        <ele>452.44</ele>
        <time>2014-11-01T12:45:05Z</time>
      </trkpt>
      <trkpt lat="43.91267" lon="7.52278">
        <ele>452.44</ele>
        <time>2014-11-01T12:45:19Z</time>
      </trkpt>
      <trkpt lat="43.9127" lon="7.52262">
        <ele>451.48</ele>
        <time>2014-11-01T12:45:33Z</time>
      </trkpt>
      <trkpt lat="43.91275" lon="7.52257">
        <ele>452.44</ele>
        <time>2014-11-01T12:45:42Z</time>
      </trkpt>
      <trkpt lat="43.91277" lon="7.52252">
        <ele>452.44</ele>
        <time>2014-11-01T12:45:47Z</time>
      </trkpt>
      <trkpt lat="43.91278" lon="7.52249">
        <ele>452.44</ele>
        <time>2014-11-01T12:45:49Z</time>
      </trkpt>
      <trkpt lat="43.91279" lon="7.52244">
        <ele>452.44</ele>
        <time>2014-11-01T12:45:53Z</time>
      </trkpt>
      <trkpt lat="43.91287" lon="7.52235">
        <ele>452.92</ele>
        <time>2014-11-01T12:46:04Z</time>
      </trkpt>
      <trkpt lat="43.91289" lon="7.5223">
        <ele>452.44</ele>
        <time>2014-11-01T12:46:08Z</time>
      </trkpt>
      <trkpt lat="43.91293" lon="7.52228">
        <ele>451.96</ele>
        <time>2014-11-01T12:46:13Z</time>
      </trkpt>
      <trkpt lat="43.91304" lon="7.52217">
        <ele>451.96</ele>
        <time>2014-11-01T12:46:28Z</time>
      </trkpt>
      <trkpt lat="43.91305" lon="7.52215">
        <ele>451.96</ele>
        <time>2014-11-01T12:46:30Z</time>
      </trkpt>
      <trkpt lat="43.9131" lon="7.52209">
        <ele>451.96</ele>
        <time>2014-11-01T12:46:36Z</time>
      </trkpt>
      <trkpt lat="43.91311" lon="7.52207">
        <ele>451.96</ele>
        <time>2014-11-01T12:46:38Z</time>
      </trkpt>
      <trkpt lat="43.91315" lon="7.52204">
        <ele>452.44</ele>
        <time>2014-11-01T12:46:42Z</time>
      </trkpt>
      <trkpt lat="43.91327" lon="7.52195">
        <ele>453.4</ele>
        <time>2014-11-01T12:46:58Z</time>
      </trkpt>
      <trkpt lat="43.91342" lon="7.522">
        <ele>454.84</ele>
        <time>2014-11-01T12:47:14Z</time>
      </trkpt>
      <trkpt lat="43.91355" lon="7.52208">
        <ele>452.44</ele>
        <time>2014-11-01T12:47:28Z</time>
      </trkpt>
      <trkpt lat="43.91365" lon="7.5221">
        <ele>451.96</ele>
        <time>2014-11-01T12:47:38Z</time>
      </trkpt>
      <trkpt lat="43.91371" lon="7.52211">
        <ele>451</ele>
        <time>2014-11-01T12:47:47Z</time>
      </trkpt>
      <trkpt lat="43.91387" lon="7.52216">
        <ele>446.67</ele>
        <time>2014-11-01T12:48:03Z</time>
      </trkpt>
      <trkpt lat="43.91396" lon="7.52218">
        <ele>444.75</ele>
        <time>2014-11-01T12:48:13Z</time>
      </trkpt>
      <trkpt lat="43.91401" lon="7.52219">
        <ele>445.23</ele>
        <time>2014-11-01T12:48:18Z</time>
      </trkpt>
      <trkpt lat="43.91406" lon="7.52219">
        <ele>444.27</ele>
        <time>2014-11-01T12:48:23Z</time>
      </trkpt>
      <trkpt lat="43.91419" lon="7.5222">
        <ele>441.86</ele>
        <time>2014-11-01T12:48:36Z</time>
      </trkpt>
      <trkpt lat="43.91422" lon="7.52219">
        <ele>442.34</ele>
        <time>2014-11-01T12:48:39Z</time>
      </trkpt>
      <trkpt lat="43.91439" lon="7.52215">
        <ele>442.34</ele>
        <time>2014-11-01T12:48:55Z</time>
      </trkpt>
      <trkpt lat="43.91456" lon="7.52216">
        <ele>441.86</ele>
        <time>2014-11-01T12:49:10Z</time>
      </trkpt>
      <trkpt lat="43.91461" lon="7.52216">
        <ele>441.38</ele>
        <time>2014-11-01T12:49:14Z</time>
      </trkpt>
      <trkpt lat="43.91465" lon="7.52217">
        <ele>441.86</ele>
        <time>2014-11-01T12:49:17Z</time>
      </trkpt>
      <trkpt lat="43.91468" lon="7.52215">
        <ele>442.34</ele>
        <time>2014-11-01T12:49:20Z</time>
      </trkpt>
      <trkpt lat="43.91474" lon="7.52213">
        <ele>442.34</ele>
        <time>2014-11-01T12:49:26Z</time>
      </trkpt>
      <trkpt lat="43.9148" lon="7.52212">
        <ele>442.34</ele>
        <time>2014-11-01T12:49:32Z</time>
      </trkpt>
      <trkpt lat="43.91485" lon="7.5221">
        <ele>442.34</ele>
        <time>2014-11-01T12:49:37Z</time>
      </trkpt>
      <trkpt lat="43.91489" lon="7.5221">
        <ele>442.34</ele>
        <time>2014-11-01T12:49:40Z</time>
      </trkpt>
      <trkpt lat="43.91504" lon="7.52204">
        <ele>440.9</ele>
        <time>2014-11-01T12:49:55Z</time>
      </trkpt>
      <trkpt lat="43.91507" lon="7.52204">
        <ele>440.42</ele>
        <time>2014-11-01T12:49:58Z</time>
      </trkpt>
      <trkpt lat="43.91514" lon="7.52201">
        <ele>439.46</ele>
        <time>2014-11-01T12:50:05Z</time>
      </trkpt>
      <trkpt lat="43.9152" lon="7.522">
        <ele>439.46</ele>
        <time>2014-11-01T12:50:10Z</time>
      </trkpt>
      <trkpt lat="43.91523" lon="7.52201">
        <ele>439.46</ele>
        <time>2014-11-01T12:50:13Z</time>
      </trkpt>
      <trkpt lat="43.91534" lon="7.52198">
        <ele>437.54</ele>
        <time>2014-11-01T12:50:24Z</time>
      </trkpt>
      <trkpt lat="43.91539" lon="7.52194">
        <ele>437.54</ele>
        <time>2014-11-01T12:50:29Z</time>
      </trkpt>
      <trkpt lat="43.91542" lon="7.52191">
        <ele>437.06</ele>
        <time>2014-11-01T12:50:32Z</time>
      </trkpt>
      <trkpt lat="43.91553" lon="7.52184">
        <ele>436.58</ele>
        <time>2014-11-01T12:50:43Z</time>
      </trkpt>
      <trkpt lat="43.91558" lon="7.52182">
        <ele>435.61</ele>
        <time>2014-11-01T12:50:48Z</time>
      </trkpt>
      <trkpt lat="43.91572" lon="7.52178">
        <ele>435.13</ele>
        <time>2014-11-01T12:51:00Z</time>
      </trkpt>
      <trkpt lat="43.91576" lon="7.52177">
        <ele>434.17</ele>
        <time>2014-11-01T12:51:04Z</time>
      </trkpt>
      <trkpt lat="43.91583" lon="7.52179">
        <ele>432.73</ele>
        <time>2014-11-01T12:51:11Z</time>
      </trkpt>
      <trkpt lat="43.91587" lon="7.52178">
        <ele>431.77</ele>
        <time>2014-11-01T12:51:15Z</time>
      </trkpt>
      <trkpt lat="43.9159" lon="7.52177">
        <ele>431.77</ele>
        <time>2014-11-01T12:51:18Z</time>
      </trkpt>
      <trkpt lat="43.91604" lon="7.52171">
        <ele>431.29</ele>
        <time>2014-11-01T12:51:32Z</time>
      </trkpt>
      <trkpt lat="43.91616" lon="7.52165">
        <ele>430.33</ele>
        <time>2014-11-01T12:51:45Z</time>
      </trkpt>
      <trkpt lat="43.91629" lon="7.5216">
        <ele>430.33</ele>
        <time>2014-11-01T12:51:59Z</time>
      </trkpt>
      <trkpt lat="43.91633" lon="7.52157">
        <ele>429.85</ele>
        <time>2014-11-01T12:52:03Z</time>
      </trkpt>
      <trkpt lat="43.91635" lon="7.52156">
        <ele>429.37</ele>
        <time>2014-11-01T12:52:05Z</time>
      </trkpt>
      <trkpt lat="43.91645" lon="7.52155">
        <ele>427.44</ele>
        <time>2014-11-01T12:52:18Z</time>
      </trkpt>
      <trkpt lat="43.91647" lon="7.52155">
        <ele>426.96</ele>
        <time>2014-11-01T12:52:20Z</time>
      </trkpt>
      <trkpt lat="43.91659" lon="7.52155">
        <ele>426</ele>
        <time>2014-11-01T12:52:32Z</time>
      </trkpt>
      <trkpt lat="43.91662" lon="7.52155">
        <ele>425.52</ele>
        <time>2014-11-01T12:52:35Z</time>
      </trkpt>
      <trkpt lat="43.91664" lon="7.52153">
        <ele>425.52</ele>
        <time>2014-11-01T12:52:37Z</time>
      </trkpt>
      <trkpt lat="43.9168" lon="7.52157">
        <ele>424.56</ele>
        <time>2014-11-01T12:52:52Z</time>
      </trkpt>
      <trkpt lat="43.91681" lon="7.52157">
        <ele>424.56</ele>
        <time>2014-11-01T12:52:54Z</time>
      </trkpt>
      <trkpt lat="43.9169" lon="7.52153">
        <ele>423.6</ele>
        <time>2014-11-01T12:53:03Z</time>
      </trkpt>
      <trkpt lat="43.91701" lon="7.52153">
        <ele>421.19</ele>
        <time>2014-11-01T12:53:13Z</time>
      </trkpt>
      <trkpt lat="43.91707" lon="7.52155">
        <ele>421.68</ele>
        <time>2014-11-01T12:53:18Z</time>
      </trkpt>
      <trkpt lat="43.91711" lon="7.52155">
        <ele>421.68</ele>
        <time>2014-11-01T12:53:23Z</time>
      </trkpt>
      <trkpt lat="43.91724" lon="7.52149">
        <ele>420.71</ele>
        <time>2014-11-01T12:53:37Z</time>
      </trkpt>
      <trkpt lat="43.9174" lon="7.52148">
        <ele>420.71</ele>
        <time>2014-11-01T12:53:50Z</time>
      </trkpt>
      <trkpt lat="43.91751" lon="7.52142">
        <ele>420.23</ele>
        <time>2014-11-01T12:54:02Z</time>
      </trkpt>
      <trkpt lat="43.91754" lon="7.52142">
        <ele>420.23</ele>
        <time>2014-11-01T12:54:05Z</time>
      </trkpt>
      <trkpt lat="43.91764" lon="7.52135">
        <ele>418.31</ele>
        <time>2014-11-01T12:54:18Z</time>
      </trkpt>
      <trkpt lat="43.91765" lon="7.52135">
        <ele>418.31</ele>
        <time>2014-11-01T12:54:19Z</time>
      </trkpt>
      <trkpt lat="43.91768" lon="7.52134">
        <ele>417.83</ele>
        <time>2014-11-01T12:54:22Z</time>
      </trkpt>
      <trkpt lat="43.91774" lon="7.52131">
        <ele>416.87</ele>
        <time>2014-11-01T12:54:28Z</time>
      </trkpt>
      <trkpt lat="43.91779" lon="7.52132">
        <ele>416.39</ele>
        <time>2014-11-01T12:54:32Z</time>
      </trkpt>
      <trkpt lat="43.91787" lon="7.5213">
        <ele>414.95</ele>
        <time>2014-11-01T12:54:40Z</time>
      </trkpt>
      <trkpt lat="43.91795" lon="7.52126">
        <ele>414.47</ele>
        <time>2014-11-01T12:54:47Z</time>
      </trkpt>
      <trkpt lat="43.91796" lon="7.52125">
        <ele>414.47</ele>
        <time>2014-11-01T12:54:49Z</time>
      </trkpt>
      <trkpt lat="43.91799" lon="7.52121">
        <ele>413.98</ele>
        <time>2014-11-01T12:54:54Z</time>
      </trkpt>
      <trkpt lat="43.91811" lon="7.52107">
        <ele>413.5</ele>
        <time>2014-11-01T12:55:08Z</time>
      </trkpt>
      <trkpt lat="43.91821" lon="7.52096">
        <ele>412.06</ele>
        <time>2014-11-01T12:55:20Z</time>
      </trkpt>
      <trkpt lat="43.91829" lon="7.5209">
        <ele>411.58</ele>
        <time>2014-11-01T12:55:29Z</time>
      </trkpt>
      <trkpt lat="43.91836" lon="7.52085">
        <ele>411.1</ele>
        <time>2014-11-01T12:55:36Z</time>
      </trkpt>
      <trkpt lat="43.91837" lon="7.52084">
        <ele>411.58</ele>
        <time>2014-11-01T12:55:38Z</time>
      </trkpt>
      <trkpt lat="43.91851" lon="7.52083">
        <ele>411.1</ele>
        <time>2014-11-01T12:55:50Z</time>
      </trkpt>
      <trkpt lat="43.91869" lon="7.52082">
        <ele>408.7</ele>
        <time>2014-11-01T12:56:05Z</time>
      </trkpt>
      <trkpt lat="43.91883" lon="7.52083">
        <ele>407.74</ele>
        <time>2014-11-01T12:56:17Z</time>
      </trkpt>
      <trkpt lat="43.91898" lon="7.52086">
        <ele>405.81</ele>
        <time>2014-11-01T12:56:30Z</time>
      </trkpt>
      <trkpt lat="43.91905" lon="7.52083">
        <ele>405.81</ele>
        <time>2014-11-01T12:56:37Z</time>
      </trkpt>
      <trkpt lat="43.91914" lon="7.52079">
        <ele>405.33</ele>
        <time>2014-11-01T12:56:46Z</time>
      </trkpt>
      <trkpt lat="43.91928" lon="7.52077">
        <ele>405.81</ele>
        <time>2014-11-01T12:56:58Z</time>
      </trkpt>
      <trkpt lat="43.91944" lon="7.5208">
        <ele>405.33</ele>
        <time>2014-11-01T12:57:12Z</time>
      </trkpt>
      <trkpt lat="43.91946" lon="7.5208">
        <ele>405.33</ele>
        <time>2014-11-01T12:57:15Z</time>
      </trkpt>
      <trkpt lat="43.91956" lon="7.52079">
        <ele>404.37</ele>
        <time>2014-11-01T12:57:25Z</time>
      </trkpt>
      <trkpt lat="43.91959" lon="7.52081">
        <ele>404.85</ele>
        <time>2014-11-01T12:57:28Z</time>
      </trkpt>
      <trkpt lat="43.91969" lon="7.52083">
        <ele>403.89</ele>
        <time>2014-11-01T12:57:37Z</time>
      </trkpt>
      <trkpt lat="43.91974" lon="7.52085">
        <ele>402.45</ele>
        <time>2014-11-01T12:57:42Z</time>
      </trkpt>
      <trkpt lat="43.9198" lon="7.52086">
        <ele>401.97</ele>
        <time>2014-11-01T12:57:47Z</time>
      </trkpt>
      <trkpt lat="43.91981" lon="7.52086">
        <ele>401.97</ele>
        <time>2014-11-01T12:57:49Z</time>
      </trkpt>
      <trkpt lat="43.91995" lon="7.52089">
        <ele>402.45</ele>
        <time>2014-11-01T12:58:03Z</time>
      </trkpt>
      <trkpt lat="43.91997" lon="7.5209">
        <ele>402.45</ele>
        <time>2014-11-01T12:58:05Z</time>
      </trkpt>
      <trkpt lat="43.92007" lon="7.52091">
        <ele>404.37</ele>
        <time>2014-11-01T12:58:15Z</time>
      </trkpt>
      <trkpt lat="43.92023" lon="7.52101">
        <ele>406.77</ele>
        <time>2014-11-01T12:58:32Z</time>
      </trkpt>
      <trkpt lat="43.92036" lon="7.52105">
        <ele>408.7</ele>
        <time>2014-11-01T12:58:48Z</time>
      </trkpt>
      <trkpt lat="43.92042" lon="7.52106">
        <ele>407.74</ele>
        <time>2014-11-01T12:59:01Z</time>
      </trkpt>
      <trkpt lat="43.92041" lon="7.52109">
        <ele>406.77</ele>
        <time>2014-11-01T12:59:26Z</time>
      </trkpt>
      <trkpt lat="43.92042" lon="7.52109">
        <ele>406.77</ele>
        <time>2014-11-01T12:59:34Z</time>
      </trkpt>
      <trkpt lat="43.92042" lon="7.52111">
        <ele>406.29</ele>
        <time>2014-11-01T12:59:49Z</time>
      </trkpt>
      <trkpt lat="43.92042" lon="7.52111">
        <ele>405.33</ele>
        <time>2014-11-01T13:00:52Z</time>
      </trkpt>
      <trkpt lat="43.92042" lon="7.52113">
        <ele>403.89</ele>
        <time>2014-11-01T13:02:12Z</time>
      </trkpt>
      <trkpt lat="43.92041" lon="7.52114">
        <ele>401.49</ele>
        <time>2014-11-01T13:05:29Z</time>
      </trkpt>
      <trkpt lat="43.92043" lon="7.52114">
        <ele>401.97</ele>
        <time>2014-11-01T13:05:49Z</time>
      </trkpt>
      <trkpt lat="43.92046" lon="7.52111">
        <ele>401.97</ele>
        <time>2014-11-01T13:05:52Z</time>
      </trkpt>
      <trkpt lat="43.92061" lon="7.52115">
        <ele>404.85</ele>
        <time>2014-11-01T13:06:06Z</time>
      </trkpt>
      <trkpt lat="43.92068" lon="7.52139">
        <ele>404.85</ele>
        <time>2014-11-01T13:06:23Z</time>
      </trkpt>
      <trkpt lat="43.92071" lon="7.52159">
        <ele>402.93</ele>
        <time>2014-11-01T13:06:36Z</time>
      </trkpt>
      <trkpt lat="43.92071" lon="7.52166">
        <ele>401.49</ele>
        <time>2014-11-01T13:06:40Z</time>
      </trkpt>
      <trkpt lat="43.92078" lon="7.52191">
        <ele>399.57</ele>
        <time>2014-11-01T13:06:58Z</time>
      </trkpt>
      <trkpt lat="43.92081" lon="7.52195">
        <ele>399.08</ele>
        <time>2014-11-01T13:07:01Z</time>
      </trkpt>
      <trkpt lat="43.92089" lon="7.52207">
        <ele>396.2</ele>
        <time>2014-11-01T13:07:10Z</time>
      </trkpt>
      <trkpt lat="43.92101" lon="7.52219">
        <ele>393.8</ele>
        <time>2014-11-01T13:07:25Z</time>
      </trkpt>
      <trkpt lat="43.92109" lon="7.5222">
        <ele>393.32</ele>
        <time>2014-11-01T13:07:31Z</time>
      </trkpt>
      <trkpt lat="43.92111" lon="7.52219">
        <ele>392.84</ele>
        <time>2014-11-01T13:07:33Z</time>
      </trkpt>
      <trkpt lat="43.92132" lon="7.52213">
        <ele>393.8</ele>
        <time>2014-11-01T13:07:50Z</time>
      </trkpt>
      <trkpt lat="43.9214" lon="7.52211">
        <ele>397.16</ele>
        <time>2014-11-01T13:07:57Z</time>
      </trkpt>
      <trkpt lat="43.92145" lon="7.52206">
        <ele>398.6</ele>
        <time>2014-11-01T13:08:02Z</time>
      </trkpt>
      <trkpt lat="43.92149" lon="7.52204">
        <ele>399.08</ele>
        <time>2014-11-01T13:08:06Z</time>
      </trkpt>
      <trkpt lat="43.92154" lon="7.52203">
        <ele>399.57</ele>
        <time>2014-11-01T13:08:10Z</time>
      </trkpt>
      <trkpt lat="43.92161" lon="7.522">
        <ele>400.05</ele>
        <time>2014-11-01T13:08:16Z</time>
      </trkpt>
      <trkpt lat="43.9217" lon="7.52199">
        <ele>401.01</ele>
        <time>2014-11-01T13:08:23Z</time>
      </trkpt>
      <trkpt lat="43.92177" lon="7.52196">
        <ele>401.49</ele>
        <time>2014-11-01T13:08:29Z</time>
      </trkpt>
      <trkpt lat="43.922" lon="7.52198">
        <ele>400.53</ele>
        <time>2014-11-01T13:08:46Z</time>
      </trkpt>
      <trkpt lat="43.92207" lon="7.522">
        <ele>400.53</ele>
        <time>2014-11-01T13:08:51Z</time>
      </trkpt>
      <trkpt lat="43.92214" lon="7.52202">
        <ele>399.57</ele>
        <time>2014-11-01T13:08:58Z</time>
      </trkpt>
      <trkpt lat="43.92219" lon="7.52206">
        <ele>399.08</ele>
        <time>2014-11-01T13:09:01Z</time>
      </trkpt>
      <trkpt lat="43.92227" lon="7.52209">
        <ele>398.12</ele>
        <time>2014-11-01T13:09:08Z</time>
      </trkpt>
      <trkpt lat="43.92245" lon="7.52217">
        <ele>395.24</ele>
        <time>2014-11-01T13:09:21Z</time>
      </trkpt>
      <trkpt lat="43.92247" lon="7.52217">
        <ele>395.24</ele>
        <time>2014-11-01T13:09:23Z</time>
      </trkpt>
      <trkpt lat="43.92257" lon="7.52219">
        <ele>393.32</ele>
        <time>2014-11-01T13:09:30Z</time>
      </trkpt>
      <trkpt lat="43.92269" lon="7.52223">
        <ele>390.91</ele>
        <time>2014-11-01T13:09:39Z</time>
      </trkpt>
      <trkpt lat="43.92287" lon="7.52229">
        <ele>387.55</ele>
        <time>2014-11-01T13:09:53Z</time>
      </trkpt>
      <trkpt lat="43.92305" lon="7.52231">
        <ele>385.63</ele>
        <time>2014-11-01T13:10:08Z</time>
      </trkpt>
      <trkpt lat="43.92323" lon="7.52233">
        <ele>387.07</ele>
        <time>2014-11-01T13:10:22Z</time>
      </trkpt>
      <trkpt lat="43.92329" lon="7.52234">
        <ele>389.95</ele>
        <time>2014-11-01T13:10:27Z</time>
      </trkpt>
      <trkpt lat="43.92336" lon="7.52239">
        <ele>389.95</ele>
        <time>2014-11-01T13:10:33Z</time>
      </trkpt>
      <trkpt lat="43.92344" lon="7.52247">
        <ele>389.95</ele>
        <time>2014-11-01T13:10:41Z</time>
      </trkpt>
      <trkpt lat="43.92351" lon="7.52256">
        <ele>388.99</ele>
        <time>2014-11-01T13:10:48Z</time>
      </trkpt>
      <trkpt lat="43.92359" lon="7.52271">
        <ele>388.51</ele>
        <time>2014-11-01T13:10:58Z</time>
      </trkpt>
      <trkpt lat="43.92364" lon="7.52281">
        <ele>388.03</ele>
        <time>2014-11-01T13:11:05Z</time>
      </trkpt>
      <trkpt lat="43.92367" lon="7.52285">
        <ele>387.55</ele>
        <time>2014-11-01T13:11:08Z</time>
      </trkpt>
      <trkpt lat="43.9237" lon="7.52291">
        <ele>387.55</ele>
        <time>2014-11-01T13:11:12Z</time>
      </trkpt>
      <trkpt lat="43.92374" lon="7.52295">
        <ele>387.55</ele>
        <time>2014-11-01T13:11:16Z</time>
      </trkpt>
      <trkpt lat="43.92376" lon="7.52297">
        <ele>387.07</ele>
        <time>2014-11-01T13:11:18Z</time>
      </trkpt>
      <trkpt lat="43.92379" lon="7.52303">
        <ele>386.11</ele>
        <time>2014-11-01T13:11:22Z</time>
      </trkpt>
      <trkpt lat="43.9239" lon="7.52313">
        <ele>385.15</ele>
        <time>2014-11-01T13:11:33Z</time>
      </trkpt>
      <trkpt lat="43.92393" lon="7.52313">
        <ele>385.15</ele>
        <time>2014-11-01T13:11:35Z</time>
      </trkpt>
      <trkpt lat="43.92403" lon="7.52312">
        <ele>385.63</ele>
        <time>2014-11-01T13:11:43Z</time>
      </trkpt>
      <trkpt lat="43.9241" lon="7.52304">
        <ele>384.66</ele>
        <time>2014-11-01T13:11:50Z</time>
      </trkpt>
      <trkpt lat="43.92415" lon="7.52298">
        <ele>384.66</ele>
        <time>2014-11-01T13:11:56Z</time>
      </trkpt>
      <trkpt lat="43.92418" lon="7.52297">
        <ele>384.18</ele>
        <time>2014-11-01T13:11:58Z</time>
      </trkpt>
      <trkpt lat="43.92423" lon="7.52294">
        <ele>383.7</ele>
        <time>2014-11-01T13:12:03Z</time>
      </trkpt>
      <trkpt lat="43.92431" lon="7.5229">
        <ele>384.66</ele>
        <time>2014-11-01T13:12:12Z</time>
      </trkpt>
      <trkpt lat="43.92435" lon="7.52288">
        <ele>385.63</ele>
        <time>2014-11-01T13:12:17Z</time>
      </trkpt>
      <trkpt lat="43.9244" lon="7.52288">
        <ele>387.07</ele>
        <time>2014-11-01T13:12:22Z</time>
      </trkpt>
      <trkpt lat="43.92454" lon="7.52298">
        <ele>390.43</ele>
        <time>2014-11-01T13:12:38Z</time>
      </trkpt>
      <trkpt lat="43.92456" lon="7.523">
        <ele>390.43</ele>
        <time>2014-11-01T13:12:40Z</time>
      </trkpt>
      <trkpt lat="43.92458" lon="7.52301">
        <ele>390.91</ele>
        <time>2014-11-01T13:12:42Z</time>
      </trkpt>
      <trkpt lat="43.92464" lon="7.52307">
        <ele>391.39</ele>
        <time>2014-11-01T13:12:50Z</time>
      </trkpt>
      <trkpt lat="43.9248" lon="7.52318">
        <ele>394.28</ele>
        <time>2014-11-01T13:13:06Z</time>
      </trkpt>
      <trkpt lat="43.92483" lon="7.52319">
        <ele>394.76</ele>
        <time>2014-11-01T13:13:10Z</time>
      </trkpt>
      <trkpt lat="43.92487" lon="7.52322">
        <ele>395.24</ele>
        <time>2014-11-01T13:13:14Z</time>
      </trkpt>
      <trkpt lat="43.92493" lon="7.52324">
        <ele>396.2</ele>
        <time>2014-11-01T13:13:21Z</time>
      </trkpt>
      <trkpt lat="43.92503" lon="7.52326">
        <ele>397.64</ele>
        <time>2014-11-01T13:13:30Z</time>
      </trkpt>
      <trkpt lat="43.92506" lon="7.52325">
        <ele>397.64</ele>
        <time>2014-11-01T13:13:33Z</time>
      </trkpt>
      <trkpt lat="43.92509" lon="7.52324">
        <ele>397.64</ele>
        <time>2014-11-01T13:13:36Z</time>
      </trkpt>
      <trkpt lat="43.92514" lon="7.52324">
        <ele>398.12</ele>
        <time>2014-11-01T13:13:41Z</time>
      </trkpt>
      <trkpt lat="43.92534" lon="7.52322">
        <ele>399.08</ele>
        <time>2014-11-01T13:13:59Z</time>
      </trkpt>
      <trkpt lat="43.92537" lon="7.52322">
        <ele>399.08</ele>
        <time>2014-11-01T13:14:02Z</time>
      </trkpt>
      <trkpt lat="43.92549" lon="7.52319">
        <ele>401.01</ele>
        <time>2014-11-01T13:14:15Z</time>
      </trkpt>
      <trkpt lat="43.92566" lon="7.52311">
        <ele>400.53</ele>
        <time>2014-11-01T13:14:30Z</time>
      </trkpt>
      <trkpt lat="43.9257" lon="7.5231">
        <ele>400.05</ele>
        <time>2014-11-01T13:14:33Z</time>
      </trkpt>
      <trkpt lat="43.92573" lon="7.5231">
        <ele>400.05</ele>
        <time>2014-11-01T13:14:36Z</time>
      </trkpt>
      <trkpt lat="43.92575" lon="7.52311">
        <ele>399.57</ele>
        <time>2014-11-01T13:14:38Z</time>
      </trkpt>
      <trkpt lat="43.92579" lon="7.52313">
        <ele>399.57</ele>
        <time>2014-11-01T13:14:41Z</time>
      </trkpt>
      <trkpt lat="43.92581" lon="7.52315">
        <ele>399.57</ele>
        <time>2014-11-01T13:14:43Z</time>
      </trkpt>
      <trkpt lat="43.92594" lon="7.52326">
        <ele>398.6</ele>
        <time>2014-11-01T13:14:56Z</time>
      </trkpt>
      <trkpt lat="43.92607" lon="7.52334">
        <ele>398.12</ele>
        <time>2014-11-01T13:15:09Z</time>
      </trkpt>
      <trkpt lat="43.92615" lon="7.52337">
        <ele>400.05</ele>
        <time>2014-11-01T13:15:18Z</time>
      </trkpt>
      <trkpt lat="43.92621" lon="7.5234">
        <ele>402.45</ele>
        <time>2014-11-01T13:15:24Z</time>
      </trkpt>
      <trkpt lat="43.92626" lon="7.52343">
        <ele>402.93</ele>
        <time>2014-11-01T13:15:30Z</time>
      </trkpt>
      <trkpt lat="43.92628" lon="7.52344">
        <ele>403.41</ele>
        <time>2014-11-01T13:15:32Z</time>
      </trkpt>
      <trkpt lat="43.92641" lon="7.52354">
        <ele>405.81</ele>
        <time>2014-11-01T13:15:46Z</time>
      </trkpt>
      <trkpt lat="43.92655" lon="7.52363">
        <ele>407.26</ele>
        <time>2014-11-01T13:15:58Z</time>
      </trkpt>
      <trkpt lat="43.92673" lon="7.52374">
        <ele>406.29</ele>
        <time>2014-11-01T13:16:14Z</time>
      </trkpt>
      <trkpt lat="43.92688" lon="7.52382">
        <ele>408.7</ele>
        <time>2014-11-01T13:16:28Z</time>
      </trkpt>
      <trkpt lat="43.92705" lon="7.52393">
        <ele>409.18</ele>
        <time>2014-11-01T13:16:42Z</time>
      </trkpt>
      <trkpt lat="43.9271" lon="7.52398">
        <ele>409.18</ele>
        <time>2014-11-01T13:16:46Z</time>
      </trkpt>
      <trkpt lat="43.92718" lon="7.52409">
        <ele>408.7</ele>
        <time>2014-11-01T13:16:55Z</time>
      </trkpt>
      <trkpt lat="43.92721" lon="7.52413">
        <ele>409.66</ele>
        <time>2014-11-01T13:16:58Z</time>
      </trkpt>
      <trkpt lat="43.9273" lon="7.52423">
        <ele>410.62</ele>
        <time>2014-11-01T13:17:08Z</time>
      </trkpt>
      <trkpt lat="43.92737" lon="7.52438">
        <ele>410.62</ele>
        <time>2014-11-01T13:17:18Z</time>
      </trkpt>
      <trkpt lat="43.92742" lon="7.52451">
        <ele>411.58</ele>
        <time>2014-11-01T13:17:26Z</time>
      </trkpt>
      <trkpt lat="43.92748" lon="7.52467">
        <ele>410.62</ele>
        <time>2014-11-01T13:17:37Z</time>
      </trkpt>
      <trkpt lat="43.9275" lon="7.52474">
        <ele>411.1</ele>
        <time>2014-11-01T13:17:41Z</time>
      </trkpt>
      <trkpt lat="43.92762" lon="7.52489">
        <ele>413.98</ele>
        <time>2014-11-01T13:17:54Z</time>
      </trkpt>
      <trkpt lat="43.92764" lon="7.5249">
        <ele>414.95</ele>
        <time>2014-11-01T13:17:56Z</time>
      </trkpt>
      <trkpt lat="43.92769" lon="7.52491">
        <ele>416.39</ele>
        <time>2014-11-01T13:18:01Z</time>
      </trkpt>
      <trkpt lat="43.92781" lon="7.52497">
        <ele>418.79</ele>
        <time>2014-11-01T13:18:10Z</time>
      </trkpt>
      <trkpt lat="43.92793" lon="7.52506">
        <ele>421.68</ele>
        <time>2014-11-01T13:18:22Z</time>
      </trkpt>
      <trkpt lat="43.92798" lon="7.52509">
        <ele>422.16</ele>
        <time>2014-11-01T13:18:26Z</time>
      </trkpt>
      <trkpt lat="43.92799" lon="7.52512">
        <ele>422.64</ele>
        <time>2014-11-01T13:18:29Z</time>
      </trkpt>
      <trkpt lat="43.92808" lon="7.5252">
        <ele>424.56</ele>
        <time>2014-11-01T13:18:39Z</time>
      </trkpt>
      <trkpt lat="43.92825" lon="7.52525">
        <ele>426.96</ele>
        <time>2014-11-01T13:18:55Z</time>
      </trkpt>
      <trkpt lat="43.92833" lon="7.52526">
        <ele>426.96</ele>
        <time>2014-11-01T13:19:03Z</time>
      </trkpt>
      <trkpt lat="43.92852" lon="7.52537">
        <ele>422.16</ele>
        <time>2014-11-01T13:19:21Z</time>
      </trkpt>
      <trkpt lat="43.92866" lon="7.52536">
        <ele>421.68</ele>
        <time>2014-11-01T13:19:35Z</time>
      </trkpt>
      <trkpt lat="43.92882" lon="7.52536">
        <ele>422.64</ele>
        <time>2014-11-01T13:19:49Z</time>
      </trkpt>
      <trkpt lat="43.92899" lon="7.52539">
        <ele>421.68</ele>
        <time>2014-11-01T13:20:05Z</time>
      </trkpt>
      <trkpt lat="43.92916" lon="7.5254">
        <ele>421.68</ele>
        <time>2014-11-01T13:20:21Z</time>
      </trkpt>
      <trkpt lat="43.92929" lon="7.52537">
        <ele>420.71</ele>
        <time>2014-11-01T13:20:32Z</time>
      </trkpt>
      <trkpt lat="43.92935" lon="7.52535">
        <ele>421.19</ele>
        <time>2014-11-01T13:20:38Z</time>
      </trkpt>
      <trkpt lat="43.92938" lon="7.52532">
        <ele>422.16</ele>
        <time>2014-11-01T13:20:41Z</time>
      </trkpt>
      <trkpt lat="43.92943" lon="7.5253">
        <ele>422.64</ele>
        <time>2014-11-01T13:20:45Z</time>
      </trkpt>
      <trkpt lat="43.92956" lon="7.52522">
        <ele>426.96</ele>
        <time>2014-11-01T13:20:58Z</time>
      </trkpt>
      <trkpt lat="43.92974" lon="7.52522">
        <ele>430.81</ele>
        <time>2014-11-01T13:21:14Z</time>
      </trkpt>
      <trkpt lat="43.92979" lon="7.52523">
        <ele>431.77</ele>
        <time>2014-11-01T13:21:19Z</time>
      </trkpt>
      <trkpt lat="43.92985" lon="7.52523">
        <ele>432.73</ele>
        <time>2014-11-01T13:21:25Z</time>
      </trkpt>
      <trkpt lat="43.92987" lon="7.52525">
        <ele>432.73</ele>
        <time>2014-11-01T13:21:27Z</time>
      </trkpt>
      <trkpt lat="43.9299" lon="7.52525">
        <ele>433.21</ele>
        <time>2014-11-01T13:21:29Z</time>
      </trkpt>
      <trkpt lat="43.92993" lon="7.52526">
        <ele>434.17</ele>
        <time>2014-11-01T13:21:33Z</time>
      </trkpt>
      <trkpt lat="43.93001" lon="7.52532">
        <ele>435.61</ele>
        <time>2014-11-01T13:21:48Z</time>
      </trkpt>
      <trkpt lat="43.93" lon="7.52532">
        <ele>435.61</ele>
        <time>2014-11-01T13:23:01Z</time>
      </trkpt>
      <trkpt lat="43.93003" lon="7.52534">
        <ele>434.17</ele>
        <time>2014-11-01T13:24:12Z</time>
      </trkpt>
      <trkpt lat="43.93003" lon="7.52527">
        <ele>432.25</ele>
        <time>2014-11-01T13:24:29Z</time>
      </trkpt>
      <trkpt lat="43.93" lon="7.52511">
        <ele>427.44</ele>
        <time>2014-11-01T13:24:44Z</time>
      </trkpt>
      <trkpt lat="43.92992" lon="7.52499">
        <ele>424.56</ele>
        <time>2014-11-01T13:25:01Z</time>
      </trkpt>
      <trkpt lat="43.92987" lon="7.52486">
        <ele>421.19</ele>
        <time>2014-11-01T13:25:16Z</time>
      </trkpt>
      <trkpt lat="43.92987" lon="7.52484">
        <ele>420.71</ele>
        <time>2014-11-01T13:25:19Z</time>
      </trkpt>
      <trkpt lat="43.92994" lon="7.5249">
        <ele>418.31</ele>
        <time>2014-11-01T13:25:32Z</time>
      </trkpt>
      <trkpt lat="43.92995" lon="7.5249">
        <ele>417.83</ele>
        <time>2014-11-01T13:25:34Z</time>
      </trkpt>
      <trkpt lat="43.92997" lon="7.52491">
        <ele>417.35</ele>
        <time>2014-11-01T13:25:36Z</time>
      </trkpt>
      <trkpt lat="43.92999" lon="7.52493">
        <ele>416.87</ele>
        <time>2014-11-01T13:25:39Z</time>
      </trkpt>
      <trkpt lat="43.93001" lon="7.52494">
        <ele>416.87</ele>
        <time>2014-11-01T13:25:41Z</time>
      </trkpt>
      <trkpt lat="43.93009" lon="7.52498">
        <ele>414.95</ele>
        <time>2014-11-01T13:25:49Z</time>
      </trkpt>
      <trkpt lat="43.93011" lon="7.52495">
        <ele>414.95</ele>
        <time>2014-11-01T13:25:52Z</time>
      </trkpt>
      <trkpt lat="43.9301" lon="7.52477">
        <ele>412.06</ele>
        <time>2014-11-01T13:26:08Z</time>
      </trkpt>
      <trkpt lat="43.93015" lon="7.52479">
        <ele>411.1</ele>
        <time>2014-11-01T13:26:23Z</time>
      </trkpt>
      <trkpt lat="43.93019" lon="7.52478">
        <ele>407.26</ele>
        <time>2014-11-01T13:26:40Z</time>
      </trkpt>
      <trkpt lat="43.93018" lon="7.52476">
        <ele>406.77</ele>
        <time>2014-11-01T13:26:42Z</time>
      </trkpt>
      <trkpt lat="43.93017" lon="7.52459">
        <ele>402.45</ele>
        <time>2014-11-01T13:26:58Z</time>
      </trkpt>
      <trkpt lat="43.93024" lon="7.52453">
        <ele>400.05</ele>
        <time>2014-11-01T13:27:12Z</time>
      </trkpt>
      <trkpt lat="43.93023" lon="7.52445">
        <ele>397.64</ele>
        <time>2014-11-01T13:27:26Z</time>
      </trkpt>
      <trkpt lat="43.93019" lon="7.52443">
        <ele>394.28</ele>
        <time>2014-11-01T13:27:38Z</time>
      </trkpt>
      <trkpt lat="43.93028" lon="7.52433">
        <ele>390.91</ele>
        <time>2014-11-01T13:27:54Z</time>
      </trkpt>
      <trkpt lat="43.9303" lon="7.52432">
        <ele>389.47</ele>
        <time>2014-11-01T13:28:03Z</time>
      </trkpt>
      <trkpt lat="43.93028" lon="7.52427">
        <ele>387.55</ele>
        <time>2014-11-01T13:28:09Z</time>
      </trkpt>
      <trkpt lat="43.93031" lon="7.52416">
        <ele>385.15</ele>
        <time>2014-11-01T13:28:16Z</time>
      </trkpt>
      <trkpt lat="43.93037" lon="7.52408">
        <ele>384.18</ele>
        <time>2014-11-01T13:28:27Z</time>
      </trkpt>
      <trkpt lat="43.93038" lon="7.52407">
        <ele>384.18</ele>
        <time>2014-11-01T13:28:29Z</time>
      </trkpt>
      <trkpt lat="43.93049" lon="7.52394">
        <ele>381.78</ele>
        <time>2014-11-01T13:28:46Z</time>
      </trkpt>
      <trkpt lat="43.93051" lon="7.52393">
        <ele>381.78</ele>
        <time>2014-11-01T13:28:48Z</time>
      </trkpt>
      <trkpt lat="43.93052" lon="7.5239">
        <ele>381.3</ele>
        <time>2014-11-01T13:28:50Z</time>
      </trkpt>
      <trkpt lat="43.93056" lon="7.52386">
        <ele>380.34</ele>
        <time>2014-11-01T13:29:08Z</time>
      </trkpt>
      <trkpt lat="43.9306" lon="7.52385">
        <ele>379.86</ele>
        <time>2014-11-01T13:29:57Z</time>
      </trkpt>
      <trkpt lat="43.93063" lon="7.52386">
        <ele>379.38</ele>
        <time>2014-11-01T13:30:01Z</time>
      </trkpt>
      <trkpt lat="43.93072" lon="7.52386">
        <ele>376.01</ele>
        <time>2014-11-01T13:30:13Z</time>
      </trkpt>
      <trkpt lat="43.93077" lon="7.5239">
        <ele>375.05</ele>
        <time>2014-11-01T13:30:45Z</time>
      </trkpt>
      <trkpt lat="43.9308" lon="7.52388">
        <ele>374.57</ele>
        <time>2014-11-01T13:31:09Z</time>
      </trkpt>
      <trkpt lat="43.9308" lon="7.52388">
        <ele>375.05</ele>
        <time>2014-11-01T13:31:58Z</time>
      </trkpt>
      <trkpt lat="43.9308" lon="7.52389">
        <ele>374.57</ele>
        <time>2014-11-01T13:32:56Z</time>
      </trkpt>
      <trkpt lat="43.9308" lon="7.52389">
        <ele>374.57</ele>
        <time>2014-11-01T13:33:48Z</time>
      </trkpt>
      <trkpt lat="43.93083" lon="7.52384">
        <ele>374.57</ele>
        <time>2014-11-01T13:34:48Z</time>
      </trkpt>
      <trkpt lat="43.93086" lon="7.52373">
        <ele>373.61</ele>
        <time>2014-11-01T13:35:05Z</time>
      </trkpt>
      <trkpt lat="43.93092" lon="7.52361">
        <ele>370.24</ele>
        <time>2014-11-01T13:35:18Z</time>
      </trkpt>
      <trkpt lat="43.93099" lon="7.5235">
        <ele>366.4</ele>
        <time>2014-11-01T13:35:33Z</time>
      </trkpt>
      <trkpt lat="43.93102" lon="7.52347">
        <ele>365.92</ele>
        <time>2014-11-01T13:35:39Z</time>
      </trkpt>
      <trkpt lat="43.93105" lon="7.52353">
        <ele>364</ele>
        <time>2014-11-01T13:35:52Z</time>
      </trkpt>
      <trkpt lat="43.93105" lon="7.52353">
        <ele>364</ele>
        <time>2014-11-01T13:35:53Z</time>
      </trkpt>
      <trkpt lat="43.93111" lon="7.52339">
        <ele>361.11</ele>
        <time>2014-11-01T13:36:07Z</time>
      </trkpt>
      <trkpt lat="43.93121" lon="7.52323">
        <ele>358.23</ele>
        <time>2014-11-01T13:36:24Z</time>
      </trkpt>
      <trkpt lat="43.93133" lon="7.5231">
        <ele>358.23</ele>
        <time>2014-11-01T13:36:40Z</time>
      </trkpt>
      <trkpt lat="43.93141" lon="7.52297">
        <ele>354.86</ele>
        <time>2014-11-01T13:36:54Z</time>
      </trkpt>
      <trkpt lat="43.93147" lon="7.52284">
        <ele>354.38</ele>
        <time>2014-11-01T13:37:10Z</time>
      </trkpt>
      <trkpt lat="43.93148" lon="7.52283">
        <ele>349.58</ele>
        <time>2014-11-01T13:37:25Z</time>
      </trkpt>
      <trkpt lat="43.93152" lon="7.52281">
        <ele>345.25</ele>
        <time>2014-11-01T13:37:33Z</time>
      </trkpt>
      <trkpt lat="43.93154" lon="7.52281">
        <ele>343.81</ele>
        <time>2014-11-01T13:37:46Z</time>
      </trkpt>
      <trkpt lat="43.93155" lon="7.52274">
        <ele>344.29</ele>
        <time>2014-11-01T13:37:52Z</time>
      </trkpt>
      <trkpt lat="43.93159" lon="7.52271">
        <ele>342.85</ele>
        <time>2014-11-01T13:38:07Z</time>
      </trkpt>
      <trkpt lat="43.93164" lon="7.52276">
        <ele>341.89</ele>
        <time>2014-11-01T13:38:14Z</time>
      </trkpt>
      <trkpt lat="43.93165" lon="7.52281">
        <ele>341.41</ele>
        <time>2014-11-01T13:38:19Z</time>
      </trkpt>
      <trkpt lat="43.93168" lon="7.52284">
        <ele>340.44</ele>
        <time>2014-11-01T13:38:28Z</time>
      </trkpt>
      <trkpt lat="43.93169" lon="7.52273">
        <ele>338.04</ele>
        <time>2014-11-01T13:38:43Z</time>
      </trkpt>
      <trkpt lat="43.93171" lon="7.52273">
        <ele>337.08</ele>
        <time>2014-11-01T13:38:45Z</time>
      </trkpt>
      <trkpt lat="43.93176" lon="7.52281">
        <ele>335.64</ele>
        <time>2014-11-01T13:38:59Z</time>
      </trkpt>
      <trkpt lat="43.93177" lon="7.5228">
        <ele>335.64</ele>
        <time>2014-11-01T13:39:00Z</time>
      </trkpt>
      <trkpt lat="43.93184" lon="7.5228">
        <ele>329.39</ele>
        <time>2014-11-01T13:39:14Z</time>
      </trkpt>
      <trkpt lat="43.93183" lon="7.52274">
        <ele>326.99</ele>
        <time>2014-11-01T13:39:21Z</time>
      </trkpt>
      <trkpt lat="43.9319" lon="7.52288">
        <ele>322.66</ele>
        <time>2014-11-01T13:39:35Z</time>
      </trkpt>
      <trkpt lat="43.93196" lon="7.52283">
        <ele>321.7</ele>
        <time>2014-11-01T13:39:49Z</time>
      </trkpt>
      <trkpt lat="43.932" lon="7.52272">
        <ele>317.85</ele>
        <time>2014-11-01T13:40:03Z</time>
      </trkpt>
      <trkpt lat="43.93202" lon="7.52257">
        <ele>316.41</ele>
        <time>2014-11-01T13:40:15Z</time>
      </trkpt>
      <trkpt lat="43.93205" lon="7.52256">
        <ele>314.01</ele>
        <time>2014-11-01T13:40:24Z</time>
      </trkpt>
      <trkpt lat="43.93211" lon="7.52256">
        <ele>309.2</ele>
        <time>2014-11-01T13:40:36Z</time>
      </trkpt>
      <trkpt lat="43.93213" lon="7.52255">
        <ele>307.76</ele>
        <time>2014-11-01T13:40:40Z</time>
      </trkpt>
      <trkpt lat="43.93218" lon="7.52254">
        <ele>304.88</ele>
        <time>2014-11-01T13:40:54Z</time>
      </trkpt>
      <trkpt lat="43.93221" lon="7.52252">
        <ele>302.47</ele>
        <time>2014-11-01T13:41:08Z</time>
      </trkpt>
      <trkpt lat="43.93223" lon="7.52252">
        <ele>301.51</ele>
        <time>2014-11-01T13:41:19Z</time>
      </trkpt>
      <trkpt lat="43.93228" lon="7.52239">
        <ele>301.99</ele>
        <time>2014-11-01T13:41:32Z</time>
      </trkpt>
      <trkpt lat="43.93231" lon="7.52241">
        <ele>301.99</ele>
        <time>2014-11-01T13:41:46Z</time>
      </trkpt>
      <trkpt lat="43.93231" lon="7.52236">
        <ele>301.99</ele>
        <time>2014-11-01T13:41:52Z</time>
      </trkpt>
      <trkpt lat="43.93231" lon="7.52234">
        <ele>301.99</ele>
        <time>2014-11-01T13:41:57Z</time>
      </trkpt>
      <trkpt lat="43.93231" lon="7.52235">
        <ele>301.99</ele>
        <time>2014-11-01T13:41:58Z</time>
      </trkpt>
      <trkpt lat="43.93238" lon="7.52236">
        <ele>301.51</ele>
        <time>2014-11-01T13:42:10Z</time>
      </trkpt>
      <trkpt lat="43.93237" lon="7.52227">
        <ele>302.47</ele>
        <time>2014-11-01T13:42:22Z</time>
      </trkpt>
      <trkpt lat="43.9324" lon="7.52223">
        <ele>301.99</ele>
        <time>2014-11-01T13:42:34Z</time>
      </trkpt>
      <trkpt lat="43.93229" lon="7.52223">
        <ele>301.51</ele>
        <time>2014-11-01T13:42:47Z</time>
      </trkpt>
      <trkpt lat="43.93218" lon="7.52222">
        <ele>301.51</ele>
        <time>2014-11-01T13:43:01Z</time>
      </trkpt>
      <trkpt lat="43.93214" lon="7.52221">
        <ele>301.51</ele>
        <time>2014-11-01T13:43:04Z</time>
      </trkpt>
      <trkpt lat="43.93213" lon="7.5222">
        <ele>301.51</ele>
        <time>2014-11-01T13:43:05Z</time>
      </trkpt>
      <trkpt lat="43.9321" lon="7.52215">
        <ele>301.51</ele>
        <time>2014-11-01T13:43:15Z</time>
      </trkpt>
      <trkpt lat="43.93213" lon="7.52214">
        <ele>301.51</ele>
        <time>2014-11-01T13:43:18Z</time>
      </trkpt>
      <trkpt lat="43.93217" lon="7.52212">
        <ele>301.51</ele>
        <time>2014-11-01T13:43:21Z</time>
      </trkpt>
      <trkpt lat="43.93222" lon="7.5221">
        <ele>301.51</ele>
        <time>2014-11-01T13:43:28Z</time>
      </trkpt>
      <trkpt lat="43.93228" lon="7.52197">
        <ele>301.03</ele>
        <time>2014-11-01T13:43:41Z</time>
      </trkpt>
      <trkpt lat="43.93228" lon="7.52197">
        <ele>301.03</ele>
        <time>2014-11-01T13:43:46Z</time>
      </trkpt>
      <trkpt lat="43.93226" lon="7.52191">
        <ele>301.51</ele>
        <time>2014-11-01T13:43:52Z</time>
      </trkpt>
      <trkpt lat="43.93221" lon="7.52185">
        <ele>301.99</ele>
        <time>2014-11-01T13:44:07Z</time>
      </trkpt>
      <trkpt lat="43.93222" lon="7.52188">
        <ele>301.51</ele>
        <time>2014-11-01T13:44:22Z</time>
      </trkpt>
      <trkpt lat="43.93217" lon="7.5218">
        <ele>301.51</ele>
        <time>2014-11-01T13:44:43Z</time>
      </trkpt>
      <trkpt lat="43.93223" lon="7.52188">
        <ele>301.51</ele>
        <time>2014-11-01T13:45:08Z</time>
      </trkpt>
      <trkpt lat="43.93228" lon="7.52196">
        <ele>302.47</ele>
        <time>2014-11-01T13:46:04Z</time>
      </trkpt>
      <trkpt lat="43.93227" lon="7.52198">
        <ele>302.47</ele>
        <time>2014-11-01T13:46:28Z</time>
      </trkpt>
      <trkpt lat="43.9323" lon="7.52203">
        <ele>303.43</ele>
        <time>2014-11-01T13:47:03Z</time>
      </trkpt>
      <trkpt lat="43.93232" lon="7.52205">
        <ele>303.43</ele>
        <time>2014-11-01T13:47:28Z</time>
      </trkpt>
      <trkpt lat="43.93232" lon="7.52205">
        <ele>303.43</ele>
        <time>2014-11-01T13:48:43Z</time>
      </trkpt>
      <trkpt lat="43.93235" lon="7.52213">
        <ele>305.84</ele>
        <time>2014-11-01T13:50:14Z</time>
      </trkpt>
      <trkpt lat="43.93236" lon="7.52211">
        <ele>306.32</ele>
        <time>2014-11-01T13:52:53Z</time>
      </trkpt>
      <trkpt lat="43.93238" lon="7.52212">
        <ele>306.32</ele>
        <time>2014-11-01T13:53:46Z</time>
      </trkpt>
      <trkpt lat="43.93239" lon="7.52219">
        <ele>306.32</ele>
        <time>2014-11-01T13:54:03Z</time>
      </trkpt>
      <trkpt lat="43.93233" lon="7.5222">
        <ele>306.8</ele>
        <time>2014-11-01T13:54:13Z</time>
      </trkpt>
      <trkpt lat="43.93232" lon="7.5222">
        <ele>306.8</ele>
        <time>2014-11-01T13:54:14Z</time>
      </trkpt>
      <trkpt lat="43.93224" lon="7.52217">
        <ele>306.8</ele>
        <time>2014-11-01T13:54:21Z</time>
      </trkpt>
      <trkpt lat="43.93222" lon="7.52218">
        <ele>306.8</ele>
        <time>2014-11-01T13:54:22Z</time>
      </trkpt>
      <trkpt lat="43.93213" lon="7.52214">
        <ele>307.28</ele>
        <time>2014-11-01T13:54:29Z</time>
      </trkpt>
      <trkpt lat="43.93201" lon="7.52211">
        <ele>307.76</ele>
        <time>2014-11-01T13:54:42Z</time>
      </trkpt>
      <trkpt lat="43.93183" lon="7.52184">
        <ele>307.28</ele>
        <time>2014-11-01T13:54:54Z</time>
      </trkpt>
      <trkpt lat="43.93172" lon="7.52164">
        <ele>307.28</ele>
        <time>2014-11-01T13:55:08Z</time>
      </trkpt>
      <trkpt lat="43.9317" lon="7.5215">
        <ele>307.28</ele>
        <time>2014-11-01T13:55:18Z</time>
      </trkpt>
      <trkpt lat="43.93168" lon="7.52145">
        <ele>307.28</ele>
        <time>2014-11-01T13:55:23Z</time>
      </trkpt>
      <trkpt lat="43.93167" lon="7.52131">
        <ele>307.28</ele>
        <time>2014-11-01T13:55:37Z</time>
      </trkpt>
      <trkpt lat="43.93167" lon="7.52123">
        <ele>307.28</ele>
        <time>2014-11-01T13:55:46Z</time>
      </trkpt>
      <trkpt lat="43.93177" lon="7.52113">
        <ele>300.07</ele>
        <time>2014-11-01T13:56:00Z</time>
      </trkpt>
      <trkpt lat="43.9318" lon="7.52108">
        <ele>297.18</ele>
        <time>2014-11-01T13:56:13Z</time>
      </trkpt>
      <trkpt lat="43.93181" lon="7.52106">
        <ele>298.15</ele>
        <time>2014-11-01T13:56:14Z</time>
      </trkpt>
      <trkpt lat="43.93184" lon="7.52103">
        <ele>300.07</ele>
        <time>2014-11-01T13:56:18Z</time>
      </trkpt>
      <trkpt lat="43.93189" lon="7.52091">
        <ele>299.11</ele>
        <time>2014-11-01T13:56:34Z</time>
      </trkpt>
      <trkpt lat="43.9319" lon="7.52089">
        <ele>297.18</ele>
        <time>2014-11-01T13:56:38Z</time>
      </trkpt>
      <trkpt lat="43.93199" lon="7.52081">
        <ele>296.22</ele>
        <time>2014-11-01T13:56:48Z</time>
      </trkpt>
      <trkpt lat="43.93204" lon="7.5208">
        <ele>299.59</ele>
        <time>2014-11-01T13:56:52Z</time>
      </trkpt>
      <trkpt lat="43.9322" lon="7.52081">
        <ele>302.95</ele>
        <time>2014-11-01T13:57:06Z</time>
      </trkpt>
      <trkpt lat="43.93223" lon="7.52081">
        <ele>301.51</ele>
        <time>2014-11-01T13:57:09Z</time>
      </trkpt>
      <trkpt lat="43.93224" lon="7.52081">
        <ele>300.55</ele>
        <time>2014-11-01T13:57:11Z</time>
      </trkpt>
      <trkpt lat="43.93234" lon="7.52071">
        <ele>297.67</ele>
        <time>2014-11-01T13:57:23Z</time>
      </trkpt>
      <trkpt lat="43.93238" lon="7.52066">
        <ele>297.18</ele>
        <time>2014-11-01T13:57:28Z</time>
      </trkpt>
      <trkpt lat="43.93241" lon="7.52059">
        <ele>297.18</ele>
        <time>2014-11-01T13:57:33Z</time>
      </trkpt>
      <trkpt lat="43.93247" lon="7.52042">
        <ele>297.67</ele>
        <time>2014-11-01T13:57:45Z</time>
      </trkpt>
      <trkpt lat="43.93248" lon="7.52036">
        <ele>297.18</ele>
        <time>2014-11-01T13:57:49Z</time>
      </trkpt>
      <trkpt lat="43.93256" lon="7.52026">
        <ele>297.18</ele>
        <time>2014-11-01T13:58:04Z</time>
      </trkpt>
      <trkpt lat="43.93258" lon="7.52024">
        <ele>297.67</ele>
        <time>2014-11-01T13:58:06Z</time>
      </trkpt>
      <trkpt lat="43.93263" lon="7.52014">
        <ele>300.55</ele>
        <time>2014-11-01T13:58:16Z</time>
      </trkpt>
      <trkpt lat="43.93269" lon="7.51991">
        <ele>301.99</ele>
        <time>2014-11-01T13:58:32Z</time>
      </trkpt>
      <trkpt lat="43.93271" lon="7.51986">
        <ele>301.51</ele>
        <time>2014-11-01T13:58:35Z</time>
      </trkpt>
      <trkpt lat="43.93279" lon="7.51971">
        <ele>301.03</ele>
        <time>2014-11-01T13:58:47Z</time>
      </trkpt>
      <trkpt lat="43.9328" lon="7.51969">
        <ele>300.55</ele>
        <time>2014-11-01T13:58:49Z</time>
      </trkpt>
      <trkpt lat="43.93284" lon="7.51947">
        <ele>300.55</ele>
        <time>2014-11-01T13:59:04Z</time>
      </trkpt>
      <trkpt lat="43.93292" lon="7.51934">
        <ele>300.55</ele>
        <time>2014-11-01T13:59:17Z</time>
      </trkpt>
      <trkpt lat="43.93293" lon="7.51922">
        <ele>301.51</ele>
        <time>2014-11-01T13:59:25Z</time>
      </trkpt>
      <trkpt lat="43.93294" lon="7.51912">
        <ele>301.03</ele>
        <time>2014-11-01T13:59:31Z</time>
      </trkpt>
      <trkpt lat="43.93308" lon="7.51887">
        <ele>299.11</ele>
        <time>2014-11-01T13:59:52Z</time>
      </trkpt>
      <trkpt lat="43.93308" lon="7.51878">
        <ele>298.15</ele>
        <time>2014-11-01T14:00:13Z</time>
      </trkpt>
      <trkpt lat="43.9331" lon="7.51864">
        <ele>297.18</ele>
        <time>2014-11-01T14:00:37Z</time>
      </trkpt>
      <trkpt lat="43.93312" lon="7.51855">
        <ele>296.22</ele>
        <time>2014-11-01T14:00:53Z</time>
      </trkpt>
      <trkpt lat="43.93312" lon="7.51852">
        <ele>295.74</ele>
        <time>2014-11-01T14:00:55Z</time>
      </trkpt>
      <trkpt lat="43.93313" lon="7.51844">
        <ele>294.3</ele>
        <time>2014-11-01T14:01:07Z</time>
      </trkpt>
      <trkpt lat="43.9332" lon="7.5183">
        <ele>295.26</ele>
        <time>2014-11-01T14:01:21Z</time>
      </trkpt>
      <trkpt lat="43.93325" lon="7.51828">
        <ele>297.67</ele>
        <time>2014-11-01T14:01:32Z</time>
      </trkpt>
      <trkpt lat="43.93333" lon="7.5183">
        <ele>301.03</ele>
        <time>2014-11-01T14:01:45Z</time>
      </trkpt>
      <trkpt lat="43.93339" lon="7.5184">
        <ele>300.07</ele>
        <time>2014-11-01T14:02:01Z</time>
      </trkpt>
      <trkpt lat="43.93342" lon="7.51848">
        <ele>298.63</ele>
        <time>2014-11-01T14:02:11Z</time>
      </trkpt>
      <trkpt lat="43.93354" lon="7.51868">
        <ele>296.22</ele>
        <time>2014-11-01T14:02:28Z</time>
      </trkpt>
      <trkpt lat="43.93356" lon="7.51872">
        <ele>295.26</ele>
        <time>2014-11-01T14:02:32Z</time>
      </trkpt>
      <trkpt lat="43.93362" lon="7.51879">
        <ele>292.38</ele>
        <time>2014-11-01T14:02:43Z</time>
      </trkpt>
      <trkpt lat="43.93376" lon="7.51883">
        <ele>289.49</ele>
        <time>2014-11-01T14:02:58Z</time>
      </trkpt>
      <trkpt lat="43.9339" lon="7.51889">
        <ele>287.57</ele>
        <time>2014-11-01T14:03:12Z</time>
      </trkpt>
      <trkpt lat="43.93409" lon="7.51892">
        <ele>289.97</ele>
        <time>2014-11-01T14:03:28Z</time>
      </trkpt>
      <trkpt lat="43.93413" lon="7.51891">
        <ele>290.46</ele>
        <time>2014-11-01T14:03:32Z</time>
      </trkpt>
      <trkpt lat="43.93422" lon="7.51891">
        <ele>289.97</ele>
        <time>2014-11-01T14:03:41Z</time>
      </trkpt>
      <trkpt lat="43.93434" lon="7.51889">
        <ele>288.05</ele>
        <time>2014-11-01T14:03:53Z</time>
      </trkpt>
      <trkpt lat="43.93438" lon="7.51889">
        <ele>287.57</ele>
        <time>2014-11-01T14:03:57Z</time>
      </trkpt>
      <trkpt lat="43.9344" lon="7.51889">
        <ele>287.57</ele>
        <time>2014-11-01T14:04:00Z</time>
      </trkpt>
      <trkpt lat="43.93459" lon="7.51891">
        <ele>286.13</ele>
        <time>2014-11-01T14:04:16Z</time>
      </trkpt>
      <trkpt lat="43.9347" lon="7.51889">
        <ele>285.65</ele>
        <time>2014-11-01T14:04:26Z</time>
      </trkpt>
      <trkpt lat="43.93486" lon="7.51897">
        <ele>287.09</ele>
        <time>2014-11-01T14:04:42Z</time>
      </trkpt>
      <trkpt lat="43.93489" lon="7.51898">
        <ele>287.09</ele>
        <time>2014-11-01T14:04:46Z</time>
      </trkpt>
      <trkpt lat="43.93497" lon="7.51899">
        <ele>288.53</ele>
        <time>2014-11-01T14:04:59Z</time>
      </trkpt>
      <trkpt lat="43.93508" lon="7.51907">
        <ele>291.9</ele>
        <time>2014-11-01T14:05:12Z</time>
      </trkpt>
      <trkpt lat="43.93509" lon="7.51908">
        <ele>291.9</ele>
        <time>2014-11-01T14:05:14Z</time>
      </trkpt>
      <trkpt lat="43.93515" lon="7.51915">
        <ele>292.86</ele>
        <time>2014-11-01T14:05:24Z</time>
      </trkpt>
      <trkpt lat="43.9353" lon="7.5192">
        <ele>294.78</ele>
        <time>2014-11-01T14:05:40Z</time>
      </trkpt>
      <trkpt lat="43.93537" lon="7.51925">
        <ele>296.7</ele>
        <time>2014-11-01T14:05:50Z</time>
      </trkpt>
      <trkpt lat="43.93542" lon="7.51928">
        <ele>298.15</ele>
        <time>2014-11-01T14:05:58Z</time>
      </trkpt>
      <trkpt lat="43.93551" lon="7.51929">
        <ele>300.07</ele>
        <time>2014-11-01T14:06:11Z</time>
      </trkpt>
      <trkpt lat="43.93552" lon="7.51929">
        <ele>300.55</ele>
        <time>2014-11-01T14:06:12Z</time>
      </trkpt>
      <trkpt lat="43.93561" lon="7.51934">
        <ele>303.91</ele>
        <time>2014-11-01T14:06:24Z</time>
      </trkpt>
      <trkpt lat="43.93573" lon="7.51933">
        <ele>304.39</ele>
        <time>2014-11-01T14:06:40Z</time>
      </trkpt>
      <trkpt lat="43.9358" lon="7.51934">
        <ele>303.43</ele>
        <time>2014-11-01T14:06:56Z</time>
      </trkpt>
      <trkpt lat="43.93584" lon="7.51933">
        <ele>301.99</ele>
        <time>2014-11-01T14:07:13Z</time>
      </trkpt>
      <trkpt lat="43.93582" lon="7.51934">
        <ele>302.47</ele>
        <time>2014-11-01T14:07:47Z</time>
      </trkpt>
      <trkpt lat="43.93581" lon="7.51934">
        <ele>301.51</ele>
        <time>2014-11-01T14:08:02Z</time>
      </trkpt>
      <trkpt lat="43.9358" lon="7.51934">
        <ele>301.03</ele>
        <time>2014-11-01T14:09:01Z</time>
      </trkpt>
      <trkpt lat="43.93587" lon="7.51937">
        <ele>301.03</ele>
        <time>2014-11-01T14:09:13Z</time>
      </trkpt>
      <trkpt lat="43.93588" lon="7.51939">
        <ele>300.55</ele>
        <time>2014-11-01T14:09:16Z</time>
      </trkpt>
      <trkpt lat="43.93592" lon="7.51944">
        <ele>299.59</ele>
        <time>2014-11-01T14:09:21Z</time>
      </trkpt>
      <trkpt lat="43.93599" lon="7.51945">
        <ele>298.15</ele>
        <time>2014-11-01T14:09:28Z</time>
      </trkpt>
      <trkpt lat="43.9361" lon="7.51946">
        <ele>295.74</ele>
        <time>2014-11-01T14:09:38Z</time>
      </trkpt>
      <trkpt lat="43.93627" lon="7.51945">
        <ele>294.78</ele>
        <time>2014-11-01T14:09:54Z</time>
      </trkpt>
      <trkpt lat="43.93633" lon="7.51952">
        <ele>294.78</ele>
        <time>2014-11-01T14:10:10Z</time>
      </trkpt>
      <trkpt lat="43.93635" lon="7.51955">
        <ele>294.3</ele>
        <time>2014-11-01T14:10:13Z</time>
      </trkpt>
      <trkpt lat="43.93639" lon="7.51961">
        <ele>293.82</ele>
        <time>2014-11-01T14:10:18Z</time>
      </trkpt>
      <trkpt lat="43.9365" lon="7.51974">
        <ele>294.78</ele>
        <time>2014-11-01T14:10:30Z</time>
      </trkpt>
      <trkpt lat="43.93654" lon="7.51971">
        <ele>296.22</ele>
        <time>2014-11-01T14:10:34Z</time>
      </trkpt>
      <trkpt lat="43.93659" lon="7.51947">
        <ele>299.11</ele>
        <time>2014-11-01T14:10:51Z</time>
      </trkpt>
      <trkpt lat="43.93659" lon="7.51938">
        <ele>300.07</ele>
        <time>2014-11-01T14:10:58Z</time>
      </trkpt>
      <trkpt lat="43.93661" lon="7.51935">
        <ele>299.11</ele>
        <time>2014-11-01T14:11:00Z</time>
      </trkpt>
      <trkpt lat="43.93666" lon="7.51923">
        <ele>298.63</ele>
        <time>2014-11-01T14:11:08Z</time>
      </trkpt>
      <trkpt lat="43.9367" lon="7.51917">
        <ele>297.67</ele>
        <time>2014-11-01T14:11:13Z</time>
      </trkpt>
      <trkpt lat="43.93673" lon="7.5191">
        <ele>296.7</ele>
        <time>2014-11-01T14:11:19Z</time>
      </trkpt>
      <trkpt lat="43.9368" lon="7.51896">
        <ele>295.74</ele>
        <time>2014-11-01T14:11:34Z</time>
      </trkpt>
      <trkpt lat="43.93687" lon="7.51888">
        <ele>292.86</ele>
        <time>2014-11-01T14:11:52Z</time>
      </trkpt>
      <trkpt lat="43.9369" lon="7.51887">
        <ele>291.9</ele>
        <time>2014-11-01T14:11:55Z</time>
      </trkpt>
      <trkpt lat="43.93696" lon="7.51888">
        <ele>291.9</ele>
        <time>2014-11-01T14:12:00Z</time>
      </trkpt>
      <trkpt lat="43.93699" lon="7.51886">
        <ele>291.9</ele>
        <time>2014-11-01T14:12:03Z</time>
      </trkpt>
      <trkpt lat="43.937" lon="7.51884">
        <ele>291.9</ele>
        <time>2014-11-01T14:12:05Z</time>
      </trkpt>
      <trkpt lat="43.93715" lon="7.51877">
        <ele>290.46</ele>
        <time>2014-11-01T14:12:20Z</time>
      </trkpt>
      <trkpt lat="43.93716" lon="7.51877">
        <ele>290.46</ele>
        <time>2014-11-01T14:12:21Z</time>
      </trkpt>
      <trkpt lat="43.93725" lon="7.5187">
        <ele>290.46</ele>
        <time>2014-11-01T14:12:30Z</time>
      </trkpt>
      <trkpt lat="43.93729" lon="7.51867">
        <ele>290.46</ele>
        <time>2014-11-01T14:12:34Z</time>
      </trkpt>
      <trkpt lat="43.93737" lon="7.5186">
        <ele>288.53</ele>
        <time>2014-11-01T14:12:48Z</time>
      </trkpt>
      <trkpt lat="43.93747" lon="7.51845">
        <ele>288.05</ele>
        <time>2014-11-01T14:13:03Z</time>
      </trkpt>
      <trkpt lat="43.93747" lon="7.51842">
        <ele>288.05</ele>
        <time>2014-11-01T14:13:06Z</time>
      </trkpt>
      <trkpt lat="43.93746" lon="7.51831">
        <ele>288.05</ele>
        <time>2014-11-01T14:13:21Z</time>
      </trkpt>
      <trkpt lat="43.93742" lon="7.51817">
        <ele>289.49</ele>
        <time>2014-11-01T14:13:36Z</time>
      </trkpt>
      <trkpt lat="43.93739" lon="7.51802">
        <ele>287.57</ele>
        <time>2014-11-01T14:13:52Z</time>
      </trkpt>
      <trkpt lat="43.93733" lon="7.5179">
        <ele>285.17</ele>
        <time>2014-11-01T14:14:08Z</time>
      </trkpt>
      <trkpt lat="43.93727" lon="7.51777">
        <ele>281.32</ele>
        <time>2014-11-01T14:14:25Z</time>
      </trkpt>
      <trkpt lat="43.93723" lon="7.51768">
        <ele>279.88</ele>
        <time>2014-11-01T14:14:38Z</time>
      </trkpt>
      <trkpt lat="43.93722" lon="7.51767">
        <ele>279.4</ele>
        <time>2014-11-01T14:14:40Z</time>
      </trkpt>
      <trkpt lat="43.93719" lon="7.51762">
        <ele>279.88</ele>
        <time>2014-11-01T14:14:44Z</time>
      </trkpt>
      <trkpt lat="43.93709" lon="7.51747">
        <ele>280.84</ele>
        <time>2014-11-01T14:14:57Z</time>
      </trkpt>
      <trkpt lat="43.93698" lon="7.51728">
        <ele>281.8</ele>
        <time>2014-11-01T14:15:13Z</time>
      </trkpt>
      <trkpt lat="43.93689" lon="7.51715">
        <ele>283.73</ele>
        <time>2014-11-01T14:15:26Z</time>
      </trkpt>
      <trkpt lat="43.93676" lon="7.517">
        <ele>285.65</ele>
        <time>2014-11-01T14:15:42Z</time>
      </trkpt>
      <trkpt lat="43.93671" lon="7.5169">
        <ele>287.09</ele>
        <time>2014-11-01T14:15:50Z</time>
      </trkpt>
      <trkpt lat="43.93667" lon="7.51677">
        <ele>288.05</ele>
        <time>2014-11-01T14:16:02Z</time>
      </trkpt>
      <trkpt lat="43.93661" lon="7.51668">
        <ele>289.49</ele>
        <time>2014-11-01T14:16:09Z</time>
      </trkpt>
      <trkpt lat="43.93646" lon="7.51655">
        <ele>293.82</ele>
        <time>2014-11-01T14:16:25Z</time>
      </trkpt>
      <trkpt lat="43.93645" lon="7.51654">
        <ele>294.3</ele>
        <time>2014-11-01T14:16:26Z</time>
      </trkpt>
      <trkpt lat="43.93644" lon="7.5165">
        <ele>295.26</ele>
        <time>2014-11-01T14:16:29Z</time>
      </trkpt>
      <trkpt lat="43.93635" lon="7.5163">
        <ele>299.59</ele>
        <time>2014-11-01T14:16:42Z</time>
      </trkpt>
      <trkpt lat="43.93634" lon="7.51628">
        <ele>300.07</ele>
        <time>2014-11-01T14:16:44Z</time>
      </trkpt>
      <trkpt lat="43.93628" lon="7.51609">
        <ele>301.03</ele>
        <time>2014-11-01T14:16:58Z</time>
      </trkpt>
      <trkpt lat="43.93624" lon="7.51595">
        <ele>302.95</ele>
        <time>2014-11-01T14:17:10Z</time>
      </trkpt>
      <trkpt lat="43.93623" lon="7.51593">
        <ele>302.95</ele>
        <time>2014-11-01T14:17:12Z</time>
      </trkpt>
      <trkpt lat="43.93617" lon="7.51578">
        <ele>303.43</ele>
        <time>2014-11-01T14:17:25Z</time>
      </trkpt>
      <trkpt lat="43.93606" lon="7.51566">
        <ele>302.95</ele>
        <time>2014-11-01T14:17:37Z</time>
      </trkpt>
      <trkpt lat="43.93604" lon="7.51564">
        <ele>302.95</ele>
        <time>2014-11-01T14:17:40Z</time>
      </trkpt>
      <trkpt lat="43.93595" lon="7.51547">
        <ele>303.43</ele>
        <time>2014-11-01T14:17:53Z</time>
      </trkpt>
      <trkpt lat="43.93591" lon="7.51538">
        <ele>303.43</ele>
        <time>2014-11-01T14:18:05Z</time>
      </trkpt>
      <trkpt lat="43.93577" lon="7.51523">
        <ele>303.43</ele>
        <time>2014-11-01T14:18:19Z</time>
      </trkpt>
      <trkpt lat="43.93576" lon="7.51516">
        <ele>303.91</ele>
        <time>2014-11-01T14:18:23Z</time>
      </trkpt>
      <trkpt lat="43.93577" lon="7.51491">
        <ele>304.39</ele>
        <time>2014-11-01T14:18:39Z</time>
      </trkpt>
      <trkpt lat="43.93582" lon="7.51477">
        <ele>303.91</ele>
        <time>2014-11-01T14:18:49Z</time>
      </trkpt>
      <trkpt lat="43.93587" lon="7.51475">
        <ele>302.95</ele>
        <time>2014-11-01T14:19:08Z</time>
      </trkpt>
      <trkpt lat="43.93583" lon="7.51481">
        <ele>302.95</ele>
        <time>2014-11-01T14:19:25Z</time>
      </trkpt>
      <trkpt lat="43.93578" lon="7.51495">
        <ele>302.95</ele>
        <time>2014-11-01T14:19:44Z</time>
      </trkpt>
      <trkpt lat="43.93579" lon="7.51505">
        <ele>303.43</ele>
        <time>2014-11-01T14:20:01Z</time>
      </trkpt>
      <trkpt lat="43.93579" lon="7.51505">
        <ele>303.43</ele>
        <time>2014-11-01T14:20:02Z</time>
      </trkpt>
      <trkpt lat="43.93584" lon="7.51525">
        <ele>304.39</ele>
        <time>2014-11-01T14:20:21Z</time>
      </trkpt>
      <trkpt lat="43.93589" lon="7.51536">
        <ele>304.88</ele>
        <time>2014-11-01T14:20:44Z</time>
      </trkpt>
      <trkpt lat="43.93595" lon="7.51547">
        <ele>306.32</ele>
        <time>2014-11-01T14:20:59Z</time>
      </trkpt>
      <trkpt lat="43.93595" lon="7.5155">
        <ele>308.24</ele>
        <time>2014-11-01T14:21:14Z</time>
      </trkpt>
      <trkpt lat="43.93595" lon="7.5155">
        <ele>308.24</ele>
        <time>2014-11-01T14:21:20Z</time>
      </trkpt>
      <trkpt lat="43.93588" lon="7.51538">
        <ele>308.72</ele>
        <time>2014-11-01T14:21:32Z</time>
      </trkpt>
      <trkpt lat="43.93578" lon="7.5151">
        <ele>309.2</ele>
        <time>2014-11-01T14:21:51Z</time>
      </trkpt>
      <trkpt lat="43.93579" lon="7.51509">
        <ele>309.2</ele>
        <time>2014-11-01T14:21:52Z</time>
      </trkpt>
      <trkpt lat="43.93581" lon="7.51498">
        <ele>309.2</ele>
        <time>2014-11-01T14:21:59Z</time>
      </trkpt>
      <trkpt lat="43.93586" lon="7.51473">
        <ele>307.28</ele>
        <time>2014-11-01T14:22:17Z</time>
      </trkpt>
      <trkpt lat="43.9359" lon="7.51466">
        <ele>305.84</ele>
        <time>2014-11-01T14:22:35Z</time>
      </trkpt>
      <trkpt lat="43.93599" lon="7.51451">
        <ele>304.39</ele>
        <time>2014-11-01T14:22:53Z</time>
      </trkpt>
      <trkpt lat="43.93599" lon="7.51452">
        <ele>304.39</ele>
        <time>2014-11-01T14:23:10Z</time>
      </trkpt>
      <trkpt lat="43.93609" lon="7.5146">
        <ele>304.88</ele>
        <time>2014-11-01T14:23:27Z</time>
      </trkpt>
      <trkpt lat="43.93625" lon="7.51456">
        <ele>305.36</ele>
        <time>2014-11-01T14:23:41Z</time>
      </trkpt>
      <trkpt lat="43.93648" lon="7.51455">
        <ele>305.84</ele>
        <time>2014-11-01T14:24:00Z</time>
      </trkpt>
      <trkpt lat="43.93661" lon="7.51462">
        <ele>305.36</ele>
        <time>2014-11-01T14:24:18Z</time>
      </trkpt>
      <trkpt lat="43.93684" lon="7.51466">
        <ele>306.8</ele>
        <time>2014-11-01T14:24:37Z</time>
      </trkpt>
      <trkpt lat="43.93703" lon="7.51471">
        <ele>305.84</ele>
        <time>2014-11-01T14:24:57Z</time>
      </trkpt>
      <trkpt lat="43.93724" lon="7.51482">
        <ele>301.99</ele>
        <time>2014-11-01T14:25:16Z</time>
      </trkpt>
      <trkpt lat="43.93732" lon="7.51484">
        <ele>301.03</ele>
        <time>2014-11-01T14:25:22Z</time>
      </trkpt>
      <trkpt lat="43.93742" lon="7.51493">
        <ele>298.63</ele>
        <time>2014-11-01T14:25:33Z</time>
      </trkpt>
      <trkpt lat="43.93763" lon="7.51506">
        <ele>297.18</ele>
        <time>2014-11-01T14:25:54Z</time>
      </trkpt>
      <trkpt lat="43.93783" lon="7.51523">
        <ele>298.15</ele>
        <time>2014-11-01T14:26:14Z</time>
      </trkpt>
      <trkpt lat="43.93803" lon="7.51532">
        <ele>298.63</ele>
        <time>2014-11-01T14:26:34Z</time>
      </trkpt>
      <trkpt lat="43.93823" lon="7.51542">
        <ele>301.03</ele>
        <time>2014-11-01T14:26:54Z</time>
      </trkpt>
      <trkpt lat="43.93831" lon="7.51534">
        <ele>299.11</ele>
        <time>2014-11-01T14:27:03Z</time>
      </trkpt>
      <trkpt lat="43.93839" lon="7.51523">
        <ele>300.07</ele>
        <time>2014-11-01T14:27:18Z</time>
      </trkpt>
      <trkpt lat="43.93843" lon="7.51527">
        <ele>300.55</ele>
        <time>2014-11-01T14:27:22Z</time>
      </trkpt>
      <trkpt lat="43.9386" lon="7.51544">
        <ele>299.11</ele>
        <time>2014-11-01T14:27:39Z</time>
      </trkpt>
      <trkpt lat="43.93875" lon="7.51573">
        <ele>301.51</ele>
        <time>2014-11-01T14:27:57Z</time>
      </trkpt>
      <trkpt lat="43.93882" lon="7.51584">
        <ele>301.03</ele>
        <time>2014-11-01T14:28:08Z</time>
      </trkpt>
      <trkpt lat="43.93885" lon="7.51592">
        <ele>301.51</ele>
        <time>2014-11-01T14:28:12Z</time>
      </trkpt>
      <trkpt lat="43.93886" lon="7.51596">
        <ele>301.03</ele>
        <time>2014-11-01T14:28:15Z</time>
      </trkpt>
      <trkpt lat="43.93891" lon="7.51602">
        <ele>299.59</ele>
        <time>2014-11-01T14:28:23Z</time>
      </trkpt>
      <trkpt lat="43.93898" lon="7.51613">
        <ele>296.7</ele>
        <time>2014-11-01T14:28:32Z</time>
      </trkpt>
      <trkpt lat="43.93902" lon="7.51619">
        <ele>294.78</ele>
        <time>2014-11-01T14:28:36Z</time>
      </trkpt>
      <trkpt lat="43.93914" lon="7.51623">
        <ele>293.34</ele>
        <time>2014-11-01T14:28:49Z</time>
      </trkpt>
      <trkpt lat="43.93914" lon="7.51622">
        <ele>292.86</ele>
        <time>2014-11-01T14:28:50Z</time>
      </trkpt>
      <trkpt lat="43.93917" lon="7.5161">
        <ele>286.61</ele>
        <time>2014-11-01T14:29:05Z</time>
      </trkpt>
      <trkpt lat="43.93915" lon="7.51606">
        <ele>285.17</ele>
        <time>2014-11-01T14:29:10Z</time>
      </trkpt>
      <trkpt lat="43.93911" lon="7.51597">
        <ele>284.69</ele>
        <time>2014-11-01T14:29:15Z</time>
      </trkpt>
      <trkpt lat="43.93904" lon="7.51576">
        <ele>288.05</ele>
        <time>2014-11-01T14:29:31Z</time>
      </trkpt>
      <trkpt lat="43.93893" lon="7.51554">
        <ele>290.94</ele>
        <time>2014-11-01T14:29:45Z</time>
      </trkpt>
      <trkpt lat="43.9389" lon="7.51545">
        <ele>292.38</ele>
        <time>2014-11-01T14:29:52Z</time>
      </trkpt>
      <trkpt lat="43.93879" lon="7.51514">
        <ele>291.42</ele>
        <time>2014-11-01T14:30:11Z</time>
      </trkpt>
      <trkpt lat="43.93869" lon="7.51489">
        <ele>293.82</ele>
        <time>2014-11-01T14:30:28Z</time>
      </trkpt>
      <trkpt lat="43.93862" lon="7.51474">
        <ele>293.34</ele>
        <time>2014-11-01T14:30:43Z</time>
      </trkpt>
      <trkpt lat="43.93855" lon="7.51457">
        <ele>292.38</ele>
        <time>2014-11-01T14:31:03Z</time>
      </trkpt>
      <trkpt lat="43.93847" lon="7.51432">
        <ele>289.49</ele>
        <time>2014-11-01T14:31:17Z</time>
      </trkpt>
      <trkpt lat="43.9384" lon="7.51414">
        <ele>285.65</ele>
        <time>2014-11-01T14:31:33Z</time>
      </trkpt>
      <trkpt lat="43.93827" lon="7.51397">
        <ele>288.53</ele>
        <time>2014-11-01T14:31:48Z</time>
      </trkpt>
      <trkpt lat="43.93816" lon="7.5139">
        <ele>290.46</ele>
        <time>2014-11-01T14:31:57Z</time>
      </trkpt>
      <trkpt lat="43.93812" lon="7.51389">
        <ele>290.94</ele>
        <time>2014-11-01T14:32:00Z</time>
      </trkpt>
      <trkpt lat="43.93798" lon="7.51386">
        <ele>291.42</ele>
        <time>2014-11-01T14:32:14Z</time>
      </trkpt>
      <trkpt lat="43.93791" lon="7.51386">
        <ele>291.9</ele>
        <time>2014-11-01T14:32:26Z</time>
      </trkpt>
      <trkpt lat="43.93776" lon="7.51385">
        <ele>293.34</ele>
        <time>2014-11-01T14:32:40Z</time>
      </trkpt>
      <trkpt lat="43.93769" lon="7.51377">
        <ele>294.78</ele>
        <time>2014-11-01T14:32:46Z</time>
      </trkpt>
      <trkpt lat="43.93751" lon="7.51373">
        <ele>294.3</ele>
        <time>2014-11-01T14:33:02Z</time>
      </trkpt>
      <trkpt lat="43.93751" lon="7.51373">
        <ele>294.3</ele>
        <time>2014-11-01T14:33:31Z</time>
      </trkpt>
      <trkpt lat="43.93751" lon="7.51373">
        <ele>294.3</ele>
        <time>2014-11-01T14:33:32Z</time>
      </trkpt>
      <trkpt lat="43.93748" lon="7.51382">
        <ele>293.34</ele>
        <time>2014-11-01T14:33:40Z</time>
      </trkpt>
      <trkpt lat="43.93751" lon="7.51395">
        <ele>293.34</ele>
        <time>2014-11-01T14:33:50Z</time>
      </trkpt>
      <trkpt lat="43.93758" lon="7.51401">
        <ele>288.53</ele>
        <time>2014-11-01T14:34:04Z</time>
      </trkpt>
      <trkpt lat="43.93762" lon="7.51401">
        <ele>286.61</ele>
        <time>2014-11-01T14:34:18Z</time>
      </trkpt>
      <trkpt lat="43.93762" lon="7.51402">
        <ele>287.09</ele>
        <time>2014-11-01T14:34:55Z</time>
      </trkpt>
      <trkpt lat="43.93762" lon="7.51403">
        <ele>287.09</ele>
        <time>2014-11-01T14:35:15Z</time>
      </trkpt>
      <trkpt lat="43.93764" lon="7.51403">
        <ele>286.13</ele>
        <time>2014-11-01T14:35:34Z</time>
      </trkpt>
      <trkpt lat="43.93764" lon="7.51403">
        <ele>286.13</ele>
        <time>2014-11-01T14:35:39Z</time>
      </trkpt>
      <trkpt lat="43.93764" lon="7.51404">
        <ele>285.65</ele>
        <time>2014-11-01T14:36:03Z</time>
      </trkpt>
      <trkpt lat="43.93764" lon="7.51404">
        <ele>285.65</ele>
        <time>2014-11-01T14:36:41Z</time>
      </trkpt>
    </trkseg>
  </trk>
</gpx>